<?xml version="1.0" encoding="UTF-8" standalone="no" ?>
<gpx xmlns="http://www.topografix.com/GPX/1/1" xmlns:xsi="http://www.w3.org/2001/XMLSchema-instance" xsi:schemaLocation="http://www.topografix.com/GPX/1/1 http://www.topografix.com/GPX/1/1/gpx.xsd" version="1.1" creator="VisuGPX - https://www.visugpx.com">
  <metadata>
    <name>Tour d'Europe étape 004 partB</name>
  </metadata>
  <trk>
    <name><![CDATA[Tour d'Europe étape 004 partB_1]]></name>
    <trkseg>
      <trkpt lat="51.90059" lon="4.20995">
        <ele>65</ele>
        <time>2020-07-02T14:28:27Z</time>
      </trkpt>
      <trkpt lat="51.90059" lon="4.20995">
        <ele>65</ele>
        <time>2020-07-02T14:28:33Z</time>
      </trkpt>
      <trkpt lat="51.90059" lon="4.20995">
        <ele>64</ele>
        <time>2020-07-02T14:28:38Z</time>
      </trkpt>
      <trkpt lat="51.90059" lon="4.20995">
        <ele>63</ele>
        <time>2020-07-02T14:28:44Z</time>
      </trkpt>
      <trkpt lat="51.90059" lon="4.20995">
        <ele>62</ele>
        <time>2020-07-02T14:28:50Z</time>
      </trkpt>
      <trkpt lat="51.90058" lon="4.20995">
        <ele>62</ele>
        <time>2020-07-02T14:28:55Z</time>
      </trkpt>
      <trkpt lat="51.90058" lon="4.20995">
        <ele>62</ele>
        <time>2020-07-02T14:29:01Z</time>
      </trkpt>
      <trkpt lat="51.90058" lon="4.20995">
        <ele>62</ele>
        <time>2020-07-02T14:29:07Z</time>
      </trkpt>
      <trkpt lat="51.90058" lon="4.20995">
        <ele>62</ele>
        <time>2020-07-02T14:29:12Z</time>
      </trkpt>
      <trkpt lat="51.90058" lon="4.20995">
        <ele>62</ele>
        <time>2020-07-02T14:29:18Z</time>
      </trkpt>
      <trkpt lat="51.90058" lon="4.20995">
        <ele>62</ele>
        <time>2020-07-02T14:29:23Z</time>
      </trkpt>
      <trkpt lat="51.90058" lon="4.20995">
        <ele>62</ele>
        <time>2020-07-02T14:29:28Z</time>
      </trkpt>
      <trkpt lat="51.90058" lon="4.20995">
        <ele>62</ele>
        <time>2020-07-02T14:29:33Z</time>
      </trkpt>
      <trkpt lat="51.90058" lon="4.20995">
        <ele>62</ele>
        <time>2020-07-02T14:29:39Z</time>
      </trkpt>
      <trkpt lat="51.90058" lon="4.20995">
        <ele>62</ele>
        <time>2020-07-02T14:29:44Z</time>
      </trkpt>
      <trkpt lat="51.90058" lon="4.20995">
        <ele>62</ele>
        <time>2020-07-02T14:29:50Z</time>
      </trkpt>
      <trkpt lat="51.90058" lon="4.20993">
        <ele>60</ele>
        <time>2020-07-02T14:29:55Z</time>
      </trkpt>
      <trkpt lat="51.90057" lon="4.20991">
        <ele>58</ele>
        <time>2020-07-02T14:30:00Z</time>
      </trkpt>
      <trkpt lat="51.90057" lon="4.20992">
        <ele>58</ele>
        <time>2020-07-02T14:30:06Z</time>
      </trkpt>
      <trkpt lat="51.90057" lon="4.20992">
        <ele>57</ele>
        <time>2020-07-02T14:30:11Z</time>
      </trkpt>
      <trkpt lat="51.90057" lon="4.20992">
        <ele>57</ele>
        <time>2020-07-02T14:30:16Z</time>
      </trkpt>
      <trkpt lat="51.90057" lon="4.20992">
        <ele>57</ele>
        <time>2020-07-02T14:30:22Z</time>
      </trkpt>
      <trkpt lat="51.90057" lon="4.20992">
        <ele>57</ele>
        <time>2020-07-02T14:30:28Z</time>
      </trkpt>
      <trkpt lat="51.90057" lon="4.20992">
        <ele>57</ele>
        <time>2020-07-02T14:30:34Z</time>
      </trkpt>
      <trkpt lat="51.90057" lon="4.20992">
        <ele>57</ele>
        <time>2020-07-02T14:30:39Z</time>
      </trkpt>
      <trkpt lat="51.90057" lon="4.20993">
        <ele>57</ele>
        <time>2020-07-02T14:30:45Z</time>
      </trkpt>
      <trkpt lat="51.90057" lon="4.20993">
        <ele>57</ele>
        <time>2020-07-02T14:30:51Z</time>
      </trkpt>
      <trkpt lat="51.90057" lon="4.20993">
        <ele>57</ele>
        <time>2020-07-02T14:30:56Z</time>
      </trkpt>
      <trkpt lat="51.90057" lon="4.20993">
        <ele>57</ele>
        <time>2020-07-02T14:31:02Z</time>
      </trkpt>
      <trkpt lat="51.90057" lon="4.20993">
        <ele>57</ele>
        <time>2020-07-02T14:31:08Z</time>
      </trkpt>
      <trkpt lat="51.90057" lon="4.20993">
        <ele>57</ele>
        <time>2020-07-02T14:31:14Z</time>
      </trkpt>
      <trkpt lat="51.90057" lon="4.20993">
        <ele>57</ele>
        <time>2020-07-02T14:31:20Z</time>
      </trkpt>
      <trkpt lat="51.90057" lon="4.20993">
        <ele>57</ele>
        <time>2020-07-02T14:31:25Z</time>
      </trkpt>
      <trkpt lat="51.90057" lon="4.20993">
        <ele>57</ele>
        <time>2020-07-02T14:31:30Z</time>
      </trkpt>
      <trkpt lat="51.90057" lon="4.20993">
        <ele>57</ele>
        <time>2020-07-02T14:31:36Z</time>
      </trkpt>
      <trkpt lat="51.90057" lon="4.20993">
        <ele>57</ele>
        <time>2020-07-02T14:31:42Z</time>
      </trkpt>
      <trkpt lat="51.90057" lon="4.20993">
        <ele>57</ele>
        <time>2020-07-02T14:31:47Z</time>
      </trkpt>
      <trkpt lat="51.90057" lon="4.20993">
        <ele>57</ele>
        <time>2020-07-02T14:31:52Z</time>
      </trkpt>
      <trkpt lat="51.90057" lon="4.20993">
        <ele>57</ele>
        <time>2020-07-02T14:31:58Z</time>
      </trkpt>
      <trkpt lat="51.90057" lon="4.20994">
        <ele>58</ele>
        <time>2020-07-02T14:32:03Z</time>
      </trkpt>
      <trkpt lat="51.90056" lon="4.20994">
        <ele>56</ele>
        <time>2020-07-02T14:32:08Z</time>
      </trkpt>
      <trkpt lat="51.90055" lon="4.20995">
        <ele>55</ele>
        <time>2020-07-02T14:32:14Z</time>
      </trkpt>
      <trkpt lat="51.90055" lon="4.20996">
        <ele>55</ele>
        <time>2020-07-02T14:32:20Z</time>
      </trkpt>
      <trkpt lat="51.90055" lon="4.20996">
        <ele>54</ele>
        <time>2020-07-02T14:32:26Z</time>
      </trkpt>
      <trkpt lat="51.90057" lon="4.20995">
        <ele>53</ele>
        <time>2020-07-02T14:32:32Z</time>
      </trkpt>
      <trkpt lat="51.90057" lon="4.20996">
        <ele>52</ele>
        <time>2020-07-02T14:32:37Z</time>
      </trkpt>
      <trkpt lat="51.90057" lon="4.20995">
        <ele>53</ele>
        <time>2020-07-02T14:32:42Z</time>
      </trkpt>
      <trkpt lat="51.90056" lon="4.20993">
        <ele>52</ele>
        <time>2020-07-02T14:32:48Z</time>
      </trkpt>
      <trkpt lat="51.90057" lon="4.20993">
        <ele>53</ele>
        <time>2020-07-02T14:32:53Z</time>
      </trkpt>
      <trkpt lat="51.90055" lon="4.20996">
        <ele>55</ele>
        <time>2020-07-02T14:32:59Z</time>
      </trkpt>
      <trkpt lat="51.90057" lon="4.20995">
        <ele>55</ele>
        <time>2020-07-02T14:33:05Z</time>
      </trkpt>
      <trkpt lat="51.90056" lon="4.20993">
        <ele>54</ele>
        <time>2020-07-02T14:33:10Z</time>
      </trkpt>
      <trkpt lat="51.90055" lon="4.20993">
        <ele>53</ele>
        <time>2020-07-02T14:33:16Z</time>
      </trkpt>
      <trkpt lat="51.90055" lon="4.20995">
        <ele>53</ele>
        <time>2020-07-02T14:33:22Z</time>
      </trkpt>
      <trkpt lat="51.90056" lon="4.20995">
        <ele>53</ele>
        <time>2020-07-02T14:33:27Z</time>
      </trkpt>
      <trkpt lat="51.90059" lon="4.20998">
        <ele>56</ele>
        <time>2020-07-02T14:33:33Z</time>
      </trkpt>
      <trkpt lat="51.90064" lon="4.21005">
        <ele>57</ele>
        <time>2020-07-02T14:33:38Z</time>
      </trkpt>
      <trkpt lat="51.90078" lon="4.21017">
        <ele>56</ele>
        <time>2020-07-02T14:33:44Z</time>
      </trkpt>
      <trkpt lat="51.90093" lon="4.21032">
        <ele>54</ele>
        <time>2020-07-02T14:33:50Z</time>
      </trkpt>
      <trkpt lat="51.90109" lon="4.21047">
        <ele>56</ele>
        <time>2020-07-02T14:33:56Z</time>
      </trkpt>
      <trkpt lat="51.90121" lon="4.2106">
        <ele>54</ele>
        <time>2020-07-02T14:34:01Z</time>
      </trkpt>
      <trkpt lat="51.90134" lon="4.21079">
        <ele>54</ele>
        <time>2020-07-02T14:34:07Z</time>
      </trkpt>
      <trkpt lat="51.90145" lon="4.21094">
        <ele>56</ele>
        <time>2020-07-02T14:34:12Z</time>
      </trkpt>
      <trkpt lat="51.9016" lon="4.21114">
        <ele>57</ele>
        <time>2020-07-02T14:34:18Z</time>
      </trkpt>
      <trkpt lat="51.90171" lon="4.21128">
        <ele>57</ele>
        <time>2020-07-02T14:34:23Z</time>
      </trkpt>
      <trkpt lat="51.90184" lon="4.21146">
        <ele>59</ele>
        <time>2020-07-02T14:34:29Z</time>
      </trkpt>
      <trkpt lat="51.90197" lon="4.21161">
        <ele>57</ele>
        <time>2020-07-02T14:34:34Z</time>
      </trkpt>
      <trkpt lat="51.90212" lon="4.21182">
        <ele>56</ele>
        <time>2020-07-02T14:34:40Z</time>
      </trkpt>
      <trkpt lat="51.90227" lon="4.21204">
        <ele>56</ele>
        <time>2020-07-02T14:34:46Z</time>
      </trkpt>
      <trkpt lat="51.90238" lon="4.2123">
        <ele>54</ele>
        <time>2020-07-02T14:34:51Z</time>
      </trkpt>
      <trkpt lat="51.90224" lon="4.21263">
        <ele>52</ele>
        <time>2020-07-02T14:34:56Z</time>
      </trkpt>
      <trkpt lat="51.90206" lon="4.21298">
        <ele>51</ele>
        <time>2020-07-02T14:35:02Z</time>
      </trkpt>
      <trkpt lat="51.9019" lon="4.21333">
        <ele>51</ele>
        <time>2020-07-02T14:35:07Z</time>
      </trkpt>
      <trkpt lat="51.9017" lon="4.21378">
        <ele>50</ele>
        <time>2020-07-02T14:35:13Z</time>
      </trkpt>
      <trkpt lat="51.90148" lon="4.21427">
        <ele>48</ele>
        <time>2020-07-02T14:35:19Z</time>
      </trkpt>
      <trkpt lat="51.9013" lon="4.21475">
        <ele>46</ele>
        <time>2020-07-02T14:35:25Z</time>
      </trkpt>
      <trkpt lat="51.90112" lon="4.21526">
        <ele>49</ele>
        <time>2020-07-02T14:35:31Z</time>
      </trkpt>
      <trkpt lat="51.90094" lon="4.21572">
        <ele>47</ele>
        <time>2020-07-02T14:35:36Z</time>
      </trkpt>
      <trkpt lat="51.90079" lon="4.21622">
        <ele>49</ele>
        <time>2020-07-02T14:35:41Z</time>
      </trkpt>
      <trkpt lat="51.90064" lon="4.21672">
        <ele>46</ele>
        <time>2020-07-02T14:35:46Z</time>
      </trkpt>
      <trkpt lat="51.90048" lon="4.21736">
        <ele>45</ele>
        <time>2020-07-02T14:35:52Z</time>
      </trkpt>
      <trkpt lat="51.90036" lon="4.21796">
        <ele>45</ele>
        <time>2020-07-02T14:35:58Z</time>
      </trkpt>
      <trkpt lat="51.90024" lon="4.2185">
        <ele>47</ele>
        <time>2020-07-02T14:36:04Z</time>
      </trkpt>
      <trkpt lat="51.90023" lon="4.21888">
        <ele>48</ele>
        <time>2020-07-02T14:36:09Z</time>
      </trkpt>
      <trkpt lat="51.90028" lon="4.21927">
        <ele>48</ele>
        <time>2020-07-02T14:36:14Z</time>
      </trkpt>
      <trkpt lat="51.90026" lon="4.21974">
        <ele>47</ele>
        <time>2020-07-02T14:36:20Z</time>
      </trkpt>
      <trkpt lat="51.90026" lon="4.22023">
        <ele>47</ele>
        <time>2020-07-02T14:36:26Z</time>
      </trkpt>
      <trkpt lat="51.90027" lon="4.22077">
        <ele>49</ele>
        <time>2020-07-02T14:36:32Z</time>
      </trkpt>
      <trkpt lat="51.90027" lon="4.22136">
        <ele>48</ele>
        <time>2020-07-02T14:36:38Z</time>
      </trkpt>
      <trkpt lat="51.90031" lon="4.22182">
        <ele>50</ele>
        <time>2020-07-02T14:36:43Z</time>
      </trkpt>
      <trkpt lat="51.90048" lon="4.22217">
        <ele>52</ele>
        <time>2020-07-02T14:36:49Z</time>
      </trkpt>
      <trkpt lat="51.90054" lon="4.22249">
        <ele>54</ele>
        <time>2020-07-02T14:36:55Z</time>
      </trkpt>
      <trkpt lat="51.90058" lon="4.22271">
        <ele>56</ele>
        <time>2020-07-02T14:37:01Z</time>
      </trkpt>
      <trkpt lat="51.90059" lon="4.22289">
        <ele>58</ele>
        <time>2020-07-02T14:37:06Z</time>
      </trkpt>
      <trkpt lat="51.90065" lon="4.22313">
        <ele>59</ele>
        <time>2020-07-02T14:37:12Z</time>
      </trkpt>
      <trkpt lat="51.9007" lon="4.22337">
        <ele>59</ele>
        <time>2020-07-02T14:37:18Z</time>
      </trkpt>
      <trkpt lat="51.90073" lon="4.22356">
        <ele>59</ele>
        <time>2020-07-02T14:37:23Z</time>
      </trkpt>
      <trkpt lat="51.90076" lon="4.22375">
        <ele>58</ele>
        <time>2020-07-02T14:37:28Z</time>
      </trkpt>
      <trkpt lat="51.90079" lon="4.22387">
        <ele>65</ele>
        <time>2020-07-02T14:37:34Z</time>
      </trkpt>
      <trkpt lat="51.90084" lon="4.22408">
        <ele>61</ele>
        <time>2020-07-02T14:37:40Z</time>
      </trkpt>
      <trkpt lat="51.90086" lon="4.22439">
        <ele>60</ele>
        <time>2020-07-02T14:37:45Z</time>
      </trkpt>
      <trkpt lat="51.90089" lon="4.22474">
        <ele>61</ele>
        <time>2020-07-02T14:37:51Z</time>
      </trkpt>
      <trkpt lat="51.9009" lon="4.225">
        <ele>60</ele>
        <time>2020-07-02T14:37:56Z</time>
      </trkpt>
      <trkpt lat="51.90093" lon="4.22531">
        <ele>58</ele>
        <time>2020-07-02T14:38:02Z</time>
      </trkpt>
      <trkpt lat="51.90097" lon="4.22562">
        <ele>60</ele>
        <time>2020-07-02T14:38:08Z</time>
      </trkpt>
      <trkpt lat="51.90102" lon="4.22601">
        <ele>59</ele>
        <time>2020-07-02T14:38:14Z</time>
      </trkpt>
      <trkpt lat="51.90107" lon="4.22635">
        <ele>58</ele>
        <time>2020-07-02T14:38:20Z</time>
      </trkpt>
      <trkpt lat="51.90108" lon="4.22672">
        <ele>58</ele>
        <time>2020-07-02T14:38:26Z</time>
      </trkpt>
      <trkpt lat="51.90114" lon="4.22698">
        <ele>59</ele>
        <time>2020-07-02T14:38:31Z</time>
      </trkpt>
      <trkpt lat="51.90117" lon="4.22729">
        <ele>57</ele>
        <time>2020-07-02T14:38:37Z</time>
      </trkpt>
      <trkpt lat="51.90122" lon="4.22762">
        <ele>54</ele>
        <time>2020-07-02T14:38:42Z</time>
      </trkpt>
      <trkpt lat="51.90125" lon="4.22796">
        <ele>50</ele>
        <time>2020-07-02T14:38:48Z</time>
      </trkpt>
      <trkpt lat="51.90127" lon="4.22827">
        <ele>53</ele>
        <time>2020-07-02T14:38:53Z</time>
      </trkpt>
      <trkpt lat="51.90131" lon="4.22865">
        <ele>53</ele>
        <time>2020-07-02T14:38:58Z</time>
      </trkpt>
      <trkpt lat="51.90134" lon="4.22907">
        <ele>53</ele>
        <time>2020-07-02T14:39:04Z</time>
      </trkpt>
      <trkpt lat="51.9014" lon="4.22953">
        <ele>53</ele>
        <time>2020-07-02T14:39:10Z</time>
      </trkpt>
      <trkpt lat="51.90139" lon="4.23004">
        <ele>57</ele>
        <time>2020-07-02T14:39:16Z</time>
      </trkpt>
      <trkpt lat="51.90132" lon="4.23048">
        <ele>57</ele>
        <time>2020-07-02T14:39:21Z</time>
      </trkpt>
      <trkpt lat="51.90119" lon="4.23091">
        <ele>55</ele>
        <time>2020-07-02T14:39:26Z</time>
      </trkpt>
      <trkpt lat="51.90087" lon="4.2311">
        <ele>53</ele>
        <time>2020-07-02T14:39:32Z</time>
      </trkpt>
      <trkpt lat="51.90078" lon="4.23052">
        <ele>53</ele>
        <time>2020-07-02T14:39:38Z</time>
      </trkpt>
      <trkpt lat="51.90079" lon="4.22994">
        <ele>52</ele>
        <time>2020-07-02T14:39:43Z</time>
      </trkpt>
      <trkpt lat="51.90092" lon="4.22934">
        <ele>52</ele>
        <time>2020-07-02T14:39:49Z</time>
      </trkpt>
      <trkpt lat="51.90123" lon="4.22918">
        <ele>53</ele>
        <time>2020-07-02T14:39:55Z</time>
      </trkpt>
      <trkpt lat="51.90146" lon="4.22908">
        <ele>51</ele>
        <time>2020-07-02T14:40:00Z</time>
      </trkpt>
      <trkpt lat="51.90175" lon="4.22901">
        <ele>53</ele>
        <time>2020-07-02T14:40:06Z</time>
      </trkpt>
      <trkpt lat="51.90192" lon="4.22902">
        <ele>53</ele>
        <time>2020-07-02T14:40:12Z</time>
      </trkpt>
      <trkpt lat="51.902" lon="4.22895">
        <ele>54</ele>
        <time>2020-07-02T14:40:17Z</time>
      </trkpt>
      <trkpt lat="51.90201" lon="4.22873">
        <ele>53</ele>
        <time>2020-07-02T14:40:23Z</time>
      </trkpt>
      <trkpt lat="51.90215" lon="4.22867">
        <ele>54</ele>
        <time>2020-07-02T14:40:29Z</time>
      </trkpt>
      <trkpt lat="51.90228" lon="4.22864">
        <ele>54</ele>
        <time>2020-07-02T14:40:34Z</time>
      </trkpt>
      <trkpt lat="51.90239" lon="4.22862">
        <ele>54</ele>
        <time>2020-07-02T14:40:39Z</time>
      </trkpt>
      <trkpt lat="51.90254" lon="4.22858">
        <ele>50</ele>
        <time>2020-07-02T14:40:45Z</time>
      </trkpt>
      <trkpt lat="51.90268" lon="4.22851">
        <ele>49</ele>
        <time>2020-07-02T14:40:50Z</time>
      </trkpt>
      <trkpt lat="51.9027" lon="4.22853">
        <ele>46</ele>
        <time>2020-07-02T14:40:57Z</time>
      </trkpt>
      <trkpt lat="51.90267" lon="4.22854">
        <ele>47</ele>
        <time>2020-07-02T14:41:03Z</time>
      </trkpt>
      <trkpt lat="51.90269" lon="4.22853">
        <ele>46</ele>
        <time>2020-07-02T14:41:09Z</time>
      </trkpt>
      <trkpt lat="51.90268" lon="4.22853">
        <ele>45</ele>
        <time>2020-07-02T14:41:14Z</time>
      </trkpt>
      <trkpt lat="51.90267" lon="4.22852">
        <ele>44</ele>
        <time>2020-07-02T14:41:20Z</time>
      </trkpt>
      <trkpt lat="51.90267" lon="4.2285">
        <ele>42</ele>
        <time>2020-07-02T14:41:28Z</time>
      </trkpt>
      <trkpt lat="51.90267" lon="4.22852">
        <ele>41</ele>
        <time>2020-07-02T14:41:34Z</time>
      </trkpt>
      <trkpt lat="51.9027" lon="4.22851">
        <ele>42</ele>
        <time>2020-07-02T14:41:40Z</time>
      </trkpt>
      <trkpt lat="51.9027" lon="4.2285">
        <ele>42</ele>
        <time>2020-07-02T14:41:46Z</time>
      </trkpt>
      <trkpt lat="51.90269" lon="4.2285">
        <ele>43</ele>
        <time>2020-07-02T14:41:51Z</time>
      </trkpt>
      <trkpt lat="51.90269" lon="4.2285">
        <ele>42</ele>
        <time>2020-07-02T14:41:56Z</time>
      </trkpt>
      <trkpt lat="51.90269" lon="4.2285">
        <ele>42</ele>
        <time>2020-07-02T14:42:02Z</time>
      </trkpt>
      <trkpt lat="51.90268" lon="4.22851">
        <ele>43</ele>
        <time>2020-07-02T14:42:08Z</time>
      </trkpt>
      <trkpt lat="51.90269" lon="4.2285">
        <ele>44</ele>
        <time>2020-07-02T14:42:13Z</time>
      </trkpt>
      <trkpt lat="51.9027" lon="4.2285">
        <ele>43</ele>
        <time>2020-07-02T14:42:19Z</time>
      </trkpt>
      <trkpt lat="51.90269" lon="4.2285">
        <ele>44</ele>
        <time>2020-07-02T14:42:25Z</time>
      </trkpt>
      <trkpt lat="51.90268" lon="4.2285">
        <ele>44</ele>
        <time>2020-07-02T14:42:30Z</time>
      </trkpt>
      <trkpt lat="51.90268" lon="4.2285">
        <ele>44</ele>
        <time>2020-07-02T14:42:35Z</time>
      </trkpt>
      <trkpt lat="51.90268" lon="4.22852">
        <ele>45</ele>
        <time>2020-07-02T14:42:41Z</time>
      </trkpt>
      <trkpt lat="51.90267" lon="4.22853">
        <ele>44</ele>
        <time>2020-07-02T14:42:46Z</time>
      </trkpt>
      <trkpt lat="51.90268" lon="4.22853">
        <ele>44</ele>
        <time>2020-07-02T14:42:52Z</time>
      </trkpt>
      <trkpt lat="51.90268" lon="4.22853">
        <ele>43</ele>
        <time>2020-07-02T14:42:57Z</time>
      </trkpt>
      <trkpt lat="51.90267" lon="4.22852">
        <ele>44</ele>
        <time>2020-07-02T14:43:04Z</time>
      </trkpt>
      <trkpt lat="51.90266" lon="4.22852">
        <ele>44</ele>
        <time>2020-07-02T14:43:09Z</time>
      </trkpt>
      <trkpt lat="51.90267" lon="4.2285">
        <ele>42</ele>
        <time>2020-07-02T14:43:14Z</time>
      </trkpt>
      <trkpt lat="51.90267" lon="4.22847">
        <ele>43</ele>
        <time>2020-07-02T14:43:19Z</time>
      </trkpt>
      <trkpt lat="51.90266" lon="4.22848">
        <ele>41</ele>
        <time>2020-07-02T14:43:25Z</time>
      </trkpt>
      <trkpt lat="51.90267" lon="4.22849">
        <ele>42</ele>
        <time>2020-07-02T14:43:30Z</time>
      </trkpt>
      <trkpt lat="51.90264" lon="4.2285">
        <ele>42</ele>
        <time>2020-07-02T14:43:35Z</time>
      </trkpt>
      <trkpt lat="51.90251" lon="4.22856">
        <ele>42</ele>
        <time>2020-07-02T14:43:41Z</time>
      </trkpt>
      <trkpt lat="51.90234" lon="4.22861">
        <ele>41</ele>
        <time>2020-07-02T14:43:47Z</time>
      </trkpt>
      <trkpt lat="51.90216" lon="4.22864">
        <ele>39</ele>
        <time>2020-07-02T14:43:52Z</time>
      </trkpt>
      <trkpt lat="51.902" lon="4.22877">
        <ele>38</ele>
        <time>2020-07-02T14:43:57Z</time>
      </trkpt>
      <trkpt lat="51.90192" lon="4.2291">
        <ele>36</ele>
        <time>2020-07-02T14:44:03Z</time>
      </trkpt>
      <trkpt lat="51.90197" lon="4.22945">
        <ele>35</ele>
        <time>2020-07-02T14:44:09Z</time>
      </trkpt>
      <trkpt lat="51.902" lon="4.22974">
        <ele>35</ele>
        <time>2020-07-02T14:44:14Z</time>
      </trkpt>
      <trkpt lat="51.90203" lon="4.23003">
        <ele>36</ele>
        <time>2020-07-02T14:44:19Z</time>
      </trkpt>
      <trkpt lat="51.90208" lon="4.23043">
        <ele>35</ele>
        <time>2020-07-02T14:44:25Z</time>
      </trkpt>
      <trkpt lat="51.90212" lon="4.23079">
        <ele>37</ele>
        <time>2020-07-02T14:44:31Z</time>
      </trkpt>
      <trkpt lat="51.90217" lon="4.23123">
        <ele>38</ele>
        <time>2020-07-02T14:44:37Z</time>
      </trkpt>
      <trkpt lat="51.90222" lon="4.23159">
        <ele>37</ele>
        <time>2020-07-02T14:44:42Z</time>
      </trkpt>
      <trkpt lat="51.90228" lon="4.23194">
        <ele>40</ele>
        <time>2020-07-02T14:44:47Z</time>
      </trkpt>
      <trkpt lat="51.90229" lon="4.2323">
        <ele>41</ele>
        <time>2020-07-02T14:44:53Z</time>
      </trkpt>
      <trkpt lat="51.90214" lon="4.23253">
        <ele>42</ele>
        <time>2020-07-02T14:44:58Z</time>
      </trkpt>
      <trkpt lat="51.90202" lon="4.23278">
        <ele>43</ele>
        <time>2020-07-02T14:45:04Z</time>
      </trkpt>
      <trkpt lat="51.90192" lon="4.23303">
        <ele>39</ele>
        <time>2020-07-02T14:45:10Z</time>
      </trkpt>
      <trkpt lat="51.90192" lon="4.23318">
        <ele>39</ele>
        <time>2020-07-02T14:45:16Z</time>
      </trkpt>
      <trkpt lat="51.90195" lon="4.23323">
        <ele>40</ele>
        <time>2020-07-02T14:45:21Z</time>
      </trkpt>
      <trkpt lat="51.90207" lon="4.23335">
        <ele>40</ele>
        <time>2020-07-02T14:45:27Z</time>
      </trkpt>
      <trkpt lat="51.90222" lon="4.23353">
        <ele>42</ele>
        <time>2020-07-02T14:45:32Z</time>
      </trkpt>
      <trkpt lat="51.90247" lon="4.23384">
        <ele>41</ele>
        <time>2020-07-02T14:45:38Z</time>
      </trkpt>
      <trkpt lat="51.90267" lon="4.23413">
        <ele>40</ele>
        <time>2020-07-02T14:45:43Z</time>
      </trkpt>
      <trkpt lat="51.90299" lon="4.23451">
        <ele>42</ele>
        <time>2020-07-02T14:45:49Z</time>
      </trkpt>
      <trkpt lat="51.90328" lon="4.23485">
        <ele>40</ele>
        <time>2020-07-02T14:45:54Z</time>
      </trkpt>
      <trkpt lat="51.90366" lon="4.23527">
        <ele>36</ele>
        <time>2020-07-02T14:46:00Z</time>
      </trkpt>
      <trkpt lat="51.90402" lon="4.23568">
        <ele>41</ele>
        <time>2020-07-02T14:46:06Z</time>
      </trkpt>
      <trkpt lat="51.90431" lon="4.23606">
        <ele>42</ele>
        <time>2020-07-02T14:46:12Z</time>
      </trkpt>
      <trkpt lat="51.90455" lon="4.23635">
        <ele>39</ele>
        <time>2020-07-02T14:46:18Z</time>
      </trkpt>
      <trkpt lat="51.90475" lon="4.23648">
        <ele>36</ele>
        <time>2020-07-02T14:46:23Z</time>
      </trkpt>
      <trkpt lat="51.90498" lon="4.23672">
        <ele>34</ele>
        <time>2020-07-02T14:46:29Z</time>
      </trkpt>
      <trkpt lat="51.90517" lon="4.23693">
        <ele>35</ele>
        <time>2020-07-02T14:46:34Z</time>
      </trkpt>
      <trkpt lat="51.90533" lon="4.23718">
        <ele>38</ele>
        <time>2020-07-02T14:46:39Z</time>
      </trkpt>
      <trkpt lat="51.90556" lon="4.23742">
        <ele>39</ele>
        <time>2020-07-02T14:46:45Z</time>
      </trkpt>
      <trkpt lat="51.90576" lon="4.2376">
        <ele>39</ele>
        <time>2020-07-02T14:46:50Z</time>
      </trkpt>
      <trkpt lat="51.90598" lon="4.23788">
        <ele>42</ele>
        <time>2020-07-02T14:46:56Z</time>
      </trkpt>
      <trkpt lat="51.90618" lon="4.23811">
        <ele>41</ele>
        <time>2020-07-02T14:47:02Z</time>
      </trkpt>
      <trkpt lat="51.90642" lon="4.23834">
        <ele>37</ele>
        <time>2020-07-02T14:47:08Z</time>
      </trkpt>
      <trkpt lat="51.90662" lon="4.23853">
        <ele>37</ele>
        <time>2020-07-02T14:47:13Z</time>
      </trkpt>
      <trkpt lat="51.90682" lon="4.23875">
        <ele>37</ele>
        <time>2020-07-02T14:47:19Z</time>
      </trkpt>
      <trkpt lat="51.90701" lon="4.23897">
        <ele>39</ele>
        <time>2020-07-02T14:47:25Z</time>
      </trkpt>
      <trkpt lat="51.90717" lon="4.23917">
        <ele>37</ele>
        <time>2020-07-02T14:47:30Z</time>
      </trkpt>
      <trkpt lat="51.9074" lon="4.23936">
        <ele>36</ele>
        <time>2020-07-02T14:47:36Z</time>
      </trkpt>
      <trkpt lat="51.90761" lon="4.23957">
        <ele>38</ele>
        <time>2020-07-02T14:47:42Z</time>
      </trkpt>
      <trkpt lat="51.9078" lon="4.23979">
        <ele>38</ele>
        <time>2020-07-02T14:47:47Z</time>
      </trkpt>
      <trkpt lat="51.90804" lon="4.24003">
        <ele>40</ele>
        <time>2020-07-02T14:47:53Z</time>
      </trkpt>
      <trkpt lat="51.90827" lon="4.24026">
        <ele>39</ele>
        <time>2020-07-02T14:47:59Z</time>
      </trkpt>
      <trkpt lat="51.90844" lon="4.24043">
        <ele>40</ele>
        <time>2020-07-02T14:48:04Z</time>
      </trkpt>
      <trkpt lat="51.90864" lon="4.24065">
        <ele>38</ele>
        <time>2020-07-02T14:48:10Z</time>
      </trkpt>
      <trkpt lat="51.90863" lon="4.24089">
        <ele>36</ele>
        <time>2020-07-02T14:48:15Z</time>
      </trkpt>
      <trkpt lat="51.9085" lon="4.24122">
        <ele>34</ele>
        <time>2020-07-02T14:48:21Z</time>
      </trkpt>
      <trkpt lat="51.90839" lon="4.24155">
        <ele>33</ele>
        <time>2020-07-02T14:48:26Z</time>
      </trkpt>
      <trkpt lat="51.90824" lon="4.242">
        <ele>35</ele>
        <time>2020-07-02T14:48:32Z</time>
      </trkpt>
      <trkpt lat="51.90819" lon="4.24234">
        <ele>34</ele>
        <time>2020-07-02T14:48:37Z</time>
      </trkpt>
      <trkpt lat="51.90824" lon="4.24267">
        <ele>33</ele>
        <time>2020-07-02T14:48:42Z</time>
      </trkpt>
      <trkpt lat="51.90834" lon="4.24309">
        <ele>34</ele>
        <time>2020-07-02T14:48:48Z</time>
      </trkpt>
      <trkpt lat="51.90844" lon="4.24343">
        <ele>33</ele>
        <time>2020-07-02T14:48:54Z</time>
      </trkpt>
      <trkpt lat="51.90849" lon="4.24373">
        <ele>34</ele>
        <time>2020-07-02T14:49:00Z</time>
      </trkpt>
      <trkpt lat="51.90856" lon="4.244">
        <ele>34</ele>
        <time>2020-07-02T14:49:06Z</time>
      </trkpt>
      <trkpt lat="51.9086" lon="4.24418">
        <ele>32</ele>
        <time>2020-07-02T14:49:11Z</time>
      </trkpt>
      <trkpt lat="51.90862" lon="4.24443">
        <ele>36</ele>
        <time>2020-07-02T14:49:17Z</time>
      </trkpt>
      <trkpt lat="51.90868" lon="4.2447">
        <ele>37</ele>
        <time>2020-07-02T14:49:23Z</time>
      </trkpt>
      <trkpt lat="51.90874" lon="4.24498">
        <ele>37</ele>
        <time>2020-07-02T14:49:29Z</time>
      </trkpt>
      <trkpt lat="51.90883" lon="4.24521">
        <ele>39</ele>
        <time>2020-07-02T14:49:34Z</time>
      </trkpt>
      <trkpt lat="51.90898" lon="4.24534">
        <ele>41</ele>
        <time>2020-07-02T14:49:40Z</time>
      </trkpt>
      <trkpt lat="51.90912" lon="4.24535">
        <ele>42</ele>
        <time>2020-07-02T14:49:45Z</time>
      </trkpt>
      <trkpt lat="51.90922" lon="4.24535">
        <ele>44</ele>
        <time>2020-07-02T14:49:50Z</time>
      </trkpt>
      <trkpt lat="51.90933" lon="4.24534">
        <ele>46</ele>
        <time>2020-07-02T14:49:55Z</time>
      </trkpt>
      <trkpt lat="51.90946" lon="4.24529">
        <ele>45</ele>
        <time>2020-07-02T14:50:01Z</time>
      </trkpt>
      <trkpt lat="51.90956" lon="4.24529">
        <ele>41</ele>
        <time>2020-07-02T14:50:06Z</time>
      </trkpt>
      <trkpt lat="51.90967" lon="4.24534">
        <ele>41</ele>
        <time>2020-07-02T14:50:11Z</time>
      </trkpt>
      <trkpt lat="51.90983" lon="4.24539">
        <ele>42</ele>
        <time>2020-07-02T14:50:17Z</time>
      </trkpt>
      <trkpt lat="51.90994" lon="4.24546">
        <ele>42</ele>
        <time>2020-07-02T14:50:22Z</time>
      </trkpt>
      <trkpt lat="51.91008" lon="4.24545">
        <ele>43</ele>
        <time>2020-07-02T14:50:27Z</time>
      </trkpt>
      <trkpt lat="51.91019" lon="4.24526">
        <ele>43</ele>
        <time>2020-07-02T14:50:32Z</time>
      </trkpt>
      <trkpt lat="51.91027" lon="4.24489">
        <ele>42</ele>
        <time>2020-07-02T14:50:38Z</time>
      </trkpt>
      <trkpt lat="51.91036" lon="4.24446">
        <ele>39</ele>
        <time>2020-07-02T14:50:43Z</time>
      </trkpt>
      <trkpt lat="51.91043" lon="4.24407">
        <ele>37</ele>
        <time>2020-07-02T14:50:48Z</time>
      </trkpt>
      <trkpt lat="51.91052" lon="4.24361">
        <ele>37</ele>
        <time>2020-07-02T14:50:54Z</time>
      </trkpt>
      <trkpt lat="51.9106" lon="4.24321">
        <ele>36</ele>
        <time>2020-07-02T14:51:00Z</time>
      </trkpt>
      <trkpt lat="51.91066" lon="4.24291">
        <ele>36</ele>
        <time>2020-07-02T14:51:05Z</time>
      </trkpt>
      <trkpt lat="51.91074" lon="4.24255">
        <ele>41</ele>
        <time>2020-07-02T14:51:11Z</time>
      </trkpt>
      <trkpt lat="51.9108" lon="4.24228">
        <ele>43</ele>
        <time>2020-07-02T14:51:17Z</time>
      </trkpt>
      <trkpt lat="51.91097" lon="4.24233">
        <ele>45</ele>
        <time>2020-07-02T14:51:23Z</time>
      </trkpt>
      <trkpt lat="51.91109" lon="4.24244">
        <ele>46</ele>
        <time>2020-07-02T14:51:28Z</time>
      </trkpt>
      <trkpt lat="51.9112" lon="4.24245">
        <ele>46</ele>
        <time>2020-07-02T14:51:34Z</time>
      </trkpt>
      <trkpt lat="51.91132" lon="4.24246">
        <ele>44</ele>
        <time>2020-07-02T14:51:40Z</time>
      </trkpt>
      <trkpt lat="51.91133" lon="4.24261">
        <ele>43</ele>
        <time>2020-07-02T14:51:46Z</time>
      </trkpt>
      <trkpt lat="51.91137" lon="4.24267">
        <ele>42</ele>
        <time>2020-07-02T14:55:56Z</time>
      </trkpt>
      <trkpt lat="51.91141" lon="4.24263">
        <ele>43</ele>
        <time>2020-07-02T14:56:03Z</time>
      </trkpt>
      <trkpt lat="51.91146" lon="4.24264">
        <ele>43</ele>
        <time>2020-07-02T14:56:11Z</time>
      </trkpt>
      <trkpt lat="51.91148" lon="4.24271">
        <ele>42</ele>
        <time>2020-07-02T14:56:17Z</time>
      </trkpt>
      <trkpt lat="51.91147" lon="4.24279">
        <ele>40</ele>
        <time>2020-07-02T14:57:05Z</time>
      </trkpt>
      <trkpt lat="51.91146" lon="4.24294">
        <ele>42</ele>
        <time>2020-07-02T14:57:11Z</time>
      </trkpt>
      <trkpt lat="51.91147" lon="4.24304">
        <ele>44</ele>
        <time>2020-07-02T14:57:17Z</time>
      </trkpt>
      <trkpt lat="51.91147" lon="4.24312">
        <ele>45</ele>
        <time>2020-07-02T14:57:27Z</time>
      </trkpt>
      <trkpt lat="51.91147" lon="4.24319">
        <ele>43</ele>
        <time>2020-07-02T14:58:40Z</time>
      </trkpt>
      <trkpt lat="51.91152" lon="4.24322">
        <ele>49</ele>
        <time>2020-07-02T14:59:47Z</time>
      </trkpt>
      <trkpt lat="51.91147" lon="4.2432">
        <ele>47</ele>
        <time>2020-07-02T15:00:10Z</time>
      </trkpt>
      <trkpt lat="51.91146" lon="4.24328">
        <ele>50</ele>
        <time>2020-07-02T15:01:05Z</time>
      </trkpt>
      <trkpt lat="51.91145" lon="4.24336">
        <ele>54</ele>
        <time>2020-07-02T15:01:12Z</time>
      </trkpt>
      <trkpt lat="51.91146" lon="4.24344">
        <ele>56</ele>
        <time>2020-07-02T15:01:18Z</time>
      </trkpt>
      <trkpt lat="51.91147" lon="4.24353">
        <ele>57</ele>
        <time>2020-07-02T15:01:23Z</time>
      </trkpt>
      <trkpt lat="51.91147" lon="4.2436">
        <ele>58</ele>
        <time>2020-07-02T15:01:30Z</time>
      </trkpt>
      <trkpt lat="51.91149" lon="4.24375">
        <ele>60</ele>
        <time>2020-07-02T15:01:35Z</time>
      </trkpt>
      <trkpt lat="51.9115" lon="4.24389">
        <ele>58</ele>
        <time>2020-07-02T15:01:41Z</time>
      </trkpt>
      <trkpt lat="51.91152" lon="4.24404">
        <ele>57</ele>
        <time>2020-07-02T15:01:47Z</time>
      </trkpt>
      <trkpt lat="51.91153" lon="4.24416">
        <ele>55</ele>
        <time>2020-07-02T15:01:52Z</time>
      </trkpt>
      <trkpt lat="51.91156" lon="4.24429">
        <ele>55</ele>
        <time>2020-07-02T15:01:58Z</time>
      </trkpt>
      <trkpt lat="51.91159" lon="4.24439">
        <ele>56</ele>
        <time>2020-07-02T15:02:03Z</time>
      </trkpt>
      <trkpt lat="51.91161" lon="4.24451">
        <ele>55</ele>
        <time>2020-07-02T15:02:09Z</time>
      </trkpt>
      <trkpt lat="51.91165" lon="4.24462">
        <ele>58</ele>
        <time>2020-07-02T15:02:15Z</time>
      </trkpt>
      <trkpt lat="51.91169" lon="4.24473">
        <ele>56</ele>
        <time>2020-07-02T15:02:20Z</time>
      </trkpt>
      <trkpt lat="51.91174" lon="4.24483">
        <ele>56</ele>
        <time>2020-07-02T15:02:26Z</time>
      </trkpt>
      <trkpt lat="51.91179" lon="4.24488">
        <ele>56</ele>
        <time>2020-07-02T15:02:31Z</time>
      </trkpt>
      <trkpt lat="51.91183" lon="4.24493">
        <ele>57</ele>
        <time>2020-07-02T15:02:36Z</time>
      </trkpt>
      <trkpt lat="51.91184" lon="4.24501">
        <ele>57</ele>
        <time>2020-07-02T15:02:42Z</time>
      </trkpt>
      <trkpt lat="51.91187" lon="4.24508">
        <ele>58</ele>
        <time>2020-07-02T15:02:48Z</time>
      </trkpt>
      <trkpt lat="51.91187" lon="4.24516">
        <ele>58</ele>
        <time>2020-07-02T15:02:54Z</time>
      </trkpt>
      <trkpt lat="51.91187" lon="4.24524">
        <ele>59</ele>
        <time>2020-07-02T15:03:00Z</time>
      </trkpt>
      <trkpt lat="51.91188" lon="4.24534">
        <ele>61</ele>
        <time>2020-07-02T15:03:06Z</time>
      </trkpt>
      <trkpt lat="51.91189" lon="4.24544">
        <ele>60</ele>
        <time>2020-07-02T15:03:11Z</time>
      </trkpt>
      <trkpt lat="51.91191" lon="4.24553">
        <ele>61</ele>
        <time>2020-07-02T15:03:16Z</time>
      </trkpt>
      <trkpt lat="51.91193" lon="4.24562">
        <ele>63</ele>
        <time>2020-07-02T15:03:22Z</time>
      </trkpt>
      <trkpt lat="51.91195" lon="4.24573">
        <ele>59</ele>
        <time>2020-07-02T15:03:28Z</time>
      </trkpt>
      <trkpt lat="51.91197" lon="4.24587">
        <ele>57</ele>
        <time>2020-07-02T15:03:34Z</time>
      </trkpt>
      <trkpt lat="51.91199" lon="4.24601">
        <ele>54</ele>
        <time>2020-07-02T15:03:39Z</time>
      </trkpt>
      <trkpt lat="51.912" lon="4.24615">
        <ele>50</ele>
        <time>2020-07-02T15:03:45Z</time>
      </trkpt>
      <trkpt lat="51.91203" lon="4.24632">
        <ele>51</ele>
        <time>2020-07-02T15:03:51Z</time>
      </trkpt>
      <trkpt lat="51.91203" lon="4.24647">
        <ele>51</ele>
        <time>2020-07-02T15:03:57Z</time>
      </trkpt>
      <trkpt lat="51.91204" lon="4.24665">
        <ele>52</ele>
        <time>2020-07-02T15:04:03Z</time>
      </trkpt>
      <trkpt lat="51.91205" lon="4.24682">
        <ele>52</ele>
        <time>2020-07-02T15:04:09Z</time>
      </trkpt>
      <trkpt lat="51.91205" lon="4.24695">
        <ele>51</ele>
        <time>2020-07-02T15:04:14Z</time>
      </trkpt>
      <trkpt lat="51.91204" lon="4.24706">
        <ele>52</ele>
        <time>2020-07-02T15:04:19Z</time>
      </trkpt>
      <trkpt lat="51.91205" lon="4.24719">
        <ele>52</ele>
        <time>2020-07-02T15:04:24Z</time>
      </trkpt>
      <trkpt lat="51.91208" lon="4.24734">
        <ele>52</ele>
        <time>2020-07-02T15:04:30Z</time>
      </trkpt>
      <trkpt lat="51.91212" lon="4.24749">
        <ele>50</ele>
        <time>2020-07-02T15:04:35Z</time>
      </trkpt>
      <trkpt lat="51.91218" lon="4.24765">
        <ele>49</ele>
        <time>2020-07-02T15:04:41Z</time>
      </trkpt>
      <trkpt lat="51.91224" lon="4.24779">
        <ele>46</ele>
        <time>2020-07-02T15:04:46Z</time>
      </trkpt>
      <trkpt lat="51.91231" lon="4.24792">
        <ele>48</ele>
        <time>2020-07-02T15:04:51Z</time>
      </trkpt>
      <trkpt lat="51.91239" lon="4.24806">
        <ele>48</ele>
        <time>2020-07-02T15:04:56Z</time>
      </trkpt>
      <trkpt lat="51.91253" lon="4.24822">
        <ele>48</ele>
        <time>2020-07-02T15:05:02Z</time>
      </trkpt>
      <trkpt lat="51.91264" lon="4.24832">
        <ele>48</ele>
        <time>2020-07-02T15:05:07Z</time>
      </trkpt>
      <trkpt lat="51.91277" lon="4.24845">
        <ele>50</ele>
        <time>2020-07-02T15:05:13Z</time>
      </trkpt>
      <trkpt lat="51.9129" lon="4.24855">
        <ele>50</ele>
        <time>2020-07-02T15:05:19Z</time>
      </trkpt>
      <trkpt lat="51.91301" lon="4.24862">
        <ele>50</ele>
        <time>2020-07-02T15:05:24Z</time>
      </trkpt>
      <trkpt lat="51.91312" lon="4.24868">
        <ele>50</ele>
        <time>2020-07-02T15:05:29Z</time>
      </trkpt>
      <trkpt lat="51.91324" lon="4.24872">
        <ele>50</ele>
        <time>2020-07-02T15:05:35Z</time>
      </trkpt>
      <trkpt lat="51.91335" lon="4.24874">
        <ele>54</ele>
        <time>2020-07-02T15:05:40Z</time>
      </trkpt>
      <trkpt lat="51.91349" lon="4.24878">
        <ele>53</ele>
        <time>2020-07-02T15:05:46Z</time>
      </trkpt>
      <trkpt lat="51.91358" lon="4.24882">
        <ele>51</ele>
        <time>2020-07-02T15:05:51Z</time>
      </trkpt>
      <trkpt lat="51.91368" lon="4.24885">
        <ele>49</ele>
        <time>2020-07-02T15:05:57Z</time>
      </trkpt>
      <trkpt lat="51.91378" lon="4.24887">
        <ele>52</ele>
        <time>2020-07-02T15:06:02Z</time>
      </trkpt>
      <trkpt lat="51.91386" lon="4.24891">
        <ele>47</ele>
        <time>2020-07-02T15:06:07Z</time>
      </trkpt>
      <trkpt lat="51.91394" lon="4.24892">
        <ele>48</ele>
        <time>2020-07-02T15:06:12Z</time>
      </trkpt>
      <trkpt lat="51.91404" lon="4.24895">
        <ele>48</ele>
        <time>2020-07-02T15:06:18Z</time>
      </trkpt>
      <trkpt lat="51.9141" lon="4.24892">
        <ele>49</ele>
        <time>2020-07-02T15:06:23Z</time>
      </trkpt>
      <trkpt lat="51.91415" lon="4.24889">
        <ele>52</ele>
        <time>2020-07-02T15:06:29Z</time>
      </trkpt>
      <trkpt lat="51.91418" lon="4.24881">
        <ele>54</ele>
        <time>2020-07-02T15:06:35Z</time>
      </trkpt>
      <trkpt lat="51.91423" lon="4.24879">
        <ele>51</ele>
        <time>2020-07-02T15:06:43Z</time>
      </trkpt>
      <trkpt lat="51.91421" lon="4.24886">
        <ele>51</ele>
        <time>2020-07-02T15:06:52Z</time>
      </trkpt>
      <trkpt lat="51.91427" lon="4.2489">
        <ele>53</ele>
        <time>2020-07-02T15:08:01Z</time>
      </trkpt>
      <trkpt lat="51.91437" lon="4.24898">
        <ele>51</ele>
        <time>2020-07-02T15:08:06Z</time>
      </trkpt>
      <trkpt lat="51.91456" lon="4.24913">
        <ele>50</ele>
        <time>2020-07-02T15:08:11Z</time>
      </trkpt>
      <trkpt lat="51.91476" lon="4.24934">
        <ele>48</ele>
        <time>2020-07-02T15:08:17Z</time>
      </trkpt>
      <trkpt lat="51.91485" lon="4.24956">
        <ele>51</ele>
        <time>2020-07-02T15:08:22Z</time>
      </trkpt>
      <trkpt lat="51.91494" lon="4.24983">
        <ele>48</ele>
        <time>2020-07-02T15:08:28Z</time>
      </trkpt>
      <trkpt lat="51.91505" lon="4.24993">
        <ele>49</ele>
        <time>2020-07-02T15:08:33Z</time>
      </trkpt>
      <trkpt lat="51.91519" lon="4.25007">
        <ele>48</ele>
        <time>2020-07-02T15:08:39Z</time>
      </trkpt>
      <trkpt lat="51.91533" lon="4.25022">
        <ele>50</ele>
        <time>2020-07-02T15:08:45Z</time>
      </trkpt>
      <trkpt lat="51.91548" lon="4.25038">
        <ele>50</ele>
        <time>2020-07-02T15:08:51Z</time>
      </trkpt>
      <trkpt lat="51.91564" lon="4.25058">
        <ele>48</ele>
        <time>2020-07-02T15:08:57Z</time>
      </trkpt>
      <trkpt lat="51.9158" lon="4.25076">
        <ele>49</ele>
        <time>2020-07-02T15:09:03Z</time>
      </trkpt>
      <trkpt lat="51.91596" lon="4.25092">
        <ele>47</ele>
        <time>2020-07-02T15:09:09Z</time>
      </trkpt>
      <trkpt lat="51.91609" lon="4.25105">
        <ele>48</ele>
        <time>2020-07-02T15:09:14Z</time>
      </trkpt>
      <trkpt lat="51.91622" lon="4.25115">
        <ele>48</ele>
        <time>2020-07-02T15:09:20Z</time>
      </trkpt>
      <trkpt lat="51.91638" lon="4.25122">
        <ele>47</ele>
        <time>2020-07-02T15:09:26Z</time>
      </trkpt>
      <trkpt lat="51.91655" lon="4.25122">
        <ele>46</ele>
        <time>2020-07-02T15:09:32Z</time>
      </trkpt>
      <trkpt lat="51.91673" lon="4.25118">
        <ele>44</ele>
        <time>2020-07-02T15:09:38Z</time>
      </trkpt>
      <trkpt lat="51.9169" lon="4.25106">
        <ele>43</ele>
        <time>2020-07-02T15:09:44Z</time>
      </trkpt>
      <trkpt lat="51.91705" lon="4.25089">
        <ele>40</ele>
        <time>2020-07-02T15:09:49Z</time>
      </trkpt>
      <trkpt lat="51.91717" lon="4.25068">
        <ele>39</ele>
        <time>2020-07-02T15:09:54Z</time>
      </trkpt>
      <trkpt lat="51.9173" lon="4.25038">
        <ele>38</ele>
        <time>2020-07-02T15:10:00Z</time>
      </trkpt>
      <trkpt lat="51.9174" lon="4.25015">
        <ele>40</ele>
        <time>2020-07-02T15:10:05Z</time>
      </trkpt>
      <trkpt lat="51.9175" lon="4.2499">
        <ele>43</ele>
        <time>2020-07-02T15:10:11Z</time>
      </trkpt>
      <trkpt lat="51.91759" lon="4.24972">
        <ele>43</ele>
        <time>2020-07-02T15:10:16Z</time>
      </trkpt>
      <trkpt lat="51.91772" lon="4.24955">
        <ele>43</ele>
        <time>2020-07-02T15:10:22Z</time>
      </trkpt>
      <trkpt lat="51.9179" lon="4.24953">
        <ele>44</ele>
        <time>2020-07-02T15:10:28Z</time>
      </trkpt>
      <trkpt lat="51.91802" lon="4.24969">
        <ele>45</ele>
        <time>2020-07-02T15:10:34Z</time>
      </trkpt>
      <trkpt lat="51.91807" lon="4.24971">
        <ele>50</ele>
        <time>2020-07-02T15:11:20Z</time>
      </trkpt>
      <trkpt lat="51.91811" lon="4.24977">
        <ele>52</ele>
        <time>2020-07-02T15:11:37Z</time>
      </trkpt>
      <trkpt lat="51.9182" lon="4.24985">
        <ele>53</ele>
        <time>2020-07-02T15:11:42Z</time>
      </trkpt>
      <trkpt lat="51.9183" lon="4.25006">
        <ele>52</ele>
        <time>2020-07-02T15:11:48Z</time>
      </trkpt>
      <trkpt lat="51.91836" lon="4.25018">
        <ele>50</ele>
        <time>2020-07-02T15:11:53Z</time>
      </trkpt>
      <trkpt lat="51.9185" lon="4.25025">
        <ele>48</ele>
        <time>2020-07-02T15:11:59Z</time>
      </trkpt>
      <trkpt lat="51.91862" lon="4.25021">
        <ele>47</ele>
        <time>2020-07-02T15:12:04Z</time>
      </trkpt>
      <trkpt lat="51.91867" lon="4.24991">
        <ele>47</ele>
        <time>2020-07-02T15:12:10Z</time>
      </trkpt>
      <trkpt lat="51.91874" lon="4.24964">
        <ele>44</ele>
        <time>2020-07-02T15:12:16Z</time>
      </trkpt>
      <trkpt lat="51.91882" lon="4.24943">
        <ele>44</ele>
        <time>2020-07-02T15:12:21Z</time>
      </trkpt>
      <trkpt lat="51.91894" lon="4.24916">
        <ele>42</ele>
        <time>2020-07-02T15:12:27Z</time>
      </trkpt>
      <trkpt lat="51.91905" lon="4.2489">
        <ele>41</ele>
        <time>2020-07-02T15:12:33Z</time>
      </trkpt>
      <trkpt lat="51.91913" lon="4.2487">
        <ele>41</ele>
        <time>2020-07-02T15:12:38Z</time>
      </trkpt>
      <trkpt lat="51.91921" lon="4.24849">
        <ele>41</ele>
        <time>2020-07-02T15:12:43Z</time>
      </trkpt>
      <trkpt lat="51.9193" lon="4.24825">
        <ele>43</ele>
        <time>2020-07-02T15:12:49Z</time>
      </trkpt>
      <trkpt lat="51.91939" lon="4.24803">
        <ele>43</ele>
        <time>2020-07-02T15:12:54Z</time>
      </trkpt>
      <trkpt lat="51.91949" lon="4.24787">
        <ele>44</ele>
        <time>2020-07-02T15:12:59Z</time>
      </trkpt>
      <trkpt lat="51.9195" lon="4.24783">
        <ele>45</ele>
        <time>2020-07-02T15:13:43Z</time>
      </trkpt>
      <trkpt lat="51.91952" lon="4.24784">
        <ele>42</ele>
        <time>2020-07-02T15:13:48Z</time>
      </trkpt>
      <trkpt lat="51.91953" lon="4.24786">
        <ele>40</ele>
        <time>2020-07-02T15:13:54Z</time>
      </trkpt>
      <trkpt lat="51.91954" lon="4.24786">
        <ele>39</ele>
        <time>2020-07-02T15:13:59Z</time>
      </trkpt>
      <trkpt lat="51.91953" lon="4.24786">
        <ele>41</ele>
        <time>2020-07-02T15:14:05Z</time>
      </trkpt>
      <trkpt lat="51.91952" lon="4.24786">
        <ele>42</ele>
        <time>2020-07-02T15:14:10Z</time>
      </trkpt>
      <trkpt lat="51.91952" lon="4.24784">
        <ele>42</ele>
        <time>2020-07-02T15:14:16Z</time>
      </trkpt>
      <trkpt lat="51.91952" lon="4.24784">
        <ele>42</ele>
        <time>2020-07-02T15:14:21Z</time>
      </trkpt>
      <trkpt lat="51.91951" lon="4.24785">
        <ele>42</ele>
        <time>2020-07-02T15:14:26Z</time>
      </trkpt>
      <trkpt lat="51.91951" lon="4.24786">
        <ele>43</ele>
        <time>2020-07-02T15:14:32Z</time>
      </trkpt>
      <trkpt lat="51.91951" lon="4.24784">
        <ele>44</ele>
        <time>2020-07-02T15:14:38Z</time>
      </trkpt>
      <trkpt lat="51.9195" lon="4.24785">
        <ele>44</ele>
        <time>2020-07-02T15:14:43Z</time>
      </trkpt>
      <trkpt lat="51.9195" lon="4.24785">
        <ele>45</ele>
        <time>2020-07-02T15:14:48Z</time>
      </trkpt>
      <trkpt lat="51.9195" lon="4.24785">
        <ele>45</ele>
        <time>2020-07-02T15:14:54Z</time>
      </trkpt>
      <trkpt lat="51.9195" lon="4.24785">
        <ele>45</ele>
        <time>2020-07-02T15:14:59Z</time>
      </trkpt>
      <trkpt lat="51.9195" lon="4.24784">
        <ele>45</ele>
        <time>2020-07-02T15:15:05Z</time>
      </trkpt>
      <trkpt lat="51.9195" lon="4.24784">
        <ele>45</ele>
        <time>2020-07-02T15:15:11Z</time>
      </trkpt>
      <trkpt lat="51.9195" lon="4.24785">
        <ele>45</ele>
        <time>2020-07-02T15:15:16Z</time>
      </trkpt>
      <trkpt lat="51.9195" lon="4.24784">
        <ele>45</ele>
        <time>2020-07-02T15:15:21Z</time>
      </trkpt>
      <trkpt lat="51.9195" lon="4.24784">
        <ele>45</ele>
        <time>2020-07-02T15:15:27Z</time>
      </trkpt>
      <trkpt lat="51.91951" lon="4.24782">
        <ele>42</ele>
        <time>2020-07-02T15:15:33Z</time>
      </trkpt>
      <trkpt lat="51.91953" lon="4.24782">
        <ele>41</ele>
        <time>2020-07-02T15:15:38Z</time>
      </trkpt>
      <trkpt lat="51.91957" lon="4.24783">
        <ele>39</ele>
        <time>2020-07-02T15:15:44Z</time>
      </trkpt>
      <trkpt lat="51.91957" lon="4.24784">
        <ele>40</ele>
        <time>2020-07-02T15:15:49Z</time>
      </trkpt>
      <trkpt lat="51.91956" lon="4.24785">
        <ele>41</ele>
        <time>2020-07-02T15:15:56Z</time>
      </trkpt>
      <trkpt lat="51.91955" lon="4.24785">
        <ele>43</ele>
        <time>2020-07-02T15:16:01Z</time>
      </trkpt>
      <trkpt lat="51.91955" lon="4.24785">
        <ele>47</ele>
        <time>2020-07-02T15:16:07Z</time>
      </trkpt>
      <trkpt lat="51.91955" lon="4.24787">
        <ele>49</ele>
        <time>2020-07-02T15:16:13Z</time>
      </trkpt>
      <trkpt lat="51.91954" lon="4.24788">
        <ele>48</ele>
        <time>2020-07-02T15:16:19Z</time>
      </trkpt>
      <trkpt lat="51.91956" lon="4.24785">
        <ele>50</ele>
        <time>2020-07-02T15:16:25Z</time>
      </trkpt>
      <trkpt lat="51.91957" lon="4.24769">
        <ele>51</ele>
        <time>2020-07-02T15:16:30Z</time>
      </trkpt>
      <trkpt lat="51.91959" lon="4.24743">
        <ele>51</ele>
        <time>2020-07-02T15:16:35Z</time>
      </trkpt>
      <trkpt lat="51.91947" lon="4.24717">
        <ele>51</ele>
        <time>2020-07-02T15:16:41Z</time>
      </trkpt>
      <trkpt lat="51.91937" lon="4.24708">
        <ele>49</ele>
        <time>2020-07-02T15:16:46Z</time>
      </trkpt>
      <trkpt lat="51.91925" lon="4.24694">
        <ele>50</ele>
        <time>2020-07-02T15:16:52Z</time>
      </trkpt>
      <trkpt lat="51.91911" lon="4.24678">
        <ele>53</ele>
        <time>2020-07-02T15:16:57Z</time>
      </trkpt>
      <trkpt lat="51.91899" lon="4.2467">
        <ele>52</ele>
        <time>2020-07-02T15:17:03Z</time>
      </trkpt>
      <trkpt lat="51.9189" lon="4.24667">
        <ele>53</ele>
        <time>2020-07-02T15:17:08Z</time>
      </trkpt>
      <trkpt lat="51.9188" lon="4.24665">
        <ele>53</ele>
        <time>2020-07-02T15:17:14Z</time>
      </trkpt>
      <trkpt lat="51.91873" lon="4.24661">
        <ele>52</ele>
        <time>2020-07-02T15:17:19Z</time>
      </trkpt>
      <trkpt lat="51.91864" lon="4.24652">
        <ele>52</ele>
        <time>2020-07-02T15:17:25Z</time>
      </trkpt>
      <trkpt lat="51.91856" lon="4.24643">
        <ele>49</ele>
        <time>2020-07-02T15:17:30Z</time>
      </trkpt>
      <trkpt lat="51.91845" lon="4.24627">
        <ele>52</ele>
        <time>2020-07-02T15:17:36Z</time>
      </trkpt>
      <trkpt lat="51.91831" lon="4.246">
        <ele>53</ele>
        <time>2020-07-02T15:17:42Z</time>
      </trkpt>
      <trkpt lat="51.91818" lon="4.24566">
        <ele>55</ele>
        <time>2020-07-02T15:17:48Z</time>
      </trkpt>
      <trkpt lat="51.91808" lon="4.24545">
        <ele>54</ele>
        <time>2020-07-02T15:17:53Z</time>
      </trkpt>
      <trkpt lat="51.91796" lon="4.24522">
        <ele>57</ele>
        <time>2020-07-02T15:17:59Z</time>
      </trkpt>
      <trkpt lat="51.91783" lon="4.245">
        <ele>57</ele>
        <time>2020-07-02T15:18:05Z</time>
      </trkpt>
      <trkpt lat="51.91774" lon="4.24483">
        <ele>63</ele>
        <time>2020-07-02T15:18:10Z</time>
      </trkpt>
      <trkpt lat="51.91764" lon="4.24465">
        <ele>63</ele>
        <time>2020-07-02T15:18:15Z</time>
      </trkpt>
      <trkpt lat="51.91752" lon="4.24444">
        <ele>62</ele>
        <time>2020-07-02T15:18:21Z</time>
      </trkpt>
      <trkpt lat="51.91742" lon="4.24427">
        <ele>57</ele>
        <time>2020-07-02T15:18:27Z</time>
      </trkpt>
      <trkpt lat="51.91738" lon="4.24411">
        <ele>56</ele>
        <time>2020-07-02T15:18:33Z</time>
      </trkpt>
      <trkpt lat="51.91723" lon="4.24401">
        <ele>52</ele>
        <time>2020-07-02T15:18:39Z</time>
      </trkpt>
      <trkpt lat="51.91709" lon="4.24391">
        <ele>52</ele>
        <time>2020-07-02T15:18:44Z</time>
      </trkpt>
      <trkpt lat="51.91696" lon="4.24366">
        <ele>49</ele>
        <time>2020-07-02T15:18:50Z</time>
      </trkpt>
      <trkpt lat="51.91694" lon="4.24335">
        <ele>51</ele>
        <time>2020-07-02T15:18:56Z</time>
      </trkpt>
      <trkpt lat="51.91706" lon="4.24312">
        <ele>52</ele>
        <time>2020-07-02T15:19:01Z</time>
      </trkpt>
      <trkpt lat="51.91716" lon="4.24291">
        <ele>51</ele>
        <time>2020-07-02T15:19:06Z</time>
      </trkpt>
      <trkpt lat="51.91728" lon="4.24264">
        <ele>48</ele>
        <time>2020-07-02T15:19:12Z</time>
      </trkpt>
      <trkpt lat="51.9174" lon="4.24237">
        <ele>48</ele>
        <time>2020-07-02T15:19:18Z</time>
      </trkpt>
      <trkpt lat="51.9175" lon="4.24217">
        <ele>47</ele>
        <time>2020-07-02T15:19:23Z</time>
      </trkpt>
      <trkpt lat="51.9176" lon="4.24197">
        <ele>49</ele>
        <time>2020-07-02T15:19:28Z</time>
      </trkpt>
      <trkpt lat="51.91772" lon="4.24173">
        <ele>49</ele>
        <time>2020-07-02T15:19:34Z</time>
      </trkpt>
      <trkpt lat="51.91782" lon="4.24154">
        <ele>51</ele>
        <time>2020-07-02T15:19:39Z</time>
      </trkpt>
      <trkpt lat="51.91793" lon="4.24133">
        <ele>49</ele>
        <time>2020-07-02T15:19:44Z</time>
      </trkpt>
      <trkpt lat="51.91807" lon="4.24108">
        <ele>49</ele>
        <time>2020-07-02T15:19:50Z</time>
      </trkpt>
      <trkpt lat="51.91818" lon="4.24089">
        <ele>48</ele>
        <time>2020-07-02T15:19:55Z</time>
      </trkpt>
      <trkpt lat="51.91828" lon="4.24071">
        <ele>50</ele>
        <time>2020-07-02T15:20:00Z</time>
      </trkpt>
      <trkpt lat="51.91839" lon="4.24051">
        <ele>48</ele>
        <time>2020-07-02T15:20:05Z</time>
      </trkpt>
      <trkpt lat="51.91851" lon="4.2403">
        <ele>48</ele>
        <time>2020-07-02T15:20:10Z</time>
      </trkpt>
      <trkpt lat="51.91864" lon="4.24009">
        <ele>47</ele>
        <time>2020-07-02T15:20:16Z</time>
      </trkpt>
      <trkpt lat="51.91877" lon="4.23988">
        <ele>50</ele>
        <time>2020-07-02T15:20:22Z</time>
      </trkpt>
      <trkpt lat="51.91891" lon="4.23965">
        <ele>51</ele>
        <time>2020-07-02T15:20:28Z</time>
      </trkpt>
      <trkpt lat="51.91901" lon="4.23946">
        <ele>51</ele>
        <time>2020-07-02T15:20:33Z</time>
      </trkpt>
      <trkpt lat="51.91916" lon="4.23924">
        <ele>50</ele>
        <time>2020-07-02T15:20:39Z</time>
      </trkpt>
      <trkpt lat="51.91933" lon="4.23903">
        <ele>50</ele>
        <time>2020-07-02T15:20:45Z</time>
      </trkpt>
      <trkpt lat="51.91951" lon="4.23878">
        <ele>49</ele>
        <time>2020-07-02T15:20:51Z</time>
      </trkpt>
      <trkpt lat="51.91966" lon="4.23851">
        <ele>49</ele>
        <time>2020-07-02T15:20:57Z</time>
      </trkpt>
      <trkpt lat="51.91982" lon="4.2383">
        <ele>48</ele>
        <time>2020-07-02T15:21:03Z</time>
      </trkpt>
      <trkpt lat="51.91996" lon="4.23812">
        <ele>46</ele>
        <time>2020-07-02T15:21:08Z</time>
      </trkpt>
      <trkpt lat="51.92013" lon="4.23789">
        <ele>43</ele>
        <time>2020-07-02T15:21:14Z</time>
      </trkpt>
      <trkpt lat="51.92027" lon="4.23772">
        <ele>44</ele>
        <time>2020-07-02T15:21:19Z</time>
      </trkpt>
      <trkpt lat="51.92042" lon="4.23753">
        <ele>43</ele>
        <time>2020-07-02T15:21:24Z</time>
      </trkpt>
      <trkpt lat="51.92061" lon="4.23732">
        <ele>42</ele>
        <time>2020-07-02T15:21:30Z</time>
      </trkpt>
      <trkpt lat="51.92079" lon="4.23711">
        <ele>43</ele>
        <time>2020-07-02T15:21:36Z</time>
      </trkpt>
      <trkpt lat="51.92096" lon="4.23692">
        <ele>44</ele>
        <time>2020-07-02T15:21:41Z</time>
      </trkpt>
      <trkpt lat="51.92113" lon="4.23672">
        <ele>44</ele>
        <time>2020-07-02T15:21:46Z</time>
      </trkpt>
      <trkpt lat="51.9213" lon="4.23654">
        <ele>47</ele>
        <time>2020-07-02T15:21:51Z</time>
      </trkpt>
      <trkpt lat="51.92148" lon="4.23633">
        <ele>44</ele>
        <time>2020-07-02T15:21:57Z</time>
      </trkpt>
      <trkpt lat="51.92164" lon="4.23614">
        <ele>44</ele>
        <time>2020-07-02T15:22:02Z</time>
      </trkpt>
      <trkpt lat="51.92181" lon="4.23593">
        <ele>45</ele>
        <time>2020-07-02T15:22:08Z</time>
      </trkpt>
      <trkpt lat="51.92201" lon="4.23575">
        <ele>45</ele>
        <time>2020-07-02T15:22:14Z</time>
      </trkpt>
      <trkpt lat="51.92217" lon="4.2356">
        <ele>44</ele>
        <time>2020-07-02T15:22:19Z</time>
      </trkpt>
      <trkpt lat="51.92236" lon="4.2354">
        <ele>46</ele>
        <time>2020-07-02T15:22:25Z</time>
      </trkpt>
      <trkpt lat="51.92253" lon="4.2352">
        <ele>50</ele>
        <time>2020-07-02T15:22:31Z</time>
      </trkpt>
      <trkpt lat="51.92273" lon="4.23499">
        <ele>50</ele>
        <time>2020-07-02T15:22:37Z</time>
      </trkpt>
      <trkpt lat="51.92288" lon="4.23481">
        <ele>50</ele>
        <time>2020-07-02T15:22:42Z</time>
      </trkpt>
      <trkpt lat="51.92307" lon="4.23459">
        <ele>48</ele>
        <time>2020-07-02T15:22:48Z</time>
      </trkpt>
      <trkpt lat="51.92325" lon="4.23439">
        <ele>47</ele>
        <time>2020-07-02T15:22:54Z</time>
      </trkpt>
      <trkpt lat="51.92344" lon="4.23418">
        <ele>45</ele>
        <time>2020-07-02T15:23:00Z</time>
      </trkpt>
      <trkpt lat="51.92363" lon="4.234">
        <ele>47</ele>
        <time>2020-07-02T15:23:06Z</time>
      </trkpt>
      <trkpt lat="51.92377" lon="4.23385">
        <ele>48</ele>
        <time>2020-07-02T15:23:11Z</time>
      </trkpt>
      <trkpt lat="51.92397" lon="4.23365">
        <ele>46</ele>
        <time>2020-07-02T15:23:17Z</time>
      </trkpt>
      <trkpt lat="51.92413" lon="4.23348">
        <ele>48</ele>
        <time>2020-07-02T15:23:22Z</time>
      </trkpt>
      <trkpt lat="51.92429" lon="4.2333">
        <ele>49</ele>
        <time>2020-07-02T15:23:28Z</time>
      </trkpt>
      <trkpt lat="51.92449" lon="4.2331">
        <ele>48</ele>
        <time>2020-07-02T15:23:34Z</time>
      </trkpt>
      <trkpt lat="51.92464" lon="4.23293">
        <ele>46</ele>
        <time>2020-07-02T15:23:39Z</time>
      </trkpt>
      <trkpt lat="51.92481" lon="4.23275">
        <ele>46</ele>
        <time>2020-07-02T15:23:45Z</time>
      </trkpt>
      <trkpt lat="51.92495" lon="4.2326">
        <ele>46</ele>
        <time>2020-07-02T15:23:50Z</time>
      </trkpt>
      <trkpt lat="51.92508" lon="4.23245">
        <ele>45</ele>
        <time>2020-07-02T15:23:55Z</time>
      </trkpt>
      <trkpt lat="51.92524" lon="4.23226">
        <ele>41</ele>
        <time>2020-07-02T15:24:01Z</time>
      </trkpt>
      <trkpt lat="51.92542" lon="4.23208">
        <ele>42</ele>
        <time>2020-07-02T15:24:07Z</time>
      </trkpt>
      <trkpt lat="51.9256" lon="4.23192">
        <ele>43</ele>
        <time>2020-07-02T15:24:13Z</time>
      </trkpt>
      <trkpt lat="51.92573" lon="4.23178">
        <ele>45</ele>
        <time>2020-07-02T15:24:18Z</time>
      </trkpt>
      <trkpt lat="51.92589" lon="4.2316">
        <ele>44</ele>
        <time>2020-07-02T15:24:24Z</time>
      </trkpt>
      <trkpt lat="51.92606" lon="4.23141">
        <ele>45</ele>
        <time>2020-07-02T15:24:30Z</time>
      </trkpt>
      <trkpt lat="51.92622" lon="4.23123">
        <ele>44</ele>
        <time>2020-07-02T15:24:36Z</time>
      </trkpt>
      <trkpt lat="51.92636" lon="4.2311">
        <ele>45</ele>
        <time>2020-07-02T15:24:41Z</time>
      </trkpt>
      <trkpt lat="51.92652" lon="4.23093">
        <ele>44</ele>
        <time>2020-07-02T15:24:47Z</time>
      </trkpt>
      <trkpt lat="51.92672" lon="4.23074">
        <ele>44</ele>
        <time>2020-07-02T15:24:53Z</time>
      </trkpt>
      <trkpt lat="51.92686" lon="4.23059">
        <ele>43</ele>
        <time>2020-07-02T15:24:58Z</time>
      </trkpt>
      <trkpt lat="51.92702" lon="4.23042">
        <ele>42</ele>
        <time>2020-07-02T15:25:04Z</time>
      </trkpt>
      <trkpt lat="51.9272" lon="4.23026">
        <ele>44</ele>
        <time>2020-07-02T15:25:10Z</time>
      </trkpt>
      <trkpt lat="51.92732" lon="4.23014">
        <ele>45</ele>
        <time>2020-07-02T15:25:15Z</time>
      </trkpt>
      <trkpt lat="51.92746" lon="4.22997">
        <ele>43</ele>
        <time>2020-07-02T15:25:21Z</time>
      </trkpt>
      <trkpt lat="51.9276" lon="4.22981">
        <ele>43</ele>
        <time>2020-07-02T15:25:27Z</time>
      </trkpt>
      <trkpt lat="51.92771" lon="4.22968">
        <ele>44</ele>
        <time>2020-07-02T15:25:32Z</time>
      </trkpt>
      <trkpt lat="51.92786" lon="4.22951">
        <ele>44</ele>
        <time>2020-07-02T15:25:38Z</time>
      </trkpt>
      <trkpt lat="51.92799" lon="4.22939">
        <ele>44</ele>
        <time>2020-07-02T15:25:43Z</time>
      </trkpt>
      <trkpt lat="51.92814" lon="4.22921">
        <ele>47</ele>
        <time>2020-07-02T15:25:49Z</time>
      </trkpt>
      <trkpt lat="51.92826" lon="4.22907">
        <ele>47</ele>
        <time>2020-07-02T15:25:54Z</time>
      </trkpt>
      <trkpt lat="51.92837" lon="4.22894">
        <ele>45</ele>
        <time>2020-07-02T15:25:59Z</time>
      </trkpt>
      <trkpt lat="51.9285" lon="4.22882">
        <ele>48</ele>
        <time>2020-07-02T15:26:04Z</time>
      </trkpt>
      <trkpt lat="51.9286" lon="4.22869">
        <ele>47</ele>
        <time>2020-07-02T15:26:09Z</time>
      </trkpt>
      <trkpt lat="51.92875" lon="4.22851">
        <ele>47</ele>
        <time>2020-07-02T15:26:15Z</time>
      </trkpt>
      <trkpt lat="51.9289" lon="4.22832">
        <ele>43</ele>
        <time>2020-07-02T15:26:21Z</time>
      </trkpt>
      <trkpt lat="51.92904" lon="4.22815">
        <ele>44</ele>
        <time>2020-07-02T15:26:26Z</time>
      </trkpt>
      <trkpt lat="51.92922" lon="4.22795">
        <ele>46</ele>
        <time>2020-07-02T15:26:32Z</time>
      </trkpt>
      <trkpt lat="51.92934" lon="4.22778">
        <ele>46</ele>
        <time>2020-07-02T15:26:37Z</time>
      </trkpt>
      <trkpt lat="51.92946" lon="4.22762">
        <ele>47</ele>
        <time>2020-07-02T15:26:42Z</time>
      </trkpt>
      <trkpt lat="51.92959" lon="4.22746">
        <ele>48</ele>
        <time>2020-07-02T15:26:47Z</time>
      </trkpt>
      <trkpt lat="51.92973" lon="4.22725">
        <ele>49</ele>
        <time>2020-07-02T15:26:53Z</time>
      </trkpt>
      <trkpt lat="51.92984" lon="4.22709">
        <ele>50</ele>
        <time>2020-07-02T15:26:58Z</time>
      </trkpt>
      <trkpt lat="51.92997" lon="4.22689">
        <ele>49</ele>
        <time>2020-07-02T15:27:04Z</time>
      </trkpt>
      <trkpt lat="51.93011" lon="4.22667">
        <ele>48</ele>
        <time>2020-07-02T15:27:10Z</time>
      </trkpt>
      <trkpt lat="51.93024" lon="4.22646">
        <ele>48</ele>
        <time>2020-07-02T15:27:16Z</time>
      </trkpt>
      <trkpt lat="51.93036" lon="4.22626">
        <ele>47</ele>
        <time>2020-07-02T15:27:22Z</time>
      </trkpt>
      <trkpt lat="51.93048" lon="4.22607">
        <ele>46</ele>
        <time>2020-07-02T15:27:27Z</time>
      </trkpt>
      <trkpt lat="51.93063" lon="4.22584">
        <ele>47</ele>
        <time>2020-07-02T15:27:33Z</time>
      </trkpt>
      <trkpt lat="51.93074" lon="4.22569">
        <ele>49</ele>
        <time>2020-07-02T15:27:38Z</time>
      </trkpt>
      <trkpt lat="51.93087" lon="4.22549">
        <ele>47</ele>
        <time>2020-07-02T15:27:44Z</time>
      </trkpt>
      <trkpt lat="51.93097" lon="4.22532">
        <ele>48</ele>
        <time>2020-07-02T15:27:49Z</time>
      </trkpt>
      <trkpt lat="51.93107" lon="4.22515">
        <ele>49</ele>
        <time>2020-07-02T15:27:54Z</time>
      </trkpt>
      <trkpt lat="51.93121" lon="4.22493">
        <ele>48</ele>
        <time>2020-07-02T15:28:00Z</time>
      </trkpt>
      <trkpt lat="51.93133" lon="4.22472">
        <ele>49</ele>
        <time>2020-07-02T15:28:06Z</time>
      </trkpt>
      <trkpt lat="51.93147" lon="4.2245">
        <ele>47</ele>
        <time>2020-07-02T15:28:12Z</time>
      </trkpt>
      <trkpt lat="51.93158" lon="4.22431">
        <ele>47</ele>
        <time>2020-07-02T15:28:17Z</time>
      </trkpt>
      <trkpt lat="51.9317" lon="4.22411">
        <ele>46</ele>
        <time>2020-07-02T15:28:22Z</time>
      </trkpt>
      <trkpt lat="51.93186" lon="4.22385">
        <ele>43</ele>
        <time>2020-07-02T15:28:28Z</time>
      </trkpt>
      <trkpt lat="51.93199" lon="4.22362">
        <ele>43</ele>
        <time>2020-07-02T15:28:34Z</time>
      </trkpt>
      <trkpt lat="51.93212" lon="4.2234">
        <ele>42</ele>
        <time>2020-07-02T15:28:40Z</time>
      </trkpt>
      <trkpt lat="51.93225" lon="4.2232">
        <ele>42</ele>
        <time>2020-07-02T15:28:46Z</time>
      </trkpt>
      <trkpt lat="51.93238" lon="4.22297">
        <ele>45</ele>
        <time>2020-07-02T15:28:52Z</time>
      </trkpt>
      <trkpt lat="51.9325" lon="4.22274">
        <ele>48</ele>
        <time>2020-07-02T15:28:58Z</time>
      </trkpt>
      <trkpt lat="51.93262" lon="4.22249">
        <ele>50</ele>
        <time>2020-07-02T15:29:04Z</time>
      </trkpt>
      <trkpt lat="51.93274" lon="4.22227">
        <ele>50</ele>
        <time>2020-07-02T15:29:09Z</time>
      </trkpt>
      <trkpt lat="51.93284" lon="4.22207">
        <ele>49</ele>
        <time>2020-07-02T15:29:14Z</time>
      </trkpt>
      <trkpt lat="51.93297" lon="4.22183">
        <ele>48</ele>
        <time>2020-07-02T15:29:20Z</time>
      </trkpt>
      <trkpt lat="51.93308" lon="4.22158">
        <ele>47</ele>
        <time>2020-07-02T15:29:26Z</time>
      </trkpt>
      <trkpt lat="51.93317" lon="4.2214">
        <ele>47</ele>
        <time>2020-07-02T15:29:31Z</time>
      </trkpt>
      <trkpt lat="51.93325" lon="4.22122">
        <ele>48</ele>
        <time>2020-07-02T15:29:36Z</time>
      </trkpt>
      <trkpt lat="51.93336" lon="4.22102">
        <ele>46</ele>
        <time>2020-07-02T15:29:42Z</time>
      </trkpt>
      <trkpt lat="51.93344" lon="4.22085">
        <ele>47</ele>
        <time>2020-07-02T15:29:47Z</time>
      </trkpt>
      <trkpt lat="51.93356" lon="4.22063">
        <ele>45</ele>
        <time>2020-07-02T15:29:53Z</time>
      </trkpt>
      <trkpt lat="51.93365" lon="4.22042">
        <ele>45</ele>
        <time>2020-07-02T15:29:58Z</time>
      </trkpt>
      <trkpt lat="51.93376" lon="4.22017">
        <ele>46</ele>
        <time>2020-07-02T15:30:04Z</time>
      </trkpt>
      <trkpt lat="51.93386" lon="4.21998">
        <ele>47</ele>
        <time>2020-07-02T15:30:09Z</time>
      </trkpt>
      <trkpt lat="51.93395" lon="4.21978">
        <ele>47</ele>
        <time>2020-07-02T15:30:14Z</time>
      </trkpt>
      <trkpt lat="51.93404" lon="4.2196">
        <ele>48</ele>
        <time>2020-07-02T15:30:19Z</time>
      </trkpt>
      <trkpt lat="51.93415" lon="4.21939">
        <ele>48</ele>
        <time>2020-07-02T15:30:25Z</time>
      </trkpt>
      <trkpt lat="51.93423" lon="4.21922">
        <ele>48</ele>
        <time>2020-07-02T15:30:30Z</time>
      </trkpt>
      <trkpt lat="51.93432" lon="4.21901">
        <ele>48</ele>
        <time>2020-07-02T15:30:36Z</time>
      </trkpt>
      <trkpt lat="51.9344" lon="4.21885">
        <ele>48</ele>
        <time>2020-07-02T15:30:41Z</time>
      </trkpt>
      <trkpt lat="51.93449" lon="4.21865">
        <ele>48</ele>
        <time>2020-07-02T15:30:47Z</time>
      </trkpt>
      <trkpt lat="51.93459" lon="4.21844">
        <ele>47</ele>
        <time>2020-07-02T15:30:53Z</time>
      </trkpt>
      <trkpt lat="51.93468" lon="4.21825">
        <ele>46</ele>
        <time>2020-07-02T15:30:58Z</time>
      </trkpt>
      <trkpt lat="51.93476" lon="4.21808">
        <ele>47</ele>
        <time>2020-07-02T15:31:03Z</time>
      </trkpt>
      <trkpt lat="51.93485" lon="4.21786">
        <ele>48</ele>
        <time>2020-07-02T15:31:09Z</time>
      </trkpt>
      <trkpt lat="51.93493" lon="4.21768">
        <ele>49</ele>
        <time>2020-07-02T15:31:14Z</time>
      </trkpt>
      <trkpt lat="51.93503" lon="4.21746">
        <ele>48</ele>
        <time>2020-07-02T15:31:20Z</time>
      </trkpt>
      <trkpt lat="51.93511" lon="4.21728">
        <ele>48</ele>
        <time>2020-07-02T15:31:25Z</time>
      </trkpt>
      <trkpt lat="51.93518" lon="4.21709">
        <ele>48</ele>
        <time>2020-07-02T15:31:30Z</time>
      </trkpt>
      <trkpt lat="51.93528" lon="4.21687">
        <ele>50</ele>
        <time>2020-07-02T15:31:36Z</time>
      </trkpt>
      <trkpt lat="51.93537" lon="4.21665">
        <ele>50</ele>
        <time>2020-07-02T15:31:42Z</time>
      </trkpt>
      <trkpt lat="51.93545" lon="4.21644">
        <ele>50</ele>
        <time>2020-07-02T15:31:48Z</time>
      </trkpt>
      <trkpt lat="51.93554" lon="4.21622">
        <ele>50</ele>
        <time>2020-07-02T15:31:54Z</time>
      </trkpt>
      <trkpt lat="51.93563" lon="4.216">
        <ele>51</ele>
        <time>2020-07-02T15:32:00Z</time>
      </trkpt>
      <trkpt lat="51.93572" lon="4.21579">
        <ele>52</ele>
        <time>2020-07-02T15:32:06Z</time>
      </trkpt>
      <trkpt lat="51.93579" lon="4.21561">
        <ele>51</ele>
        <time>2020-07-02T15:32:11Z</time>
      </trkpt>
      <trkpt lat="51.93587" lon="4.2154">
        <ele>50</ele>
        <time>2020-07-02T15:32:17Z</time>
      </trkpt>
      <trkpt lat="51.93597" lon="4.21518">
        <ele>52</ele>
        <time>2020-07-02T15:32:23Z</time>
      </trkpt>
      <trkpt lat="51.93606" lon="4.21491">
        <ele>50</ele>
        <time>2020-07-02T15:32:29Z</time>
      </trkpt>
      <trkpt lat="51.93614" lon="4.21469">
        <ele>50</ele>
        <time>2020-07-02T15:32:35Z</time>
      </trkpt>
      <trkpt lat="51.93622" lon="4.2145">
        <ele>50</ele>
        <time>2020-07-02T15:32:41Z</time>
      </trkpt>
      <trkpt lat="51.93629" lon="4.21431">
        <ele>48</ele>
        <time>2020-07-02T15:32:46Z</time>
      </trkpt>
      <trkpt lat="51.93636" lon="4.21414">
        <ele>51</ele>
        <time>2020-07-02T15:32:51Z</time>
      </trkpt>
      <trkpt lat="51.93645" lon="4.2139">
        <ele>50</ele>
        <time>2020-07-02T15:32:57Z</time>
      </trkpt>
      <trkpt lat="51.93654" lon="4.21367">
        <ele>48</ele>
        <time>2020-07-02T15:33:03Z</time>
      </trkpt>
      <trkpt lat="51.93664" lon="4.21344">
        <ele>44</ele>
        <time>2020-07-02T15:33:09Z</time>
      </trkpt>
      <trkpt lat="51.93672" lon="4.21324">
        <ele>45</ele>
        <time>2020-07-02T15:33:14Z</time>
      </trkpt>
      <trkpt lat="51.9368" lon="4.21298">
        <ele>45</ele>
        <time>2020-07-02T15:33:20Z</time>
      </trkpt>
      <trkpt lat="51.93685" lon="4.21276">
        <ele>44</ele>
        <time>2020-07-02T15:33:25Z</time>
      </trkpt>
      <trkpt lat="51.93692" lon="4.21256">
        <ele>45</ele>
        <time>2020-07-02T15:33:30Z</time>
      </trkpt>
      <trkpt lat="51.937" lon="4.21233">
        <ele>45</ele>
        <time>2020-07-02T15:33:36Z</time>
      </trkpt>
      <trkpt lat="51.93706" lon="4.21213">
        <ele>46</ele>
        <time>2020-07-02T15:33:41Z</time>
      </trkpt>
      <trkpt lat="51.93716" lon="4.21192">
        <ele>48</ele>
        <time>2020-07-02T15:33:47Z</time>
      </trkpt>
      <trkpt lat="51.93722" lon="4.21173">
        <ele>48</ele>
        <time>2020-07-02T15:33:52Z</time>
      </trkpt>
      <trkpt lat="51.9373" lon="4.21148">
        <ele>49</ele>
        <time>2020-07-02T15:33:58Z</time>
      </trkpt>
      <trkpt lat="51.93737" lon="4.21128">
        <ele>51</ele>
        <time>2020-07-02T15:34:03Z</time>
      </trkpt>
      <trkpt lat="51.93746" lon="4.21108">
        <ele>51</ele>
        <time>2020-07-02T15:34:08Z</time>
      </trkpt>
      <trkpt lat="51.93755" lon="4.21083">
        <ele>51</ele>
        <time>2020-07-02T15:34:14Z</time>
      </trkpt>
      <trkpt lat="51.93765" lon="4.21066">
        <ele>51</ele>
        <time>2020-07-02T15:34:19Z</time>
      </trkpt>
      <trkpt lat="51.93773" lon="4.2105">
        <ele>51</ele>
        <time>2020-07-02T15:34:24Z</time>
      </trkpt>
      <trkpt lat="51.93783" lon="4.21027">
        <ele>50</ele>
        <time>2020-07-02T15:34:30Z</time>
      </trkpt>
      <trkpt lat="51.9379" lon="4.21005">
        <ele>50</ele>
        <time>2020-07-02T15:34:35Z</time>
      </trkpt>
      <trkpt lat="51.93799" lon="4.20981">
        <ele>50</ele>
        <time>2020-07-02T15:34:41Z</time>
      </trkpt>
      <trkpt lat="51.93806" lon="4.20961">
        <ele>50</ele>
        <time>2020-07-02T15:34:46Z</time>
      </trkpt>
      <trkpt lat="51.93815" lon="4.2094">
        <ele>50</ele>
        <time>2020-07-02T15:34:52Z</time>
      </trkpt>
      <trkpt lat="51.93822" lon="4.20921">
        <ele>48</ele>
        <time>2020-07-02T15:34:57Z</time>
      </trkpt>
      <trkpt lat="51.93831" lon="4.20899">
        <ele>48</ele>
        <time>2020-07-02T15:35:03Z</time>
      </trkpt>
      <trkpt lat="51.9384" lon="4.20875">
        <ele>49</ele>
        <time>2020-07-02T15:35:09Z</time>
      </trkpt>
      <trkpt lat="51.93847" lon="4.20852">
        <ele>49</ele>
        <time>2020-07-02T15:35:15Z</time>
      </trkpt>
      <trkpt lat="51.93854" lon="4.20832">
        <ele>50</ele>
        <time>2020-07-02T15:35:20Z</time>
      </trkpt>
      <trkpt lat="51.93863" lon="4.20806">
        <ele>48</ele>
        <time>2020-07-02T15:35:26Z</time>
      </trkpt>
      <trkpt lat="51.9387" lon="4.20787">
        <ele>49</ele>
        <time>2020-07-02T15:35:31Z</time>
      </trkpt>
      <trkpt lat="51.93877" lon="4.20764">
        <ele>48</ele>
        <time>2020-07-02T15:35:37Z</time>
      </trkpt>
      <trkpt lat="51.93884" lon="4.20742">
        <ele>51</ele>
        <time>2020-07-02T15:35:43Z</time>
      </trkpt>
      <trkpt lat="51.93892" lon="4.2072">
        <ele>49</ele>
        <time>2020-07-02T15:35:48Z</time>
      </trkpt>
      <trkpt lat="51.93902" lon="4.20695">
        <ele>50</ele>
        <time>2020-07-02T15:35:54Z</time>
      </trkpt>
      <trkpt lat="51.93907" lon="4.20677">
        <ele>51</ele>
        <time>2020-07-02T15:35:59Z</time>
      </trkpt>
      <trkpt lat="51.93916" lon="4.20655">
        <ele>50</ele>
        <time>2020-07-02T15:36:05Z</time>
      </trkpt>
      <trkpt lat="51.93922" lon="4.20637">
        <ele>49</ele>
        <time>2020-07-02T15:36:10Z</time>
      </trkpt>
      <trkpt lat="51.93929" lon="4.20614">
        <ele>49</ele>
        <time>2020-07-02T15:36:16Z</time>
      </trkpt>
      <trkpt lat="51.93935" lon="4.20594">
        <ele>50</ele>
        <time>2020-07-02T15:36:21Z</time>
      </trkpt>
      <trkpt lat="51.9394" lon="4.20574">
        <ele>52</ele>
        <time>2020-07-02T15:36:26Z</time>
      </trkpt>
      <trkpt lat="51.93948" lon="4.20552">
        <ele>50</ele>
        <time>2020-07-02T15:36:32Z</time>
      </trkpt>
      <trkpt lat="51.93955" lon="4.20529">
        <ele>50</ele>
        <time>2020-07-02T15:36:38Z</time>
      </trkpt>
      <trkpt lat="51.9396" lon="4.20511">
        <ele>50</ele>
        <time>2020-07-02T15:36:43Z</time>
      </trkpt>
      <trkpt lat="51.93967" lon="4.20492">
        <ele>51</ele>
        <time>2020-07-02T15:36:48Z</time>
      </trkpt>
      <trkpt lat="51.93976" lon="4.20469">
        <ele>51</ele>
        <time>2020-07-02T15:36:54Z</time>
      </trkpt>
      <trkpt lat="51.93982" lon="4.20448">
        <ele>50</ele>
        <time>2020-07-02T15:36:59Z</time>
      </trkpt>
      <trkpt lat="51.93989" lon="4.20429">
        <ele>50</ele>
        <time>2020-07-02T15:37:04Z</time>
      </trkpt>
      <trkpt lat="51.93997" lon="4.20404">
        <ele>48</ele>
        <time>2020-07-02T15:37:10Z</time>
      </trkpt>
      <trkpt lat="51.94005" lon="4.20384">
        <ele>49</ele>
        <time>2020-07-02T15:37:15Z</time>
      </trkpt>
      <trkpt lat="51.94012" lon="4.20363">
        <ele>49</ele>
        <time>2020-07-02T15:37:20Z</time>
      </trkpt>
      <trkpt lat="51.9402" lon="4.20341">
        <ele>49</ele>
        <time>2020-07-02T15:37:26Z</time>
      </trkpt>
      <trkpt lat="51.94028" lon="4.20319">
        <ele>50</ele>
        <time>2020-07-02T15:37:32Z</time>
      </trkpt>
      <trkpt lat="51.94036" lon="4.20294">
        <ele>49</ele>
        <time>2020-07-02T15:37:38Z</time>
      </trkpt>
      <trkpt lat="51.94045" lon="4.20269">
        <ele>48</ele>
        <time>2020-07-02T15:37:44Z</time>
      </trkpt>
      <trkpt lat="51.94052" lon="4.2025">
        <ele>48</ele>
        <time>2020-07-02T15:37:49Z</time>
      </trkpt>
      <trkpt lat="51.94059" lon="4.2023">
        <ele>48</ele>
        <time>2020-07-02T15:37:54Z</time>
      </trkpt>
      <trkpt lat="51.94067" lon="4.20207">
        <ele>47</ele>
        <time>2020-07-02T15:38:00Z</time>
      </trkpt>
      <trkpt lat="51.94075" lon="4.20187">
        <ele>47</ele>
        <time>2020-07-02T15:38:05Z</time>
      </trkpt>
      <trkpt lat="51.94082" lon="4.20169">
        <ele>48</ele>
        <time>2020-07-02T15:38:10Z</time>
      </trkpt>
      <trkpt lat="51.94092" lon="4.20148">
        <ele>48</ele>
        <time>2020-07-02T15:38:16Z</time>
      </trkpt>
      <trkpt lat="51.94098" lon="4.20128">
        <ele>48</ele>
        <time>2020-07-02T15:38:21Z</time>
      </trkpt>
      <trkpt lat="51.94106" lon="4.20103">
        <ele>50</ele>
        <time>2020-07-02T15:38:27Z</time>
      </trkpt>
      <trkpt lat="51.94115" lon="4.20078">
        <ele>50</ele>
        <time>2020-07-02T15:38:33Z</time>
      </trkpt>
      <trkpt lat="51.94123" lon="4.20055">
        <ele>49</ele>
        <time>2020-07-02T15:38:38Z</time>
      </trkpt>
      <trkpt lat="51.94132" lon="4.20031">
        <ele>49</ele>
        <time>2020-07-02T15:38:44Z</time>
      </trkpt>
      <trkpt lat="51.94138" lon="4.20011">
        <ele>50</ele>
        <time>2020-07-02T15:38:49Z</time>
      </trkpt>
      <trkpt lat="51.94147" lon="4.19988">
        <ele>50</ele>
        <time>2020-07-02T15:38:55Z</time>
      </trkpt>
      <trkpt lat="51.94154" lon="4.19967">
        <ele>50</ele>
        <time>2020-07-02T15:39:00Z</time>
      </trkpt>
      <trkpt lat="51.94162" lon="4.19945">
        <ele>51</ele>
        <time>2020-07-02T15:39:06Z</time>
      </trkpt>
      <trkpt lat="51.9417" lon="4.19922">
        <ele>52</ele>
        <time>2020-07-02T15:39:12Z</time>
      </trkpt>
      <trkpt lat="51.94179" lon="4.19897">
        <ele>50</ele>
        <time>2020-07-02T15:39:18Z</time>
      </trkpt>
      <trkpt lat="51.94186" lon="4.19877">
        <ele>51</ele>
        <time>2020-07-02T15:39:23Z</time>
      </trkpt>
      <trkpt lat="51.94194" lon="4.19854">
        <ele>51</ele>
        <time>2020-07-02T15:39:29Z</time>
      </trkpt>
      <trkpt lat="51.94202" lon="4.1983">
        <ele>51</ele>
        <time>2020-07-02T15:39:35Z</time>
      </trkpt>
      <trkpt lat="51.9421" lon="4.19804">
        <ele>49</ele>
        <time>2020-07-02T15:39:41Z</time>
      </trkpt>
      <trkpt lat="51.94215" lon="4.19782">
        <ele>50</ele>
        <time>2020-07-02T15:39:46Z</time>
      </trkpt>
      <trkpt lat="51.94223" lon="4.19755">
        <ele>50</ele>
        <time>2020-07-02T15:39:52Z</time>
      </trkpt>
      <trkpt lat="51.94232" lon="4.1973">
        <ele>51</ele>
        <time>2020-07-02T15:39:58Z</time>
      </trkpt>
      <trkpt lat="51.9424" lon="4.19709">
        <ele>51</ele>
        <time>2020-07-02T15:40:03Z</time>
      </trkpt>
      <trkpt lat="51.94248" lon="4.19685">
        <ele>52</ele>
        <time>2020-07-02T15:40:09Z</time>
      </trkpt>
      <trkpt lat="51.94255" lon="4.19664">
        <ele>52</ele>
        <time>2020-07-02T15:40:14Z</time>
      </trkpt>
      <trkpt lat="51.94262" lon="4.19643">
        <ele>53</ele>
        <time>2020-07-02T15:40:19Z</time>
      </trkpt>
      <trkpt lat="51.94271" lon="4.19618">
        <ele>52</ele>
        <time>2020-07-02T15:40:25Z</time>
      </trkpt>
      <trkpt lat="51.94278" lon="4.19598">
        <ele>53</ele>
        <time>2020-07-02T15:40:30Z</time>
      </trkpt>
      <trkpt lat="51.94287" lon="4.19574">
        <ele>52</ele>
        <time>2020-07-02T15:40:36Z</time>
      </trkpt>
      <trkpt lat="51.94296" lon="4.19553">
        <ele>51</ele>
        <time>2020-07-02T15:40:41Z</time>
      </trkpt>
      <trkpt lat="51.94305" lon="4.19526">
        <ele>52</ele>
        <time>2020-07-02T15:40:47Z</time>
      </trkpt>
      <trkpt lat="51.94315" lon="4.19501">
        <ele>52</ele>
        <time>2020-07-02T15:40:53Z</time>
      </trkpt>
      <trkpt lat="51.94323" lon="4.19481">
        <ele>52</ele>
        <time>2020-07-02T15:40:58Z</time>
      </trkpt>
      <trkpt lat="51.9433" lon="4.19461">
        <ele>52</ele>
        <time>2020-07-02T15:41:03Z</time>
      </trkpt>
      <trkpt lat="51.94339" lon="4.19437">
        <ele>51</ele>
        <time>2020-07-02T15:41:09Z</time>
      </trkpt>
      <trkpt lat="51.94348" lon="4.19413">
        <ele>51</ele>
        <time>2020-07-02T15:41:15Z</time>
      </trkpt>
      <trkpt lat="51.94357" lon="4.19388">
        <ele>50</ele>
        <time>2020-07-02T15:41:21Z</time>
      </trkpt>
      <trkpt lat="51.94366" lon="4.19367">
        <ele>50</ele>
        <time>2020-07-02T15:41:26Z</time>
      </trkpt>
      <trkpt lat="51.94375" lon="4.19343">
        <ele>51</ele>
        <time>2020-07-02T15:41:32Z</time>
      </trkpt>
      <trkpt lat="51.94384" lon="4.19319">
        <ele>52</ele>
        <time>2020-07-02T15:41:38Z</time>
      </trkpt>
      <trkpt lat="51.94392" lon="4.19298">
        <ele>52</ele>
        <time>2020-07-02T15:41:43Z</time>
      </trkpt>
      <trkpt lat="51.94401" lon="4.19274">
        <ele>52</ele>
        <time>2020-07-02T15:41:49Z</time>
      </trkpt>
      <trkpt lat="51.9441" lon="4.1925">
        <ele>51</ele>
        <time>2020-07-02T15:41:55Z</time>
      </trkpt>
      <trkpt lat="51.94419" lon="4.19231">
        <ele>51</ele>
        <time>2020-07-02T15:42:00Z</time>
      </trkpt>
      <trkpt lat="51.94428" lon="4.19208">
        <ele>51</ele>
        <time>2020-07-02T15:42:06Z</time>
      </trkpt>
      <trkpt lat="51.94436" lon="4.19188">
        <ele>51</ele>
        <time>2020-07-02T15:42:11Z</time>
      </trkpt>
      <trkpt lat="51.94446" lon="4.19164">
        <ele>51</ele>
        <time>2020-07-02T15:42:17Z</time>
      </trkpt>
      <trkpt lat="51.94456" lon="4.19141">
        <ele>52</ele>
        <time>2020-07-02T15:42:23Z</time>
      </trkpt>
      <trkpt lat="51.94464" lon="4.1912">
        <ele>51</ele>
        <time>2020-07-02T15:42:28Z</time>
      </trkpt>
      <trkpt lat="51.94474" lon="4.19096">
        <ele>52</ele>
        <time>2020-07-02T15:42:34Z</time>
      </trkpt>
      <trkpt lat="51.94482" lon="4.19076">
        <ele>52</ele>
        <time>2020-07-02T15:42:39Z</time>
      </trkpt>
      <trkpt lat="51.94492" lon="4.19053">
        <ele>52</ele>
        <time>2020-07-02T15:42:45Z</time>
      </trkpt>
      <trkpt lat="51.94501" lon="4.19033">
        <ele>52</ele>
        <time>2020-07-02T15:42:50Z</time>
      </trkpt>
      <trkpt lat="51.94511" lon="4.1901">
        <ele>52</ele>
        <time>2020-07-02T15:42:56Z</time>
      </trkpt>
      <trkpt lat="51.9452" lon="4.18987">
        <ele>51</ele>
        <time>2020-07-02T15:43:02Z</time>
      </trkpt>
      <trkpt lat="51.94528" lon="4.1897">
        <ele>53</ele>
        <time>2020-07-02T15:43:07Z</time>
      </trkpt>
      <trkpt lat="51.94536" lon="4.18951">
        <ele>53</ele>
        <time>2020-07-02T15:43:12Z</time>
      </trkpt>
      <trkpt lat="51.94544" lon="4.18931">
        <ele>52</ele>
        <time>2020-07-02T15:43:17Z</time>
      </trkpt>
      <trkpt lat="51.94553" lon="4.1891">
        <ele>52</ele>
        <time>2020-07-02T15:43:22Z</time>
      </trkpt>
      <trkpt lat="51.94563" lon="4.18887">
        <ele>53</ele>
        <time>2020-07-02T15:43:28Z</time>
      </trkpt>
      <trkpt lat="51.94573" lon="4.18863">
        <ele>52</ele>
        <time>2020-07-02T15:43:34Z</time>
      </trkpt>
      <trkpt lat="51.94581" lon="4.18844">
        <ele>52</ele>
        <time>2020-07-02T15:43:39Z</time>
      </trkpt>
      <trkpt lat="51.94589" lon="4.18827">
        <ele>53</ele>
        <time>2020-07-02T15:43:44Z</time>
      </trkpt>
      <trkpt lat="51.94599" lon="4.18806">
        <ele>53</ele>
        <time>2020-07-02T15:43:50Z</time>
      </trkpt>
      <trkpt lat="51.94607" lon="4.18788">
        <ele>53</ele>
        <time>2020-07-02T15:43:55Z</time>
      </trkpt>
      <trkpt lat="51.94615" lon="4.18772">
        <ele>54</ele>
        <time>2020-07-02T15:44:00Z</time>
      </trkpt>
      <trkpt lat="51.94624" lon="4.1875">
        <ele>55</ele>
        <time>2020-07-02T15:44:06Z</time>
      </trkpt>
      <trkpt lat="51.94634" lon="4.18726">
        <ele>56</ele>
        <time>2020-07-02T15:44:12Z</time>
      </trkpt>
      <trkpt lat="51.94642" lon="4.18707">
        <ele>58</ele>
        <time>2020-07-02T15:44:17Z</time>
      </trkpt>
      <trkpt lat="51.9465" lon="4.1869">
        <ele>60</ele>
        <time>2020-07-02T15:44:22Z</time>
      </trkpt>
      <trkpt lat="51.9466" lon="4.18669">
        <ele>60</ele>
        <time>2020-07-02T15:44:28Z</time>
      </trkpt>
      <trkpt lat="51.94669" lon="4.18651">
        <ele>58</ele>
        <time>2020-07-02T15:44:33Z</time>
      </trkpt>
      <trkpt lat="51.94679" lon="4.18629">
        <ele>58</ele>
        <time>2020-07-02T15:44:39Z</time>
      </trkpt>
      <trkpt lat="51.94688" lon="4.18608">
        <ele>60</ele>
        <time>2020-07-02T15:44:45Z</time>
      </trkpt>
      <trkpt lat="51.94693" lon="4.18594">
        <ele>60</ele>
        <time>2020-07-02T15:44:50Z</time>
      </trkpt>
      <trkpt lat="51.94699" lon="4.1858">
        <ele>55</ele>
        <time>2020-07-02T15:44:56Z</time>
      </trkpt>
      <trkpt lat="51.94709" lon="4.18559">
        <ele>55</ele>
        <time>2020-07-02T15:45:02Z</time>
      </trkpt>
      <trkpt lat="51.94717" lon="4.18542">
        <ele>54</ele>
        <time>2020-07-02T15:45:07Z</time>
      </trkpt>
      <trkpt lat="51.94726" lon="4.18522">
        <ele>55</ele>
        <time>2020-07-02T15:45:13Z</time>
      </trkpt>
      <trkpt lat="51.94734" lon="4.18505">
        <ele>56</ele>
        <time>2020-07-02T15:45:18Z</time>
      </trkpt>
      <trkpt lat="51.94744" lon="4.18484">
        <ele>56</ele>
        <time>2020-07-02T15:45:24Z</time>
      </trkpt>
      <trkpt lat="51.94753" lon="4.18467">
        <ele>54</ele>
        <time>2020-07-02T15:45:29Z</time>
      </trkpt>
      <trkpt lat="51.94764" lon="4.18444">
        <ele>50</ele>
        <time>2020-07-02T15:45:35Z</time>
      </trkpt>
      <trkpt lat="51.94775" lon="4.18419">
        <ele>47</ele>
        <time>2020-07-02T15:45:41Z</time>
      </trkpt>
      <trkpt lat="51.94786" lon="4.18399">
        <ele>44</ele>
        <time>2020-07-02T15:45:46Z</time>
      </trkpt>
      <trkpt lat="51.94796" lon="4.18379">
        <ele>42</ele>
        <time>2020-07-02T15:45:52Z</time>
      </trkpt>
      <trkpt lat="51.94807" lon="4.18362">
        <ele>41</ele>
        <time>2020-07-02T15:45:57Z</time>
      </trkpt>
      <trkpt lat="51.94819" lon="4.18338">
        <ele>40</ele>
        <time>2020-07-02T15:46:03Z</time>
      </trkpt>
      <trkpt lat="51.94829" lon="4.18319">
        <ele>40</ele>
        <time>2020-07-02T15:46:08Z</time>
      </trkpt>
      <trkpt lat="51.94839" lon="4.18299">
        <ele>39</ele>
        <time>2020-07-02T15:46:13Z</time>
      </trkpt>
      <trkpt lat="51.9485" lon="4.18275">
        <ele>38</ele>
        <time>2020-07-02T15:46:19Z</time>
      </trkpt>
      <trkpt lat="51.94859" lon="4.18257">
        <ele>42</ele>
        <time>2020-07-02T15:46:24Z</time>
      </trkpt>
      <trkpt lat="51.94869" lon="4.18237">
        <ele>41</ele>
        <time>2020-07-02T15:46:30Z</time>
      </trkpt>
      <trkpt lat="51.94878" lon="4.18216">
        <ele>44</ele>
        <time>2020-07-02T15:46:36Z</time>
      </trkpt>
      <trkpt lat="51.94888" lon="4.18195">
        <ele>44</ele>
        <time>2020-07-02T15:46:42Z</time>
      </trkpt>
      <trkpt lat="51.949" lon="4.1817">
        <ele>35</ele>
        <time>2020-07-02T15:46:47Z</time>
      </trkpt>
      <trkpt lat="51.94914" lon="4.18146">
        <ele>36</ele>
        <time>2020-07-02T15:46:53Z</time>
      </trkpt>
      <trkpt lat="51.94924" lon="4.18124">
        <ele>37</ele>
        <time>2020-07-02T15:46:59Z</time>
      </trkpt>
      <trkpt lat="51.94932" lon="4.18102">
        <ele>36</ele>
        <time>2020-07-02T15:47:05Z</time>
      </trkpt>
      <trkpt lat="51.94941" lon="4.18085">
        <ele>43</ele>
        <time>2020-07-02T15:47:10Z</time>
      </trkpt>
      <trkpt lat="51.9495" lon="4.18069">
        <ele>43</ele>
        <time>2020-07-02T15:47:15Z</time>
      </trkpt>
      <trkpt lat="51.94961" lon="4.18048">
        <ele>42</ele>
        <time>2020-07-02T15:47:21Z</time>
      </trkpt>
      <trkpt lat="51.94974" lon="4.18025">
        <ele>43</ele>
        <time>2020-07-02T15:47:27Z</time>
      </trkpt>
      <trkpt lat="51.94985" lon="4.18003">
        <ele>46</ele>
        <time>2020-07-02T15:47:33Z</time>
      </trkpt>
      <trkpt lat="51.94993" lon="4.17987">
        <ele>49</ele>
        <time>2020-07-02T15:47:38Z</time>
      </trkpt>
      <trkpt lat="51.95003" lon="4.17963">
        <ele>46</ele>
        <time>2020-07-02T15:47:44Z</time>
      </trkpt>
      <trkpt lat="51.95017" lon="4.17936">
        <ele>45</ele>
        <time>2020-07-02T15:47:50Z</time>
      </trkpt>
      <trkpt lat="51.95029" lon="4.17911">
        <ele>46</ele>
        <time>2020-07-02T15:47:56Z</time>
      </trkpt>
      <trkpt lat="51.95039" lon="4.17892">
        <ele>47</ele>
        <time>2020-07-02T15:48:01Z</time>
      </trkpt>
      <trkpt lat="51.95053" lon="4.17868">
        <ele>43</ele>
        <time>2020-07-02T15:48:07Z</time>
      </trkpt>
      <trkpt lat="51.95067" lon="4.17838">
        <ele>41</ele>
        <time>2020-07-02T15:48:13Z</time>
      </trkpt>
      <trkpt lat="51.95078" lon="4.17815">
        <ele>41</ele>
        <time>2020-07-02T15:48:18Z</time>
      </trkpt>
      <trkpt lat="51.9509" lon="4.17791">
        <ele>42</ele>
        <time>2020-07-02T15:48:24Z</time>
      </trkpt>
      <trkpt lat="51.95102" lon="4.1777">
        <ele>41</ele>
        <time>2020-07-02T15:48:29Z</time>
      </trkpt>
      <trkpt lat="51.95113" lon="4.17752">
        <ele>43</ele>
        <time>2020-07-02T15:48:34Z</time>
      </trkpt>
      <trkpt lat="51.95123" lon="4.17728">
        <ele>45</ele>
        <time>2020-07-02T15:48:40Z</time>
      </trkpt>
      <trkpt lat="51.95136" lon="4.17697">
        <ele>39</ele>
        <time>2020-07-02T15:48:46Z</time>
      </trkpt>
      <trkpt lat="51.95149" lon="4.1767">
        <ele>40</ele>
        <time>2020-07-02T15:48:52Z</time>
      </trkpt>
      <trkpt lat="51.95162" lon="4.17646">
        <ele>42</ele>
        <time>2020-07-02T15:48:58Z</time>
      </trkpt>
      <trkpt lat="51.95172" lon="4.17622">
        <ele>46</ele>
        <time>2020-07-02T15:49:03Z</time>
      </trkpt>
      <trkpt lat="51.95183" lon="4.17598">
        <ele>47</ele>
        <time>2020-07-02T15:49:09Z</time>
      </trkpt>
      <trkpt lat="51.95193" lon="4.17577">
        <ele>47</ele>
        <time>2020-07-02T15:49:14Z</time>
      </trkpt>
      <trkpt lat="51.95207" lon="4.17545">
        <ele>43</ele>
        <time>2020-07-02T15:49:20Z</time>
      </trkpt>
      <trkpt lat="51.9522" lon="4.17519">
        <ele>43</ele>
        <time>2020-07-02T15:49:26Z</time>
      </trkpt>
      <trkpt lat="51.95232" lon="4.17498">
        <ele>42</ele>
        <time>2020-07-02T15:49:31Z</time>
      </trkpt>
      <trkpt lat="51.95243" lon="4.17475">
        <ele>44</ele>
        <time>2020-07-02T15:49:36Z</time>
      </trkpt>
      <trkpt lat="51.95254" lon="4.17451">
        <ele>46</ele>
        <time>2020-07-02T15:49:42Z</time>
      </trkpt>
      <trkpt lat="51.95266" lon="4.17427">
        <ele>41</ele>
        <time>2020-07-02T15:49:47Z</time>
      </trkpt>
      <trkpt lat="51.95278" lon="4.17398">
        <ele>43</ele>
        <time>2020-07-02T15:49:53Z</time>
      </trkpt>
      <trkpt lat="51.95289" lon="4.17375">
        <ele>46</ele>
        <time>2020-07-02T15:49:58Z</time>
      </trkpt>
      <trkpt lat="51.95304" lon="4.17349">
        <ele>45</ele>
        <time>2020-07-02T15:50:04Z</time>
      </trkpt>
      <trkpt lat="51.95312" lon="4.1733">
        <ele>46</ele>
        <time>2020-07-02T15:50:09Z</time>
      </trkpt>
      <trkpt lat="51.95324" lon="4.1731">
        <ele>46</ele>
        <time>2020-07-02T15:50:15Z</time>
      </trkpt>
      <trkpt lat="51.9534" lon="4.17322">
        <ele>47</ele>
        <time>2020-07-02T15:50:21Z</time>
      </trkpt>
      <trkpt lat="51.95353" lon="4.17344">
        <ele>47</ele>
        <time>2020-07-02T15:50:26Z</time>
      </trkpt>
      <trkpt lat="51.95363" lon="4.17371">
        <ele>49</ele>
        <time>2020-07-02T15:50:32Z</time>
      </trkpt>
      <trkpt lat="51.95347" lon="4.17399">
        <ele>51</ele>
        <time>2020-07-02T15:50:38Z</time>
      </trkpt>
      <trkpt lat="51.95335" lon="4.1742">
        <ele>50</ele>
        <time>2020-07-02T15:50:44Z</time>
      </trkpt>
      <trkpt lat="51.95338" lon="4.17437">
        <ele>49</ele>
        <time>2020-07-02T15:50:50Z</time>
      </trkpt>
      <trkpt lat="51.95352" lon="4.1744">
        <ele>49</ele>
        <time>2020-07-02T15:50:56Z</time>
      </trkpt>
      <trkpt lat="51.95366" lon="4.17439">
        <ele>50</ele>
        <time>2020-07-02T15:51:02Z</time>
      </trkpt>
      <trkpt lat="51.95376" lon="4.17437">
        <ele>52</ele>
        <time>2020-07-02T15:51:07Z</time>
      </trkpt>
      <trkpt lat="51.95387" lon="4.17433">
        <ele>52</ele>
        <time>2020-07-02T15:51:13Z</time>
      </trkpt>
      <trkpt lat="51.95397" lon="4.17422">
        <ele>51</ele>
        <time>2020-07-02T15:51:18Z</time>
      </trkpt>
      <trkpt lat="51.95406" lon="4.17401">
        <ele>51</ele>
        <time>2020-07-02T15:51:24Z</time>
      </trkpt>
      <trkpt lat="51.95412" lon="4.1739">
        <ele>51</ele>
        <time>2020-07-02T15:51:29Z</time>
      </trkpt>
      <trkpt lat="51.95418" lon="4.17379">
        <ele>51</ele>
        <time>2020-07-02T15:51:34Z</time>
      </trkpt>
      <trkpt lat="51.95429" lon="4.17362">
        <ele>49</ele>
        <time>2020-07-02T15:51:40Z</time>
      </trkpt>
      <trkpt lat="51.95438" lon="4.17343">
        <ele>49</ele>
        <time>2020-07-02T15:51:45Z</time>
      </trkpt>
      <trkpt lat="51.95447" lon="4.17326">
        <ele>49</ele>
        <time>2020-07-02T15:51:50Z</time>
      </trkpt>
      <trkpt lat="51.95457" lon="4.17304">
        <ele>48</ele>
        <time>2020-07-02T15:51:56Z</time>
      </trkpt>
      <trkpt lat="51.95466" lon="4.1728">
        <ele>46</ele>
        <time>2020-07-02T15:52:02Z</time>
      </trkpt>
      <trkpt lat="51.95472" lon="4.17262">
        <ele>46</ele>
        <time>2020-07-02T15:52:07Z</time>
      </trkpt>
      <trkpt lat="51.95478" lon="4.17233">
        <ele>44</ele>
        <time>2020-07-02T15:52:13Z</time>
      </trkpt>
      <trkpt lat="51.95492" lon="4.17208">
        <ele>42</ele>
        <time>2020-07-02T15:52:18Z</time>
      </trkpt>
      <trkpt lat="51.95505" lon="4.17185">
        <ele>45</ele>
        <time>2020-07-02T15:52:23Z</time>
      </trkpt>
      <trkpt lat="51.95521" lon="4.17161">
        <ele>44</ele>
        <time>2020-07-02T15:52:29Z</time>
      </trkpt>
      <trkpt lat="51.95532" lon="4.1714">
        <ele>46</ele>
        <time>2020-07-02T15:52:34Z</time>
      </trkpt>
      <trkpt lat="51.95547" lon="4.17115">
        <ele>44</ele>
        <time>2020-07-02T15:52:40Z</time>
      </trkpt>
      <trkpt lat="51.95561" lon="4.17092">
        <ele>41</ele>
        <time>2020-07-02T15:52:45Z</time>
      </trkpt>
      <trkpt lat="51.95577" lon="4.17066">
        <ele>41</ele>
        <time>2020-07-02T15:52:51Z</time>
      </trkpt>
      <trkpt lat="51.95588" lon="4.17045">
        <ele>42</ele>
        <time>2020-07-02T15:52:56Z</time>
      </trkpt>
      <trkpt lat="51.95602" lon="4.1702">
        <ele>42</ele>
        <time>2020-07-02T15:53:02Z</time>
      </trkpt>
      <trkpt lat="51.95614" lon="4.17001">
        <ele>41</ele>
        <time>2020-07-02T15:53:07Z</time>
      </trkpt>
      <trkpt lat="51.95626" lon="4.1698">
        <ele>44</ele>
        <time>2020-07-02T15:53:12Z</time>
      </trkpt>
      <trkpt lat="51.9564" lon="4.16954">
        <ele>45</ele>
        <time>2020-07-02T15:53:18Z</time>
      </trkpt>
      <trkpt lat="51.95652" lon="4.16932">
        <ele>45</ele>
        <time>2020-07-02T15:53:23Z</time>
      </trkpt>
      <trkpt lat="51.95664" lon="4.16912">
        <ele>45</ele>
        <time>2020-07-02T15:53:28Z</time>
      </trkpt>
      <trkpt lat="51.95678" lon="4.16887">
        <ele>46</ele>
        <time>2020-07-02T15:53:34Z</time>
      </trkpt>
      <trkpt lat="51.9569" lon="4.16867">
        <ele>45</ele>
        <time>2020-07-02T15:53:39Z</time>
      </trkpt>
      <trkpt lat="51.95705" lon="4.16842">
        <ele>45</ele>
        <time>2020-07-02T15:53:45Z</time>
      </trkpt>
      <trkpt lat="51.95719" lon="4.16817">
        <ele>46</ele>
        <time>2020-07-02T15:53:51Z</time>
      </trkpt>
      <trkpt lat="51.95731" lon="4.16796">
        <ele>47</ele>
        <time>2020-07-02T15:53:56Z</time>
      </trkpt>
      <trkpt lat="51.95745" lon="4.16771">
        <ele>47</ele>
        <time>2020-07-02T15:54:02Z</time>
      </trkpt>
      <trkpt lat="51.95759" lon="4.16746">
        <ele>47</ele>
        <time>2020-07-02T15:54:08Z</time>
      </trkpt>
      <trkpt lat="51.95773" lon="4.16722">
        <ele>47</ele>
        <time>2020-07-02T15:54:14Z</time>
      </trkpt>
      <trkpt lat="51.95783" lon="4.16702">
        <ele>48</ele>
        <time>2020-07-02T15:54:19Z</time>
      </trkpt>
      <trkpt lat="51.95796" lon="4.16679">
        <ele>47</ele>
        <time>2020-07-02T15:54:25Z</time>
      </trkpt>
      <trkpt lat="51.95804" lon="4.16657">
        <ele>47</ele>
        <time>2020-07-02T15:54:30Z</time>
      </trkpt>
      <trkpt lat="51.95811" lon="4.16634">
        <ele>48</ele>
        <time>2020-07-02T15:54:36Z</time>
      </trkpt>
      <trkpt lat="51.95817" lon="4.16614">
        <ele>49</ele>
        <time>2020-07-02T15:54:42Z</time>
      </trkpt>
      <trkpt lat="51.95822" lon="4.16598">
        <ele>50</ele>
        <time>2020-07-02T15:54:47Z</time>
      </trkpt>
      <trkpt lat="51.95828" lon="4.16579">
        <ele>51</ele>
        <time>2020-07-02T15:54:53Z</time>
      </trkpt>
      <trkpt lat="51.95834" lon="4.16559">
        <ele>51</ele>
        <time>2020-07-02T15:54:59Z</time>
      </trkpt>
      <trkpt lat="51.9584" lon="4.16539">
        <ele>51</ele>
        <time>2020-07-02T15:55:05Z</time>
      </trkpt>
      <trkpt lat="51.95844" lon="4.16516">
        <ele>50</ele>
        <time>2020-07-02T15:55:11Z</time>
      </trkpt>
      <trkpt lat="51.95845" lon="4.16497">
        <ele>51</ele>
        <time>2020-07-02T15:55:16Z</time>
      </trkpt>
      <trkpt lat="51.95845" lon="4.16474">
        <ele>50</ele>
        <time>2020-07-02T15:55:21Z</time>
      </trkpt>
      <trkpt lat="51.95845" lon="4.16438">
        <ele>48</ele>
        <time>2020-07-02T15:55:27Z</time>
      </trkpt>
      <trkpt lat="51.95844" lon="4.16407">
        <ele>48</ele>
        <time>2020-07-02T15:55:32Z</time>
      </trkpt>
      <trkpt lat="51.95847" lon="4.16365">
        <ele>48</ele>
        <time>2020-07-02T15:55:38Z</time>
      </trkpt>
      <trkpt lat="51.95847" lon="4.16329">
        <ele>47</ele>
        <time>2020-07-02T15:55:43Z</time>
      </trkpt>
      <trkpt lat="51.95862" lon="4.16285">
        <ele>47</ele>
        <time>2020-07-02T15:55:49Z</time>
      </trkpt>
      <trkpt lat="51.95877" lon="4.16257">
        <ele>47</ele>
        <time>2020-07-02T15:55:55Z</time>
      </trkpt>
      <trkpt lat="51.95889" lon="4.16235">
        <ele>47</ele>
        <time>2020-07-02T15:56:01Z</time>
      </trkpt>
      <trkpt lat="51.959" lon="4.16213">
        <ele>46</ele>
        <time>2020-07-02T15:56:07Z</time>
      </trkpt>
      <trkpt lat="51.95913" lon="4.16191">
        <ele>46</ele>
        <time>2020-07-02T15:56:13Z</time>
      </trkpt>
      <trkpt lat="51.95926" lon="4.16168">
        <ele>46</ele>
        <time>2020-07-02T15:56:19Z</time>
      </trkpt>
      <trkpt lat="51.95938" lon="4.16145">
        <ele>47</ele>
        <time>2020-07-02T15:56:25Z</time>
      </trkpt>
      <trkpt lat="51.9595" lon="4.16123">
        <ele>47</ele>
        <time>2020-07-02T15:56:31Z</time>
      </trkpt>
      <trkpt lat="51.95963" lon="4.16099">
        <ele>46</ele>
        <time>2020-07-02T15:56:37Z</time>
      </trkpt>
      <trkpt lat="51.95974" lon="4.16078">
        <ele>46</ele>
        <time>2020-07-02T15:56:42Z</time>
      </trkpt>
      <trkpt lat="51.95984" lon="4.16059">
        <ele>44</ele>
        <time>2020-07-02T15:56:47Z</time>
      </trkpt>
      <trkpt lat="51.95996" lon="4.16034">
        <ele>44</ele>
        <time>2020-07-02T15:56:53Z</time>
      </trkpt>
      <trkpt lat="51.96009" lon="4.1601">
        <ele>45</ele>
        <time>2020-07-02T15:56:59Z</time>
      </trkpt>
      <trkpt lat="51.96019" lon="4.1599">
        <ele>45</ele>
        <time>2020-07-02T15:57:04Z</time>
      </trkpt>
      <trkpt lat="51.96029" lon="4.15971">
        <ele>45</ele>
        <time>2020-07-02T15:57:09Z</time>
      </trkpt>
      <trkpt lat="51.96039" lon="4.15952">
        <ele>45</ele>
        <time>2020-07-02T15:57:14Z</time>
      </trkpt>
      <trkpt lat="51.96051" lon="4.15928">
        <ele>45</ele>
        <time>2020-07-02T15:57:20Z</time>
      </trkpt>
      <trkpt lat="51.96061" lon="4.15908">
        <ele>45</ele>
        <time>2020-07-02T15:57:25Z</time>
      </trkpt>
      <trkpt lat="51.96074" lon="4.15884">
        <ele>45</ele>
        <time>2020-07-02T15:57:31Z</time>
      </trkpt>
      <trkpt lat="51.96084" lon="4.15866">
        <ele>46</ele>
        <time>2020-07-02T15:57:36Z</time>
      </trkpt>
      <trkpt lat="51.96095" lon="4.15845">
        <ele>47</ele>
        <time>2020-07-02T15:57:42Z</time>
      </trkpt>
      <trkpt lat="51.96107" lon="4.15822">
        <ele>47</ele>
        <time>2020-07-02T15:57:48Z</time>
      </trkpt>
      <trkpt lat="51.96118" lon="4.15802">
        <ele>47</ele>
        <time>2020-07-02T15:57:53Z</time>
      </trkpt>
      <trkpt lat="51.9613" lon="4.15779">
        <ele>46</ele>
        <time>2020-07-02T15:57:59Z</time>
      </trkpt>
      <trkpt lat="51.96142" lon="4.15756">
        <ele>46</ele>
        <time>2020-07-02T15:58:05Z</time>
      </trkpt>
      <trkpt lat="51.96152" lon="4.15736">
        <ele>46</ele>
        <time>2020-07-02T15:58:10Z</time>
      </trkpt>
      <trkpt lat="51.96163" lon="4.15716">
        <ele>46</ele>
        <time>2020-07-02T15:58:15Z</time>
      </trkpt>
      <trkpt lat="51.96175" lon="4.15696">
        <ele>47</ele>
        <time>2020-07-02T15:58:21Z</time>
      </trkpt>
      <trkpt lat="51.96185" lon="4.15677">
        <ele>50</ele>
        <time>2020-07-02T15:58:26Z</time>
      </trkpt>
      <trkpt lat="51.96196" lon="4.15656">
        <ele>49</ele>
        <time>2020-07-02T15:58:32Z</time>
      </trkpt>
      <trkpt lat="51.96207" lon="4.15635">
        <ele>48</ele>
        <time>2020-07-02T15:58:38Z</time>
      </trkpt>
      <trkpt lat="51.96218" lon="4.15611">
        <ele>49</ele>
        <time>2020-07-02T15:58:44Z</time>
      </trkpt>
      <trkpt lat="51.96228" lon="4.15593">
        <ele>49</ele>
        <time>2020-07-02T15:58:49Z</time>
      </trkpt>
      <trkpt lat="51.96237" lon="4.15574">
        <ele>48</ele>
        <time>2020-07-02T15:58:54Z</time>
      </trkpt>
      <trkpt lat="51.96248" lon="4.15553">
        <ele>48</ele>
        <time>2020-07-02T15:59:00Z</time>
      </trkpt>
      <trkpt lat="51.96258" lon="4.15531">
        <ele>48</ele>
        <time>2020-07-02T15:59:06Z</time>
      </trkpt>
      <trkpt lat="51.9627" lon="4.1551">
        <ele>48</ele>
        <time>2020-07-02T15:59:12Z</time>
      </trkpt>
      <trkpt lat="51.9628" lon="4.15492">
        <ele>48</ele>
        <time>2020-07-02T15:59:17Z</time>
      </trkpt>
      <trkpt lat="51.96292" lon="4.15471">
        <ele>48</ele>
        <time>2020-07-02T15:59:23Z</time>
      </trkpt>
      <trkpt lat="51.96301" lon="4.15453">
        <ele>49</ele>
        <time>2020-07-02T15:59:28Z</time>
      </trkpt>
      <trkpt lat="51.96311" lon="4.15437">
        <ele>49</ele>
        <time>2020-07-02T15:59:33Z</time>
      </trkpt>
      <trkpt lat="51.96321" lon="4.15418">
        <ele>52</ele>
        <time>2020-07-02T15:59:39Z</time>
      </trkpt>
      <trkpt lat="51.96329" lon="4.15403">
        <ele>53</ele>
        <time>2020-07-02T15:59:44Z</time>
      </trkpt>
      <trkpt lat="51.96339" lon="4.15385">
        <ele>52</ele>
        <time>2020-07-02T15:59:50Z</time>
      </trkpt>
      <trkpt lat="51.96348" lon="4.1537">
        <ele>52</ele>
        <time>2020-07-02T15:59:55Z</time>
      </trkpt>
      <trkpt lat="51.96358" lon="4.15352">
        <ele>51</ele>
        <time>2020-07-02T16:00:01Z</time>
      </trkpt>
      <trkpt lat="51.96365" lon="4.15337">
        <ele>52</ele>
        <time>2020-07-02T16:00:06Z</time>
      </trkpt>
      <trkpt lat="51.96374" lon="4.15317">
        <ele>50</ele>
        <time>2020-07-02T16:00:12Z</time>
      </trkpt>
      <trkpt lat="51.96382" lon="4.153">
        <ele>50</ele>
        <time>2020-07-02T16:00:17Z</time>
      </trkpt>
      <trkpt lat="51.96393" lon="4.15279">
        <ele>49</ele>
        <time>2020-07-02T16:00:23Z</time>
      </trkpt>
      <trkpt lat="51.96404" lon="4.15258">
        <ele>49</ele>
        <time>2020-07-02T16:00:29Z</time>
      </trkpt>
      <trkpt lat="51.96416" lon="4.15235">
        <ele>50</ele>
        <time>2020-07-02T16:00:35Z</time>
      </trkpt>
      <trkpt lat="51.96428" lon="4.15212">
        <ele>49</ele>
        <time>2020-07-02T16:00:41Z</time>
      </trkpt>
      <trkpt lat="51.9644" lon="4.15188">
        <ele>49</ele>
        <time>2020-07-02T16:00:47Z</time>
      </trkpt>
      <trkpt lat="51.96452" lon="4.15165">
        <ele>48</ele>
        <time>2020-07-02T16:00:53Z</time>
      </trkpt>
      <trkpt lat="51.96461" lon="4.15147">
        <ele>48</ele>
        <time>2020-07-02T16:00:58Z</time>
      </trkpt>
      <trkpt lat="51.96472" lon="4.15125">
        <ele>48</ele>
        <time>2020-07-02T16:01:04Z</time>
      </trkpt>
      <trkpt lat="51.96484" lon="4.15103">
        <ele>48</ele>
        <time>2020-07-02T16:01:10Z</time>
      </trkpt>
      <trkpt lat="51.96494" lon="4.15085">
        <ele>48</ele>
        <time>2020-07-02T16:01:15Z</time>
      </trkpt>
      <trkpt lat="51.96505" lon="4.15062">
        <ele>47</ele>
        <time>2020-07-02T16:01:21Z</time>
      </trkpt>
      <trkpt lat="51.96517" lon="4.1504">
        <ele>48</ele>
        <time>2020-07-02T16:01:27Z</time>
      </trkpt>
      <trkpt lat="51.96528" lon="4.1502">
        <ele>49</ele>
        <time>2020-07-02T16:01:33Z</time>
      </trkpt>
      <trkpt lat="51.96537" lon="4.15002">
        <ele>49</ele>
        <time>2020-07-02T16:01:38Z</time>
      </trkpt>
      <trkpt lat="51.96547" lon="4.14983">
        <ele>48</ele>
        <time>2020-07-02T16:01:43Z</time>
      </trkpt>
      <trkpt lat="51.96559" lon="4.1496">
        <ele>48</ele>
        <time>2020-07-02T16:01:49Z</time>
      </trkpt>
      <trkpt lat="51.96573" lon="4.14952">
        <ele>50</ele>
        <time>2020-07-02T16:01:54Z</time>
      </trkpt>
      <trkpt lat="51.96589" lon="4.14965">
        <ele>50</ele>
        <time>2020-07-02T16:02:00Z</time>
      </trkpt>
      <trkpt lat="51.96604" lon="4.14989">
        <ele>51</ele>
        <time>2020-07-02T16:02:06Z</time>
      </trkpt>
      <trkpt lat="51.96618" lon="4.15009">
        <ele>52</ele>
        <time>2020-07-02T16:02:11Z</time>
      </trkpt>
      <trkpt lat="51.96638" lon="4.15026">
        <ele>52</ele>
        <time>2020-07-02T16:02:17Z</time>
      </trkpt>
      <trkpt lat="51.96657" lon="4.15038">
        <ele>51</ele>
        <time>2020-07-02T16:02:23Z</time>
      </trkpt>
      <trkpt lat="51.96668" lon="4.15014">
        <ele>51</ele>
        <time>2020-07-02T16:02:29Z</time>
      </trkpt>
      <trkpt lat="51.96676" lon="4.14989">
        <ele>51</ele>
        <time>2020-07-02T16:02:34Z</time>
      </trkpt>
      <trkpt lat="51.96687" lon="4.14961">
        <ele>51</ele>
        <time>2020-07-02T16:02:40Z</time>
      </trkpt>
      <trkpt lat="51.96696" lon="4.14939">
        <ele>50</ele>
        <time>2020-07-02T16:02:45Z</time>
      </trkpt>
      <trkpt lat="51.96706" lon="4.14917">
        <ele>50</ele>
        <time>2020-07-02T16:02:50Z</time>
      </trkpt>
      <trkpt lat="51.96716" lon="4.14891">
        <ele>50</ele>
        <time>2020-07-02T16:02:56Z</time>
      </trkpt>
      <trkpt lat="51.96724" lon="4.14871">
        <ele>50</ele>
        <time>2020-07-02T16:03:01Z</time>
      </trkpt>
      <trkpt lat="51.96733" lon="4.14846">
        <ele>49</ele>
        <time>2020-07-02T16:03:07Z</time>
      </trkpt>
      <trkpt lat="51.96742" lon="4.14824">
        <ele>49</ele>
        <time>2020-07-02T16:03:12Z</time>
      </trkpt>
      <trkpt lat="51.96753" lon="4.148">
        <ele>50</ele>
        <time>2020-07-02T16:03:18Z</time>
      </trkpt>
      <trkpt lat="51.96766" lon="4.14804">
        <ele>51</ele>
        <time>2020-07-02T16:03:23Z</time>
      </trkpt>
      <trkpt lat="51.96775" lon="4.1483">
        <ele>51</ele>
        <time>2020-07-02T16:03:29Z</time>
      </trkpt>
      <trkpt lat="51.96787" lon="4.14829">
        <ele>52</ele>
        <time>2020-07-02T16:03:35Z</time>
      </trkpt>
      <trkpt lat="51.96798" lon="4.14805">
        <ele>52</ele>
        <time>2020-07-02T16:03:41Z</time>
      </trkpt>
      <trkpt lat="51.96812" lon="4.14798">
        <ele>52</ele>
        <time>2020-07-02T16:03:46Z</time>
      </trkpt>
      <trkpt lat="51.96829" lon="4.14809">
        <ele>50</ele>
        <time>2020-07-02T16:03:52Z</time>
      </trkpt>
      <trkpt lat="51.96845" lon="4.14819">
        <ele>54</ele>
        <time>2020-07-02T16:03:58Z</time>
      </trkpt>
      <trkpt lat="51.96854" lon="4.14815">
        <ele>55</ele>
        <time>2020-07-02T16:04:04Z</time>
      </trkpt>
      <trkpt lat="51.96866" lon="4.1481">
        <ele>54</ele>
        <time>2020-07-02T16:04:10Z</time>
      </trkpt>
      <trkpt lat="51.96877" lon="4.14808">
        <ele>54</ele>
        <time>2020-07-02T16:04:15Z</time>
      </trkpt>
      <trkpt lat="51.96891" lon="4.14811">
        <ele>53</ele>
        <time>2020-07-02T16:04:20Z</time>
      </trkpt>
      <trkpt lat="51.96913" lon="4.14832">
        <ele>52</ele>
        <time>2020-07-02T16:04:26Z</time>
      </trkpt>
      <trkpt lat="51.96937" lon="4.14863">
        <ele>51</ele>
        <time>2020-07-02T16:04:31Z</time>
      </trkpt>
      <trkpt lat="51.96964" lon="4.14907">
        <ele>51</ele>
        <time>2020-07-02T16:04:37Z</time>
      </trkpt>
      <trkpt lat="51.96991" lon="4.14946">
        <ele>51</ele>
        <time>2020-07-02T16:04:42Z</time>
      </trkpt>
      <trkpt lat="51.97021" lon="4.14991">
        <ele>50</ele>
        <time>2020-07-02T16:04:48Z</time>
      </trkpt>
      <trkpt lat="51.97049" lon="4.15036">
        <ele>49</ele>
        <time>2020-07-02T16:04:54Z</time>
      </trkpt>
      <trkpt lat="51.97067" lon="4.15071">
        <ele>49</ele>
        <time>2020-07-02T16:04:59Z</time>
      </trkpt>
      <trkpt lat="51.97088" lon="4.15106">
        <ele>46</ele>
        <time>2020-07-02T16:05:05Z</time>
      </trkpt>
      <trkpt lat="51.97104" lon="4.15138">
        <ele>46</ele>
        <time>2020-07-02T16:05:11Z</time>
      </trkpt>
      <trkpt lat="51.9712" lon="4.15165">
        <ele>48</ele>
        <time>2020-07-02T16:05:17Z</time>
      </trkpt>
      <trkpt lat="51.97136" lon="4.15194">
        <ele>47</ele>
        <time>2020-07-02T16:05:23Z</time>
      </trkpt>
      <trkpt lat="51.9715" lon="4.15219">
        <ele>48</ele>
        <time>2020-07-02T16:05:29Z</time>
      </trkpt>
      <trkpt lat="51.9716" lon="4.15237">
        <ele>49</ele>
        <time>2020-07-02T16:05:34Z</time>
      </trkpt>
      <trkpt lat="51.97171" lon="4.15257">
        <ele>49</ele>
        <time>2020-07-02T16:05:39Z</time>
      </trkpt>
      <trkpt lat="51.97187" lon="4.15282">
        <ele>50</ele>
        <time>2020-07-02T16:05:45Z</time>
      </trkpt>
      <trkpt lat="51.97203" lon="4.15302">
        <ele>49</ele>
        <time>2020-07-02T16:05:51Z</time>
      </trkpt>
      <trkpt lat="51.97218" lon="4.15317">
        <ele>49</ele>
        <time>2020-07-02T16:05:56Z</time>
      </trkpt>
      <trkpt lat="51.97222" lon="4.1533">
        <ele>48</ele>
        <time>2020-07-02T16:06:02Z</time>
      </trkpt>
      <trkpt lat="51.9722" lon="4.1535">
        <ele>45</ele>
        <time>2020-07-02T16:06:08Z</time>
      </trkpt>
      <trkpt lat="51.97237" lon="4.15362">
        <ele>47</ele>
        <time>2020-07-02T16:06:14Z</time>
      </trkpt>
      <trkpt lat="51.97254" lon="4.1537">
        <ele>48</ele>
        <time>2020-07-02T16:06:19Z</time>
      </trkpt>
      <trkpt lat="51.97273" lon="4.15375">
        <ele>46</ele>
        <time>2020-07-02T16:06:24Z</time>
      </trkpt>
      <trkpt lat="51.97295" lon="4.15381">
        <ele>44</ele>
        <time>2020-07-02T16:06:30Z</time>
      </trkpt>
      <trkpt lat="51.97313" lon="4.15386">
        <ele>45</ele>
        <time>2020-07-02T16:06:35Z</time>
      </trkpt>
      <trkpt lat="51.97332" lon="4.15391">
        <ele>44</ele>
        <time>2020-07-02T16:06:40Z</time>
      </trkpt>
      <trkpt lat="51.97355" lon="4.15396">
        <ele>41</ele>
        <time>2020-07-02T16:06:46Z</time>
      </trkpt>
      <trkpt lat="51.97373" lon="4.15401">
        <ele>41</ele>
        <time>2020-07-02T16:06:51Z</time>
      </trkpt>
      <trkpt lat="51.97393" lon="4.15407">
        <ele>44</ele>
        <time>2020-07-02T16:06:56Z</time>
      </trkpt>
      <trkpt lat="51.97412" lon="4.15413">
        <ele>44</ele>
        <time>2020-07-02T16:07:02Z</time>
      </trkpt>
      <trkpt lat="51.97436" lon="4.15421">
        <ele>44</ele>
        <time>2020-07-02T16:07:07Z</time>
      </trkpt>
      <trkpt lat="51.9746" lon="4.15429">
        <ele>44</ele>
        <time>2020-07-02T16:07:13Z</time>
      </trkpt>
      <trkpt lat="51.97483" lon="4.15436">
        <ele>44</ele>
        <time>2020-07-02T16:07:19Z</time>
      </trkpt>
      <trkpt lat="51.97502" lon="4.15441">
        <ele>44</ele>
        <time>2020-07-02T16:07:25Z</time>
      </trkpt>
      <trkpt lat="51.97515" lon="4.15443">
        <ele>44</ele>
        <time>2020-07-02T16:07:30Z</time>
      </trkpt>
      <trkpt lat="51.9752" lon="4.15445">
        <ele>49</ele>
        <time>2020-07-02T16:12:28Z</time>
      </trkpt>
      <trkpt lat="51.97529" lon="4.1545">
        <ele>49</ele>
        <time>2020-07-02T16:12:33Z</time>
      </trkpt>
      <trkpt lat="51.97547" lon="4.15454">
        <ele>49</ele>
        <time>2020-07-02T16:12:39Z</time>
      </trkpt>
      <trkpt lat="51.97568" lon="4.1546">
        <ele>50</ele>
        <time>2020-07-02T16:12:45Z</time>
      </trkpt>
      <trkpt lat="51.9759" lon="4.15466">
        <ele>51</ele>
        <time>2020-07-02T16:12:51Z</time>
      </trkpt>
      <trkpt lat="51.97608" lon="4.15469">
        <ele>52</ele>
        <time>2020-07-02T16:12:56Z</time>
      </trkpt>
      <trkpt lat="51.97631" lon="4.15476">
        <ele>51</ele>
        <time>2020-07-02T16:13:02Z</time>
      </trkpt>
      <trkpt lat="51.97648" lon="4.15483">
        <ele>47</ele>
        <time>2020-07-02T16:13:07Z</time>
      </trkpt>
      <trkpt lat="51.9767" lon="4.1549">
        <ele>46</ele>
        <time>2020-07-02T16:13:13Z</time>
      </trkpt>
      <trkpt lat="51.97691" lon="4.15495">
        <ele>49</ele>
        <time>2020-07-02T16:13:19Z</time>
      </trkpt>
      <trkpt lat="51.9771" lon="4.15498">
        <ele>47</ele>
        <time>2020-07-02T16:13:24Z</time>
      </trkpt>
      <trkpt lat="51.97735" lon="4.15502">
        <ele>51</ele>
        <time>2020-07-02T16:13:30Z</time>
      </trkpt>
      <trkpt lat="51.97753" lon="4.15504">
        <ele>51</ele>
        <time>2020-07-02T16:13:35Z</time>
      </trkpt>
      <trkpt lat="51.97776" lon="4.15503">
        <ele>52</ele>
        <time>2020-07-02T16:13:41Z</time>
      </trkpt>
      <trkpt lat="51.97797" lon="4.15501">
        <ele>49</ele>
        <time>2020-07-02T16:13:47Z</time>
      </trkpt>
      <trkpt lat="51.97815" lon="4.15499">
        <ele>50</ele>
        <time>2020-07-02T16:13:52Z</time>
      </trkpt>
      <trkpt lat="51.97838" lon="4.155">
        <ele>51</ele>
        <time>2020-07-02T16:13:58Z</time>
      </trkpt>
      <trkpt lat="51.9786" lon="4.15502">
        <ele>49</ele>
        <time>2020-07-02T16:14:04Z</time>
      </trkpt>
      <trkpt lat="51.97879" lon="4.15506">
        <ele>47</ele>
        <time>2020-07-02T16:14:09Z</time>
      </trkpt>
      <trkpt lat="51.97901" lon="4.15511">
        <ele>46</ele>
        <time>2020-07-02T16:14:15Z</time>
      </trkpt>
      <trkpt lat="51.9792" lon="4.15515">
        <ele>47</ele>
        <time>2020-07-02T16:14:20Z</time>
      </trkpt>
      <trkpt lat="51.97942" lon="4.1552">
        <ele>48</ele>
        <time>2020-07-02T16:14:26Z</time>
      </trkpt>
      <trkpt lat="51.97954" lon="4.15542">
        <ele>48</ele>
        <time>2020-07-02T16:14:31Z</time>
      </trkpt>
      <trkpt lat="51.97954" lon="4.15581">
        <ele>49</ele>
        <time>2020-07-02T16:14:37Z</time>
      </trkpt>
      <trkpt lat="51.97955" lon="4.15611">
        <ele>50</ele>
        <time>2020-07-02T16:14:42Z</time>
      </trkpt>
      <trkpt lat="51.97957" lon="4.15646">
        <ele>51</ele>
        <time>2020-07-02T16:14:48Z</time>
      </trkpt>
      <trkpt lat="51.9796" lon="4.15684">
        <ele>50</ele>
        <time>2020-07-02T16:14:54Z</time>
      </trkpt>
      <trkpt lat="51.97965" lon="4.15721">
        <ele>52</ele>
        <time>2020-07-02T16:15:00Z</time>
      </trkpt>
      <trkpt lat="51.97968" lon="4.15752">
        <ele>55</ele>
        <time>2020-07-02T16:15:05Z</time>
      </trkpt>
      <trkpt lat="51.97973" lon="4.15783">
        <ele>56</ele>
        <time>2020-07-02T16:15:10Z</time>
      </trkpt>
      <trkpt lat="51.97974" lon="4.15821">
        <ele>54</ele>
        <time>2020-07-02T16:15:16Z</time>
      </trkpt>
      <trkpt lat="51.97973" lon="4.15854">
        <ele>53</ele>
        <time>2020-07-02T16:15:21Z</time>
      </trkpt>
      <trkpt lat="51.97975" lon="4.15893">
        <ele>57</ele>
        <time>2020-07-02T16:15:27Z</time>
      </trkpt>
      <trkpt lat="51.9798" lon="4.15932">
        <ele>59</ele>
        <time>2020-07-02T16:15:33Z</time>
      </trkpt>
      <trkpt lat="51.97977" lon="4.15967">
        <ele>58</ele>
        <time>2020-07-02T16:15:38Z</time>
      </trkpt>
      <trkpt lat="51.97969" lon="4.15999">
        <ele>53</ele>
        <time>2020-07-02T16:15:43Z</time>
      </trkpt>
      <trkpt lat="51.97971" lon="4.16038">
        <ele>53</ele>
        <time>2020-07-02T16:15:49Z</time>
      </trkpt>
      <trkpt lat="51.97991" lon="4.16071">
        <ele>51</ele>
        <time>2020-07-02T16:15:55Z</time>
      </trkpt>
      <trkpt lat="51.98013" lon="4.16094">
        <ele>49</ele>
        <time>2020-07-02T16:16:00Z</time>
      </trkpt>
      <trkpt lat="51.98032" lon="4.16111">
        <ele>47</ele>
        <time>2020-07-02T16:16:05Z</time>
      </trkpt>
      <trkpt lat="51.98054" lon="4.16129">
        <ele>48</ele>
        <time>2020-07-02T16:16:11Z</time>
      </trkpt>
      <trkpt lat="51.98072" lon="4.16142">
        <ele>47</ele>
        <time>2020-07-02T16:16:16Z</time>
      </trkpt>
      <trkpt lat="51.98093" lon="4.1616">
        <ele>45</ele>
        <time>2020-07-02T16:16:22Z</time>
      </trkpt>
      <trkpt lat="51.9811" lon="4.1617">
        <ele>46</ele>
        <time>2020-07-02T16:16:27Z</time>
      </trkpt>
      <trkpt lat="51.98123" lon="4.16177">
        <ele>44</ele>
        <time>2020-07-02T16:16:33Z</time>
      </trkpt>
      <trkpt lat="51.98127" lon="4.16168">
        <ele>46</ele>
        <time>2020-07-02T16:16:38Z</time>
      </trkpt>
      <trkpt lat="51.98132" lon="4.16147">
        <ele>42</ele>
        <time>2020-07-02T16:16:43Z</time>
      </trkpt>
      <trkpt lat="51.9814" lon="4.16123">
        <ele>43</ele>
        <time>2020-07-02T16:16:48Z</time>
      </trkpt>
      <trkpt lat="51.98152" lon="4.16096">
        <ele>43</ele>
        <time>2020-07-02T16:16:54Z</time>
      </trkpt>
      <trkpt lat="51.98159" lon="4.16071">
        <ele>42</ele>
        <time>2020-07-02T16:16:59Z</time>
      </trkpt>
      <trkpt lat="51.98167" lon="4.16043">
        <ele>45</ele>
        <time>2020-07-02T16:17:05Z</time>
      </trkpt>
      <trkpt lat="51.98175" lon="4.16018">
        <ele>42</ele>
        <time>2020-07-02T16:17:10Z</time>
      </trkpt>
      <trkpt lat="51.98183" lon="4.1599">
        <ele>46</ele>
        <time>2020-07-02T16:17:16Z</time>
      </trkpt>
      <trkpt lat="51.9819" lon="4.15969">
        <ele>43</ele>
        <time>2020-07-02T16:17:21Z</time>
      </trkpt>
      <trkpt lat="51.98195" lon="4.15944">
        <ele>43</ele>
        <time>2020-07-02T16:17:27Z</time>
      </trkpt>
      <trkpt lat="51.98204" lon="4.1592">
        <ele>44</ele>
        <time>2020-07-02T16:17:33Z</time>
      </trkpt>
      <trkpt lat="51.98208" lon="4.159">
        <ele>46</ele>
        <time>2020-07-02T16:17:38Z</time>
      </trkpt>
      <trkpt lat="51.98216" lon="4.15877">
        <ele>47</ele>
        <time>2020-07-02T16:17:43Z</time>
      </trkpt>
      <trkpt lat="51.98223" lon="4.15856">
        <ele>50</ele>
        <time>2020-07-02T16:17:48Z</time>
      </trkpt>
      <trkpt lat="51.98233" lon="4.15831">
        <ele>48</ele>
        <time>2020-07-02T16:17:54Z</time>
      </trkpt>
      <trkpt lat="51.98239" lon="4.15805">
        <ele>50</ele>
        <time>2020-07-02T16:18:00Z</time>
      </trkpt>
      <trkpt lat="51.98246" lon="4.15782">
        <ele>49</ele>
        <time>2020-07-02T16:18:05Z</time>
      </trkpt>
      <trkpt lat="51.98256" lon="4.15752">
        <ele>48</ele>
        <time>2020-07-02T16:18:11Z</time>
      </trkpt>
      <trkpt lat="51.98264" lon="4.15731">
        <ele>49</ele>
        <time>2020-07-02T16:18:16Z</time>
      </trkpt>
      <trkpt lat="51.98273" lon="4.15701">
        <ele>50</ele>
        <time>2020-07-02T16:18:22Z</time>
      </trkpt>
      <trkpt lat="51.98282" lon="4.15671">
        <ele>50</ele>
        <time>2020-07-02T16:18:28Z</time>
      </trkpt>
      <trkpt lat="51.9829" lon="4.15644">
        <ele>54</ele>
        <time>2020-07-02T16:18:34Z</time>
      </trkpt>
      <trkpt lat="51.98296" lon="4.15623">
        <ele>55</ele>
        <time>2020-07-02T16:18:39Z</time>
      </trkpt>
      <trkpt lat="51.98302" lon="4.15602">
        <ele>54</ele>
        <time>2020-07-02T16:18:44Z</time>
      </trkpt>
      <trkpt lat="51.98312" lon="4.15575">
        <ele>56</ele>
        <time>2020-07-02T16:18:50Z</time>
      </trkpt>
      <trkpt lat="51.98317" lon="4.15552">
        <ele>55</ele>
        <time>2020-07-02T16:18:55Z</time>
      </trkpt>
      <trkpt lat="51.98327" lon="4.1553">
        <ele>52</ele>
        <time>2020-07-02T16:19:01Z</time>
      </trkpt>
      <trkpt lat="51.98342" lon="4.15531">
        <ele>54</ele>
        <time>2020-07-02T16:19:06Z</time>
      </trkpt>
      <trkpt lat="51.9836" lon="4.15546">
        <ele>51</ele>
        <time>2020-07-02T16:19:12Z</time>
      </trkpt>
      <trkpt lat="51.9838" lon="4.15561">
        <ele>54</ele>
        <time>2020-07-02T16:19:18Z</time>
      </trkpt>
      <trkpt lat="51.984" lon="4.15579">
        <ele>53</ele>
        <time>2020-07-02T16:19:24Z</time>
      </trkpt>
      <trkpt lat="51.98418" lon="4.15592">
        <ele>52</ele>
        <time>2020-07-02T16:19:29Z</time>
      </trkpt>
      <trkpt lat="51.98437" lon="4.15607">
        <ele>50</ele>
        <time>2020-07-02T16:19:35Z</time>
      </trkpt>
      <trkpt lat="51.98456" lon="4.15625">
        <ele>50</ele>
        <time>2020-07-02T16:19:41Z</time>
      </trkpt>
      <trkpt lat="51.98475" lon="4.1564">
        <ele>45</ele>
        <time>2020-07-02T16:19:46Z</time>
      </trkpt>
      <trkpt lat="51.98495" lon="4.15656">
        <ele>47</ele>
        <time>2020-07-02T16:19:52Z</time>
      </trkpt>
      <trkpt lat="51.98519" lon="4.15672">
        <ele>50</ele>
        <time>2020-07-02T16:19:58Z</time>
      </trkpt>
      <trkpt lat="51.98542" lon="4.15689">
        <ele>50</ele>
        <time>2020-07-02T16:20:04Z</time>
      </trkpt>
      <trkpt lat="51.9856" lon="4.15704">
        <ele>47</ele>
        <time>2020-07-02T16:20:09Z</time>
      </trkpt>
      <trkpt lat="51.98584" lon="4.15723">
        <ele>49</ele>
        <time>2020-07-02T16:20:15Z</time>
      </trkpt>
      <trkpt lat="51.98605" lon="4.1574">
        <ele>51</ele>
        <time>2020-07-02T16:20:21Z</time>
      </trkpt>
      <trkpt lat="51.98626" lon="4.15754">
        <ele>52</ele>
        <time>2020-07-02T16:20:26Z</time>
      </trkpt>
      <trkpt lat="51.98649" lon="4.15773">
        <ele>53</ele>
        <time>2020-07-02T16:20:32Z</time>
      </trkpt>
      <trkpt lat="51.9867" lon="4.1579">
        <ele>51</ele>
        <time>2020-07-02T16:20:38Z</time>
      </trkpt>
      <trkpt lat="51.98694" lon="4.15813">
        <ele>49</ele>
        <time>2020-07-02T16:20:44Z</time>
      </trkpt>
      <trkpt lat="51.98715" lon="4.15829">
        <ele>50</ele>
        <time>2020-07-02T16:20:49Z</time>
      </trkpt>
      <trkpt lat="51.98737" lon="4.15845">
        <ele>51</ele>
        <time>2020-07-02T16:20:55Z</time>
      </trkpt>
      <trkpt lat="51.98762" lon="4.15869">
        <ele>46</ele>
        <time>2020-07-02T16:21:01Z</time>
      </trkpt>
      <trkpt lat="51.98784" lon="4.15885">
        <ele>48</ele>
        <time>2020-07-02T16:21:06Z</time>
      </trkpt>
      <trkpt lat="51.98806" lon="4.15903">
        <ele>48</ele>
        <time>2020-07-02T16:21:12Z</time>
      </trkpt>
      <trkpt lat="51.98823" lon="4.15909">
        <ele>48</ele>
        <time>2020-07-02T16:21:18Z</time>
      </trkpt>
      <trkpt lat="51.9883" lon="4.15888">
        <ele>47</ele>
        <time>2020-07-02T16:21:23Z</time>
      </trkpt>
      <trkpt lat="51.98835" lon="4.15857">
        <ele>48</ele>
        <time>2020-07-02T16:21:29Z</time>
      </trkpt>
      <trkpt lat="51.98842" lon="4.15826">
        <ele>48</ele>
        <time>2020-07-02T16:21:35Z</time>
      </trkpt>
      <trkpt lat="51.98849" lon="4.158">
        <ele>43</ele>
        <time>2020-07-02T16:21:40Z</time>
      </trkpt>
      <trkpt lat="51.98857" lon="4.15772">
        <ele>41</ele>
        <time>2020-07-02T16:21:45Z</time>
      </trkpt>
      <trkpt lat="51.98869" lon="4.15739">
        <ele>43</ele>
        <time>2020-07-02T16:21:51Z</time>
      </trkpt>
      <trkpt lat="51.9888" lon="4.15711">
        <ele>42</ele>
        <time>2020-07-02T16:21:56Z</time>
      </trkpt>
      <trkpt lat="51.98893" lon="4.1568">
        <ele>42</ele>
        <time>2020-07-02T16:22:02Z</time>
      </trkpt>
      <trkpt lat="51.98907" lon="4.1565">
        <ele>42</ele>
        <time>2020-07-02T16:22:08Z</time>
      </trkpt>
      <trkpt lat="51.9892" lon="4.15621">
        <ele>46</ele>
        <time>2020-07-02T16:22:14Z</time>
      </trkpt>
      <trkpt lat="51.98931" lon="4.15596">
        <ele>47</ele>
        <time>2020-07-02T16:22:19Z</time>
      </trkpt>
      <trkpt lat="51.98944" lon="4.15566">
        <ele>47</ele>
        <time>2020-07-02T16:22:25Z</time>
      </trkpt>
      <trkpt lat="51.98954" lon="4.1554">
        <ele>47</ele>
        <time>2020-07-02T16:22:30Z</time>
      </trkpt>
      <trkpt lat="51.98968" lon="4.15511">
        <ele>47</ele>
        <time>2020-07-02T16:22:36Z</time>
      </trkpt>
      <trkpt lat="51.9898" lon="4.15485">
        <ele>45</ele>
        <time>2020-07-02T16:22:41Z</time>
      </trkpt>
      <trkpt lat="51.98992" lon="4.15462">
        <ele>46</ele>
        <time>2020-07-02T16:22:46Z</time>
      </trkpt>
      <trkpt lat="51.99006" lon="4.15434">
        <ele>45</ele>
        <time>2020-07-02T16:22:52Z</time>
      </trkpt>
      <trkpt lat="51.99017" lon="4.15412">
        <ele>44</ele>
        <time>2020-07-02T16:22:57Z</time>
      </trkpt>
      <trkpt lat="51.99029" lon="4.15386">
        <ele>45</ele>
        <time>2020-07-02T16:23:03Z</time>
      </trkpt>
      <trkpt lat="51.99039" lon="4.15365">
        <ele>43</ele>
        <time>2020-07-02T16:23:08Z</time>
      </trkpt>
      <trkpt lat="51.99048" lon="4.15345">
        <ele>42</ele>
        <time>2020-07-02T16:23:13Z</time>
      </trkpt>
      <trkpt lat="51.99057" lon="4.15323">
        <ele>45</ele>
        <time>2020-07-02T16:23:18Z</time>
      </trkpt>
      <trkpt lat="51.99065" lon="4.15299">
        <ele>46</ele>
        <time>2020-07-02T16:23:23Z</time>
      </trkpt>
      <trkpt lat="51.99076" lon="4.15269">
        <ele>44</ele>
        <time>2020-07-02T16:23:29Z</time>
      </trkpt>
      <trkpt lat="51.99087" lon="4.15242">
        <ele>44</ele>
        <time>2020-07-02T16:23:34Z</time>
      </trkpt>
      <trkpt lat="51.991" lon="4.15211">
        <ele>46</ele>
        <time>2020-07-02T16:23:40Z</time>
      </trkpt>
      <trkpt lat="51.9911" lon="4.15186">
        <ele>47</ele>
        <time>2020-07-02T16:23:45Z</time>
      </trkpt>
      <trkpt lat="51.99121" lon="4.15153">
        <ele>46</ele>
        <time>2020-07-02T16:23:51Z</time>
      </trkpt>
      <trkpt lat="51.99132" lon="4.15124">
        <ele>48</ele>
        <time>2020-07-02T16:23:57Z</time>
      </trkpt>
      <trkpt lat="51.99142" lon="4.15097">
        <ele>48</ele>
        <time>2020-07-02T16:24:02Z</time>
      </trkpt>
      <trkpt lat="51.99153" lon="4.15066">
        <ele>48</ele>
        <time>2020-07-02T16:24:08Z</time>
      </trkpt>
      <trkpt lat="51.99161" lon="4.1504">
        <ele>45</ele>
        <time>2020-07-02T16:24:13Z</time>
      </trkpt>
      <trkpt lat="51.99171" lon="4.15013">
        <ele>43</ele>
        <time>2020-07-02T16:24:19Z</time>
      </trkpt>
      <trkpt lat="51.99186" lon="4.15019">
        <ele>42</ele>
        <time>2020-07-02T16:24:24Z</time>
      </trkpt>
      <trkpt lat="51.99208" lon="4.15043">
        <ele>42</ele>
        <time>2020-07-02T16:24:30Z</time>
      </trkpt>
      <trkpt lat="51.99228" lon="4.15069">
        <ele>40</ele>
        <time>2020-07-02T16:24:35Z</time>
      </trkpt>
      <trkpt lat="51.99253" lon="4.15088">
        <ele>43</ele>
        <time>2020-07-02T16:24:41Z</time>
      </trkpt>
      <trkpt lat="51.99272" lon="4.15108">
        <ele>42</ele>
        <time>2020-07-02T16:24:47Z</time>
      </trkpt>
      <trkpt lat="51.99292" lon="4.15131">
        <ele>43</ele>
        <time>2020-07-02T16:24:53Z</time>
      </trkpt>
      <trkpt lat="51.99311" lon="4.15162">
        <ele>44</ele>
        <time>2020-07-02T16:24:59Z</time>
      </trkpt>
      <trkpt lat="51.99326" lon="4.1519">
        <ele>45</ele>
        <time>2020-07-02T16:25:04Z</time>
      </trkpt>
      <trkpt lat="51.99338" lon="4.15218">
        <ele>48</ele>
        <time>2020-07-02T16:25:10Z</time>
      </trkpt>
      <trkpt lat="51.99346" lon="4.15239">
        <ele>49</ele>
        <time>2020-07-02T16:25:15Z</time>
      </trkpt>
      <trkpt lat="51.99358" lon="4.15271">
        <ele>46</ele>
        <time>2020-07-02T16:25:21Z</time>
      </trkpt>
      <trkpt lat="51.99373" lon="4.15309">
        <ele>45</ele>
        <time>2020-07-02T16:25:27Z</time>
      </trkpt>
      <trkpt lat="51.99386" lon="4.15346">
        <ele>46</ele>
        <time>2020-07-02T16:25:33Z</time>
      </trkpt>
      <trkpt lat="51.99396" lon="4.15379">
        <ele>45</ele>
        <time>2020-07-02T16:25:38Z</time>
      </trkpt>
      <trkpt lat="51.9941" lon="4.15413">
        <ele>43</ele>
        <time>2020-07-02T16:25:43Z</time>
      </trkpt>
      <trkpt lat="51.99423" lon="4.15452">
        <ele>44</ele>
        <time>2020-07-02T16:25:49Z</time>
      </trkpt>
      <trkpt lat="51.99435" lon="4.15487">
        <ele>45</ele>
        <time>2020-07-02T16:25:54Z</time>
      </trkpt>
      <trkpt lat="51.9945" lon="4.15527">
        <ele>46</ele>
        <time>2020-07-02T16:26:00Z</time>
      </trkpt>
      <trkpt lat="51.99467" lon="4.15568">
        <ele>43</ele>
        <time>2020-07-02T16:26:06Z</time>
      </trkpt>
      <trkpt lat="51.99482" lon="4.1561">
        <ele>43</ele>
        <time>2020-07-02T16:26:12Z</time>
      </trkpt>
      <trkpt lat="51.99494" lon="4.15645">
        <ele>43</ele>
        <time>2020-07-02T16:26:17Z</time>
      </trkpt>
      <trkpt lat="51.99505" lon="4.15676">
        <ele>45</ele>
        <time>2020-07-02T16:26:23Z</time>
      </trkpt>
      <trkpt lat="51.99512" lon="4.15703">
        <ele>46</ele>
        <time>2020-07-02T16:26:29Z</time>
      </trkpt>
      <trkpt lat="51.9952" lon="4.15726">
        <ele>47</ele>
        <time>2020-07-02T16:26:34Z</time>
      </trkpt>
      <trkpt lat="51.99532" lon="4.15744">
        <ele>44</ele>
        <time>2020-07-02T16:26:39Z</time>
      </trkpt>
      <trkpt lat="51.99547" lon="4.15752">
        <ele>46</ele>
        <time>2020-07-02T16:26:45Z</time>
      </trkpt>
      <trkpt lat="51.99562" lon="4.15735">
        <ele>46</ele>
        <time>2020-07-02T16:26:50Z</time>
      </trkpt>
      <trkpt lat="51.99578" lon="4.15716">
        <ele>47</ele>
        <time>2020-07-02T16:26:56Z</time>
      </trkpt>
      <trkpt lat="51.99595" lon="4.15695">
        <ele>47</ele>
        <time>2020-07-02T16:27:02Z</time>
      </trkpt>
      <trkpt lat="51.99614" lon="4.15674">
        <ele>50</ele>
        <time>2020-07-02T16:27:07Z</time>
      </trkpt>
      <trkpt lat="51.99634" lon="4.15654">
        <ele>48</ele>
        <time>2020-07-02T16:27:12Z</time>
      </trkpt>
      <trkpt lat="51.9966" lon="4.15632">
        <ele>46</ele>
        <time>2020-07-02T16:27:18Z</time>
      </trkpt>
      <trkpt lat="51.99678" lon="4.15615">
        <ele>45</ele>
        <time>2020-07-02T16:27:23Z</time>
      </trkpt>
      <trkpt lat="51.99692" lon="4.15599">
        <ele>45</ele>
        <time>2020-07-02T16:27:28Z</time>
      </trkpt>
      <trkpt lat="51.99711" lon="4.15584">
        <ele>47</ele>
        <time>2020-07-02T16:27:34Z</time>
      </trkpt>
      <trkpt lat="51.99727" lon="4.15571">
        <ele>45</ele>
        <time>2020-07-02T16:27:39Z</time>
      </trkpt>
      <trkpt lat="51.99742" lon="4.15559">
        <ele>44</ele>
        <time>2020-07-02T16:27:44Z</time>
      </trkpt>
      <trkpt lat="51.99761" lon="4.15543">
        <ele>47</ele>
        <time>2020-07-02T16:27:50Z</time>
      </trkpt>
      <trkpt lat="51.99776" lon="4.1553">
        <ele>48</ele>
        <time>2020-07-02T16:27:55Z</time>
      </trkpt>
      <trkpt lat="51.99795" lon="4.15516">
        <ele>48</ele>
        <time>2020-07-02T16:28:01Z</time>
      </trkpt>
      <trkpt lat="51.99815" lon="4.15504">
        <ele>45</ele>
        <time>2020-07-02T16:28:07Z</time>
      </trkpt>
      <trkpt lat="51.99832" lon="4.15491">
        <ele>46</ele>
        <time>2020-07-02T16:28:12Z</time>
      </trkpt>
      <trkpt lat="51.99849" lon="4.15479">
        <ele>47</ele>
        <time>2020-07-02T16:28:18Z</time>
      </trkpt>
      <trkpt lat="51.99866" lon="4.15467">
        <ele>47</ele>
        <time>2020-07-02T16:28:23Z</time>
      </trkpt>
      <trkpt lat="51.99883" lon="4.15456">
        <ele>47</ele>
        <time>2020-07-02T16:28:28Z</time>
      </trkpt>
      <trkpt lat="51.99903" lon="4.15443">
        <ele>48</ele>
        <time>2020-07-02T16:28:34Z</time>
      </trkpt>
      <trkpt lat="51.99918" lon="4.15431">
        <ele>47</ele>
        <time>2020-07-02T16:28:39Z</time>
      </trkpt>
      <trkpt lat="51.99933" lon="4.15421">
        <ele>45</ele>
        <time>2020-07-02T16:28:44Z</time>
      </trkpt>
      <trkpt lat="51.99949" lon="4.15411">
        <ele>47</ele>
        <time>2020-07-02T16:28:49Z</time>
      </trkpt>
      <trkpt lat="51.99965" lon="4.15402">
        <ele>46</ele>
        <time>2020-07-02T16:28:54Z</time>
      </trkpt>
      <trkpt lat="51.99981" lon="4.15393">
        <ele>47</ele>
        <time>2020-07-02T16:28:59Z</time>
      </trkpt>
      <trkpt lat="52.00004" lon="4.15378">
        <ele>46</ele>
        <time>2020-07-02T16:29:05Z</time>
      </trkpt>
      <trkpt lat="52.00025" lon="4.15367">
        <ele>46</ele>
        <time>2020-07-02T16:29:11Z</time>
      </trkpt>
      <trkpt lat="52.00044" lon="4.15358">
        <ele>47</ele>
        <time>2020-07-02T16:29:16Z</time>
      </trkpt>
      <trkpt lat="52.00067" lon="4.15346">
        <ele>47</ele>
        <time>2020-07-02T16:29:22Z</time>
      </trkpt>
      <trkpt lat="52.00085" lon="4.15336">
        <ele>48</ele>
        <time>2020-07-02T16:29:27Z</time>
      </trkpt>
      <trkpt lat="52.00107" lon="4.15325">
        <ele>48</ele>
        <time>2020-07-02T16:29:33Z</time>
      </trkpt>
      <trkpt lat="52.00126" lon="4.15316">
        <ele>48</ele>
        <time>2020-07-02T16:29:38Z</time>
      </trkpt>
      <trkpt lat="52.00145" lon="4.15307">
        <ele>48</ele>
        <time>2020-07-02T16:29:43Z</time>
      </trkpt>
      <trkpt lat="52.00167" lon="4.15297">
        <ele>48</ele>
        <time>2020-07-02T16:29:49Z</time>
      </trkpt>
      <trkpt lat="52.00185" lon="4.15288">
        <ele>48</ele>
        <time>2020-07-02T16:29:54Z</time>
      </trkpt>
      <trkpt lat="52.00207" lon="4.15278">
        <ele>49</ele>
        <time>2020-07-02T16:30:00Z</time>
      </trkpt>
      <trkpt lat="52.00231" lon="4.15266">
        <ele>50</ele>
        <time>2020-07-02T16:30:06Z</time>
      </trkpt>
      <trkpt lat="52.00249" lon="4.15257">
        <ele>48</ele>
        <time>2020-07-02T16:30:11Z</time>
      </trkpt>
      <trkpt lat="52.00269" lon="4.15248">
        <ele>49</ele>
        <time>2020-07-02T16:30:16Z</time>
      </trkpt>
      <trkpt lat="52.00292" lon="4.15237">
        <ele>51</ele>
        <time>2020-07-02T16:30:22Z</time>
      </trkpt>
      <trkpt lat="52.00314" lon="4.15228">
        <ele>50</ele>
        <time>2020-07-02T16:30:28Z</time>
      </trkpt>
      <trkpt lat="52.00331" lon="4.15216">
        <ele>50</ele>
        <time>2020-07-02T16:30:33Z</time>
      </trkpt>
      <trkpt lat="52.00345" lon="4.15203">
        <ele>51</ele>
        <time>2020-07-02T16:30:39Z</time>
      </trkpt>
      <trkpt lat="52.00354" lon="4.15196">
        <ele>50</ele>
        <time>2020-07-02T16:30:45Z</time>
      </trkpt>
      <trkpt lat="52.00367" lon="4.15186">
        <ele>49</ele>
        <time>2020-07-02T16:30:50Z</time>
      </trkpt>
      <trkpt lat="52.00384" lon="4.1517">
        <ele>48</ele>
        <time>2020-07-02T16:30:55Z</time>
      </trkpt>
      <trkpt lat="52.00406" lon="4.15154">
        <ele>48</ele>
        <time>2020-07-02T16:31:00Z</time>
      </trkpt>
      <trkpt lat="52.00428" lon="4.1514">
        <ele>47</ele>
        <time>2020-07-02T16:31:05Z</time>
      </trkpt>
      <trkpt lat="52.00454" lon="4.15128">
        <ele>47</ele>
        <time>2020-07-02T16:31:11Z</time>
      </trkpt>
      <trkpt lat="52.00478" lon="4.15119">
        <ele>48</ele>
        <time>2020-07-02T16:31:17Z</time>
      </trkpt>
      <trkpt lat="52.00498" lon="4.15112">
        <ele>47</ele>
        <time>2020-07-02T16:31:22Z</time>
      </trkpt>
      <trkpt lat="52.00517" lon="4.15104">
        <ele>49</ele>
        <time>2020-07-02T16:31:27Z</time>
      </trkpt>
      <trkpt lat="52.00541" lon="4.15094">
        <ele>49</ele>
        <time>2020-07-02T16:31:33Z</time>
      </trkpt>
      <trkpt lat="52.00561" lon="4.15086">
        <ele>50</ele>
        <time>2020-07-02T16:31:38Z</time>
      </trkpt>
      <trkpt lat="52.0058" lon="4.15078">
        <ele>48</ele>
        <time>2020-07-02T16:31:43Z</time>
      </trkpt>
      <trkpt lat="52.00604" lon="4.15068">
        <ele>48</ele>
        <time>2020-07-02T16:31:49Z</time>
      </trkpt>
      <trkpt lat="52.00622" lon="4.1506">
        <ele>49</ele>
        <time>2020-07-02T16:31:54Z</time>
      </trkpt>
      <trkpt lat="52.00647" lon="4.15048">
        <ele>51</ele>
        <time>2020-07-02T16:32:00Z</time>
      </trkpt>
      <trkpt lat="52.00671" lon="4.15038">
        <ele>53</ele>
        <time>2020-07-02T16:32:06Z</time>
      </trkpt>
      <trkpt lat="52.00689" lon="4.1503">
        <ele>54</ele>
        <time>2020-07-02T16:32:11Z</time>
      </trkpt>
      <trkpt lat="52.00712" lon="4.15019">
        <ele>52</ele>
        <time>2020-07-02T16:32:17Z</time>
      </trkpt>
      <trkpt lat="52.00732" lon="4.15011">
        <ele>55</ele>
        <time>2020-07-02T16:32:22Z</time>
      </trkpt>
      <trkpt lat="52.00754" lon="4.15004">
        <ele>53</ele>
        <time>2020-07-02T16:32:28Z</time>
      </trkpt>
      <trkpt lat="52.00772" lon="4.14999">
        <ele>51</ele>
        <time>2020-07-02T16:32:33Z</time>
      </trkpt>
      <trkpt lat="52.00792" lon="4.14992">
        <ele>50</ele>
        <time>2020-07-02T16:32:38Z</time>
      </trkpt>
      <trkpt lat="52.00811" lon="4.14989">
        <ele>50</ele>
        <time>2020-07-02T16:32:43Z</time>
      </trkpt>
      <trkpt lat="52.00833" lon="4.14985">
        <ele>49</ele>
        <time>2020-07-02T16:32:49Z</time>
      </trkpt>
      <trkpt lat="52.00857" lon="4.14984">
        <ele>49</ele>
        <time>2020-07-02T16:32:55Z</time>
      </trkpt>
      <trkpt lat="52.00881" lon="4.14982">
        <ele>50</ele>
        <time>2020-07-02T16:33:01Z</time>
      </trkpt>
      <trkpt lat="52.009" lon="4.14979">
        <ele>51</ele>
        <time>2020-07-02T16:33:06Z</time>
      </trkpt>
      <trkpt lat="52.00918" lon="4.14976">
        <ele>53</ele>
        <time>2020-07-02T16:33:11Z</time>
      </trkpt>
      <trkpt lat="52.00937" lon="4.14971">
        <ele>50</ele>
        <time>2020-07-02T16:33:17Z</time>
      </trkpt>
      <trkpt lat="52.00947" lon="4.14957">
        <ele>48</ele>
        <time>2020-07-02T16:33:23Z</time>
      </trkpt>
      <trkpt lat="52.00953" lon="4.14939">
        <ele>48</ele>
        <time>2020-07-02T16:33:29Z</time>
      </trkpt>
      <trkpt lat="52.00959" lon="4.14921">
        <ele>48</ele>
        <time>2020-07-02T16:33:35Z</time>
      </trkpt>
      <trkpt lat="52.00963" lon="4.14908">
        <ele>49</ele>
        <time>2020-07-02T16:33:40Z</time>
      </trkpt>
      <trkpt lat="52.00968" lon="4.1489">
        <ele>51</ele>
        <time>2020-07-02T16:33:46Z</time>
      </trkpt>
      <trkpt lat="52.00974" lon="4.14871">
        <ele>51</ele>
        <time>2020-07-02T16:33:52Z</time>
      </trkpt>
      <trkpt lat="52.00978" lon="4.14852">
        <ele>51</ele>
        <time>2020-07-02T16:33:58Z</time>
      </trkpt>
      <trkpt lat="52.00982" lon="4.14836">
        <ele>51</ele>
        <time>2020-07-02T16:34:03Z</time>
      </trkpt>
      <trkpt lat="52.00985" lon="4.1482">
        <ele>50</ele>
        <time>2020-07-02T16:34:08Z</time>
      </trkpt>
      <trkpt lat="52.00988" lon="4.14804">
        <ele>50</ele>
        <time>2020-07-02T16:34:13Z</time>
      </trkpt>
      <trkpt lat="52.00992" lon="4.14786">
        <ele>49</ele>
        <time>2020-07-02T16:34:19Z</time>
      </trkpt>
      <trkpt lat="52.00996" lon="4.1477">
        <ele>50</ele>
        <time>2020-07-02T16:34:24Z</time>
      </trkpt>
      <trkpt lat="52.01005" lon="4.14763">
        <ele>52</ele>
        <time>2020-07-02T16:34:29Z</time>
      </trkpt>
      <trkpt lat="52.01021" lon="4.14774">
        <ele>51</ele>
        <time>2020-07-02T16:34:34Z</time>
      </trkpt>
      <trkpt lat="52.01051" lon="4.14792">
        <ele>52</ele>
        <time>2020-07-02T16:34:40Z</time>
      </trkpt>
      <trkpt lat="52.01088" lon="4.14813">
        <ele>50</ele>
        <time>2020-07-02T16:34:46Z</time>
      </trkpt>
      <trkpt lat="52.01123" lon="4.14831">
        <ele>48</ele>
        <time>2020-07-02T16:34:51Z</time>
      </trkpt>
      <trkpt lat="52.01159" lon="4.14846">
        <ele>48</ele>
        <time>2020-07-02T16:34:56Z</time>
      </trkpt>
      <trkpt lat="52.01191" lon="4.14862">
        <ele>48</ele>
        <time>2020-07-02T16:35:02Z</time>
      </trkpt>
      <trkpt lat="52.0122" lon="4.14874">
        <ele>46</ele>
        <time>2020-07-02T16:35:08Z</time>
      </trkpt>
      <trkpt lat="52.0124" lon="4.14881">
        <ele>47</ele>
        <time>2020-07-02T16:35:13Z</time>
      </trkpt>
      <trkpt lat="52.0126" lon="4.14887">
        <ele>50</ele>
        <time>2020-07-02T16:35:19Z</time>
      </trkpt>
      <trkpt lat="52.0128" lon="4.14895">
        <ele>51</ele>
        <time>2020-07-02T16:35:25Z</time>
      </trkpt>
      <trkpt lat="52.01303" lon="4.14904">
        <ele>50</ele>
        <time>2020-07-02T16:35:31Z</time>
      </trkpt>
      <trkpt lat="52.01321" lon="4.14912">
        <ele>47</ele>
        <time>2020-07-02T16:35:36Z</time>
      </trkpt>
      <trkpt lat="52.01341" lon="4.14919">
        <ele>47</ele>
        <time>2020-07-02T16:35:41Z</time>
      </trkpt>
      <trkpt lat="52.01364" lon="4.1493">
        <ele>47</ele>
        <time>2020-07-02T16:35:46Z</time>
      </trkpt>
      <trkpt lat="52.01393" lon="4.14944">
        <ele>49</ele>
        <time>2020-07-02T16:35:52Z</time>
      </trkpt>
      <trkpt lat="52.0142" lon="4.14953">
        <ele>50</ele>
        <time>2020-07-02T16:35:58Z</time>
      </trkpt>
      <trkpt lat="52.01449" lon="4.14967">
        <ele>53</ele>
        <time>2020-07-02T16:36:04Z</time>
      </trkpt>
      <trkpt lat="52.01472" lon="4.14976">
        <ele>52</ele>
        <time>2020-07-02T16:36:09Z</time>
      </trkpt>
      <trkpt lat="52.015" lon="4.14989">
        <ele>49</ele>
        <time>2020-07-02T16:36:15Z</time>
      </trkpt>
      <trkpt lat="52.01531" lon="4.15004">
        <ele>51</ele>
        <time>2020-07-02T16:36:21Z</time>
      </trkpt>
      <trkpt lat="52.01555" lon="4.15013">
        <ele>48</ele>
        <time>2020-07-02T16:36:26Z</time>
      </trkpt>
      <trkpt lat="52.01583" lon="4.15022">
        <ele>49</ele>
        <time>2020-07-02T16:36:32Z</time>
      </trkpt>
      <trkpt lat="52.01601" lon="4.15025">
        <ele>50</ele>
        <time>2020-07-02T16:36:37Z</time>
      </trkpt>
      <trkpt lat="52.01618" lon="4.1503">
        <ele>53</ele>
        <time>2020-07-02T16:36:42Z</time>
      </trkpt>
      <trkpt lat="52.01635" lon="4.15037">
        <ele>53</ele>
        <time>2020-07-02T16:36:48Z</time>
      </trkpt>
      <trkpt lat="52.0165" lon="4.15054">
        <ele>50</ele>
        <time>2020-07-02T16:36:53Z</time>
      </trkpt>
      <trkpt lat="52.01668" lon="4.15074">
        <ele>51</ele>
        <time>2020-07-02T16:36:59Z</time>
      </trkpt>
      <trkpt lat="52.01681" lon="4.15089">
        <ele>51</ele>
        <time>2020-07-02T16:37:04Z</time>
      </trkpt>
      <trkpt lat="52.01697" lon="4.15107">
        <ele>54</ele>
        <time>2020-07-02T16:37:10Z</time>
      </trkpt>
      <trkpt lat="52.01714" lon="4.15131">
        <ele>48</ele>
        <time>2020-07-02T16:37:15Z</time>
      </trkpt>
      <trkpt lat="52.01728" lon="4.1515">
        <ele>47</ele>
        <time>2020-07-02T16:37:20Z</time>
      </trkpt>
      <trkpt lat="52.01745" lon="4.15169">
        <ele>48</ele>
        <time>2020-07-02T16:37:25Z</time>
      </trkpt>
      <trkpt lat="52.01774" lon="4.15209">
        <ele>40</ele>
        <time>2020-07-02T16:37:31Z</time>
      </trkpt>
      <trkpt lat="52.01794" lon="4.15229">
        <ele>43</ele>
        <time>2020-07-02T16:37:37Z</time>
      </trkpt>
      <trkpt lat="52.01816" lon="4.15256">
        <ele>47</ele>
        <time>2020-07-02T16:37:43Z</time>
      </trkpt>
      <trkpt lat="52.01835" lon="4.1528">
        <ele>48</ele>
        <time>2020-07-02T16:37:48Z</time>
      </trkpt>
      <trkpt lat="52.01859" lon="4.15309">
        <ele>49</ele>
        <time>2020-07-02T16:37:54Z</time>
      </trkpt>
      <trkpt lat="52.01881" lon="4.1534">
        <ele>46</ele>
        <time>2020-07-02T16:38:00Z</time>
      </trkpt>
      <trkpt lat="52.01904" lon="4.15369">
        <ele>44</ele>
        <time>2020-07-02T16:38:05Z</time>
      </trkpt>
      <trkpt lat="52.01928" lon="4.15394">
        <ele>50</ele>
        <time>2020-07-02T16:38:11Z</time>
      </trkpt>
      <trkpt lat="52.01955" lon="4.15424">
        <ele>49</ele>
        <time>2020-07-02T16:38:17Z</time>
      </trkpt>
      <trkpt lat="52.01979" lon="4.15454">
        <ele>52</ele>
        <time>2020-07-02T16:38:23Z</time>
      </trkpt>
      <trkpt lat="52.02004" lon="4.15484">
        <ele>53</ele>
        <time>2020-07-02T16:38:29Z</time>
      </trkpt>
      <trkpt lat="52.02028" lon="4.15512">
        <ele>52</ele>
        <time>2020-07-02T16:38:35Z</time>
      </trkpt>
      <trkpt lat="52.02051" lon="4.15544">
        <ele>52</ele>
        <time>2020-07-02T16:38:41Z</time>
      </trkpt>
      <trkpt lat="52.02074" lon="4.15574">
        <ele>49</ele>
        <time>2020-07-02T16:38:46Z</time>
      </trkpt>
      <trkpt lat="52.02095" lon="4.15599">
        <ele>51</ele>
        <time>2020-07-02T16:38:51Z</time>
      </trkpt>
      <trkpt lat="52.02121" lon="4.1563">
        <ele>51</ele>
        <time>2020-07-02T16:38:57Z</time>
      </trkpt>
      <trkpt lat="52.02142" lon="4.15658">
        <ele>50</ele>
        <time>2020-07-02T16:39:02Z</time>
      </trkpt>
      <trkpt lat="52.02166" lon="4.15685">
        <ele>50</ele>
        <time>2020-07-02T16:39:07Z</time>
      </trkpt>
      <trkpt lat="52.02195" lon="4.15721">
        <ele>50</ele>
        <time>2020-07-02T16:39:13Z</time>
      </trkpt>
      <trkpt lat="52.0222" lon="4.15748">
        <ele>49</ele>
        <time>2020-07-02T16:39:18Z</time>
      </trkpt>
      <trkpt lat="52.02244" lon="4.15781">
        <ele>48</ele>
        <time>2020-07-02T16:39:24Z</time>
      </trkpt>
      <trkpt lat="52.02264" lon="4.15804">
        <ele>51</ele>
        <time>2020-07-02T16:39:29Z</time>
      </trkpt>
      <trkpt lat="52.02287" lon="4.15832">
        <ele>50</ele>
        <time>2020-07-02T16:39:34Z</time>
      </trkpt>
      <trkpt lat="52.02315" lon="4.15867">
        <ele>50</ele>
        <time>2020-07-02T16:39:40Z</time>
      </trkpt>
      <trkpt lat="52.02338" lon="4.15895">
        <ele>49</ele>
        <time>2020-07-02T16:39:45Z</time>
      </trkpt>
      <trkpt lat="52.02361" lon="4.15922">
        <ele>50</ele>
        <time>2020-07-02T16:39:50Z</time>
      </trkpt>
      <trkpt lat="52.02381" lon="4.15948">
        <ele>50</ele>
        <time>2020-07-02T16:39:55Z</time>
      </trkpt>
      <trkpt lat="52.02409" lon="4.15983">
        <ele>52</ele>
        <time>2020-07-02T16:40:01Z</time>
      </trkpt>
      <trkpt lat="52.02435" lon="4.1602">
        <ele>53</ele>
        <time>2020-07-02T16:40:07Z</time>
      </trkpt>
      <trkpt lat="52.0246" lon="4.16064">
        <ele>52</ele>
        <time>2020-07-02T16:40:13Z</time>
      </trkpt>
      <trkpt lat="52.02485" lon="4.16107">
        <ele>52</ele>
        <time>2020-07-02T16:40:18Z</time>
      </trkpt>
      <trkpt lat="52.02515" lon="4.16163">
        <ele>53</ele>
        <time>2020-07-02T16:40:24Z</time>
      </trkpt>
      <trkpt lat="52.0254" lon="4.16209">
        <ele>51</ele>
        <time>2020-07-02T16:40:29Z</time>
      </trkpt>
      <trkpt lat="52.02562" lon="4.16254">
        <ele>50</ele>
        <time>2020-07-02T16:40:34Z</time>
      </trkpt>
      <trkpt lat="52.02585" lon="4.16297">
        <ele>51</ele>
        <time>2020-07-02T16:40:39Z</time>
      </trkpt>
      <trkpt lat="52.02614" lon="4.16349">
        <ele>53</ele>
        <time>2020-07-02T16:40:45Z</time>
      </trkpt>
      <trkpt lat="52.02646" lon="4.16404">
        <ele>51</ele>
        <time>2020-07-02T16:40:51Z</time>
      </trkpt>
      <trkpt lat="52.02673" lon="4.16456">
        <ele>50</ele>
        <time>2020-07-02T16:40:57Z</time>
      </trkpt>
      <trkpt lat="52.027" lon="4.16506">
        <ele>50</ele>
        <time>2020-07-02T16:41:03Z</time>
      </trkpt>
      <trkpt lat="52.02722" lon="4.16545">
        <ele>52</ele>
        <time>2020-07-02T16:41:08Z</time>
      </trkpt>
      <trkpt lat="52.02743" lon="4.16586">
        <ele>53</ele>
        <time>2020-07-02T16:41:13Z</time>
      </trkpt>
      <trkpt lat="52.02768" lon="4.16636">
        <ele>53</ele>
        <time>2020-07-02T16:41:19Z</time>
      </trkpt>
      <trkpt lat="52.0279" lon="4.16671">
        <ele>55</ele>
        <time>2020-07-02T16:41:24Z</time>
      </trkpt>
      <trkpt lat="52.02812" lon="4.16709">
        <ele>55</ele>
        <time>2020-07-02T16:41:30Z</time>
      </trkpt>
      <trkpt lat="52.02828" lon="4.1674">
        <ele>55</ele>
        <time>2020-07-02T16:41:35Z</time>
      </trkpt>
      <trkpt lat="52.02843" lon="4.16765">
        <ele>55</ele>
        <time>2020-07-02T16:41:40Z</time>
      </trkpt>
      <trkpt lat="52.02859" lon="4.16791">
        <ele>54</ele>
        <time>2020-07-02T16:41:46Z</time>
      </trkpt>
      <trkpt lat="52.0287" lon="4.16809">
        <ele>54</ele>
        <time>2020-07-02T16:41:51Z</time>
      </trkpt>
      <trkpt lat="52.02886" lon="4.16796">
        <ele>52</ele>
        <time>2020-07-02T16:41:56Z</time>
      </trkpt>
      <trkpt lat="52.02898" lon="4.16755">
        <ele>51</ele>
        <time>2020-07-02T16:42:02Z</time>
      </trkpt>
      <trkpt lat="52.02908" lon="4.1673">
        <ele>52</ele>
        <time>2020-07-02T16:42:07Z</time>
      </trkpt>
      <trkpt lat="52.02911" lon="4.16717">
        <ele>51</ele>
        <time>2020-07-02T16:42:13Z</time>
      </trkpt>
      <trkpt lat="52.02914" lon="4.16709">
        <ele>53</ele>
        <time>2020-07-02T16:42:46Z</time>
      </trkpt>
      <trkpt lat="52.02918" lon="4.16698">
        <ele>52</ele>
        <time>2020-07-02T16:42:52Z</time>
      </trkpt>
      <trkpt lat="52.02914" lon="4.16703">
        <ele>52</ele>
        <time>2020-07-02T16:43:44Z</time>
      </trkpt>
      <trkpt lat="52.02911" lon="4.16708">
        <ele>52</ele>
        <time>2020-07-02T16:43:51Z</time>
      </trkpt>
      <trkpt lat="52.02914" lon="4.16715">
        <ele>54</ele>
        <time>2020-07-02T16:44:06Z</time>
      </trkpt>
      <trkpt lat="52.02919" lon="4.16719">
        <ele>53</ele>
        <time>2020-07-02T16:44:13Z</time>
      </trkpt>
      <trkpt lat="52.02925" lon="4.16723">
        <ele>55</ele>
        <time>2020-07-02T16:44:19Z</time>
      </trkpt>
      <trkpt lat="52.02929" lon="4.16719">
        <ele>52</ele>
        <time>2020-07-02T16:44:28Z</time>
      </trkpt>
      <trkpt lat="52.02932" lon="4.16713">
        <ele>53</ele>
        <time>2020-07-02T16:44:40Z</time>
      </trkpt>
      <trkpt lat="52.0293" lon="4.16705">
        <ele>52</ele>
        <time>2020-07-02T16:44:54Z</time>
      </trkpt>
      <trkpt lat="52.02927" lon="4.16699">
        <ele>47</ele>
        <time>2020-07-02T16:49:40Z</time>
      </trkpt>
      <trkpt lat="52.02931" lon="4.16698">
        <ele>55</ele>
        <time>2020-07-02T16:49:56Z</time>
      </trkpt>
      <trkpt lat="52.02936" lon="4.16701">
        <ele>57</ele>
        <time>2020-07-02T16:50:46Z</time>
      </trkpt>
      <trkpt lat="52.02941" lon="4.16701">
        <ele>58</ele>
        <time>2020-07-02T16:51:15Z</time>
      </trkpt>
      <trkpt lat="52.02936" lon="4.16703">
        <ele>56</ele>
        <time>2020-07-02T16:51:36Z</time>
      </trkpt>
      <trkpt lat="52.02931" lon="4.16704">
        <ele>48</ele>
        <time>2020-07-02T16:51:48Z</time>
      </trkpt>
      <trkpt lat="52.02935" lon="4.16699">
        <ele>55</ele>
        <time>2020-07-02T16:52:27Z</time>
      </trkpt>
      <trkpt lat="52.0293" lon="4.16701">
        <ele>48</ele>
        <time>2020-07-02T16:54:22Z</time>
      </trkpt>
      <trkpt lat="52.02935" lon="4.16701">
        <ele>51</ele>
        <time>2020-07-02T16:57:28Z</time>
      </trkpt>
      <trkpt lat="52.02931" lon="4.16704">
        <ele>56</ele>
        <time>2020-07-02T17:08:05Z</time>
      </trkpt>
      <trkpt lat="52.02928" lon="4.16698">
        <ele>47</ele>
        <time>2020-07-02T17:09:26Z</time>
      </trkpt>
      <trkpt lat="52.02932" lon="4.16702">
        <ele>51</ele>
        <time>2020-07-02T17:10:40Z</time>
      </trkpt>
      <trkpt lat="52.02934" lon="4.16709">
        <ele>48</ele>
        <time>2020-07-02T17:12:38Z</time>
      </trkpt>
      <trkpt lat="52.0293" lon="4.16705">
        <ele>49</ele>
        <time>2020-07-02T17:13:00Z</time>
      </trkpt>
      <trkpt lat="52.02926" lon="4.16702">
        <ele>49</ele>
        <time>2020-07-02T17:14:17Z</time>
      </trkpt>
      <trkpt lat="52.0293" lon="4.16705">
        <ele>56</ele>
        <time>2020-07-02T17:18:00Z</time>
      </trkpt>
      <trkpt lat="52.02924" lon="4.16703">
        <ele>48</ele>
        <time>2020-07-02T17:18:22Z</time>
      </trkpt>
      <trkpt lat="52.02929" lon="4.16702">
        <ele>49</ele>
        <time>2020-07-02T17:18:59Z</time>
      </trkpt>
      <trkpt lat="52.02923" lon="4.16703">
        <ele>43</ele>
        <time>2020-07-02T17:20:29Z</time>
      </trkpt>
      <trkpt lat="52.02927" lon="4.16701">
        <ele>56</ele>
        <time>2020-07-02T17:20:44Z</time>
      </trkpt>
      <trkpt lat="52.02922" lon="4.16699">
        <ele>38</ele>
        <time>2020-07-02T17:21:19Z</time>
      </trkpt>
      <trkpt lat="52.02927" lon="4.16698">
        <ele>54</ele>
        <time>2020-07-02T17:21:50Z</time>
      </trkpt>
      <trkpt lat="52.02931" lon="4.16701">
        <ele>55</ele>
        <time>2020-07-02T17:26:19Z</time>
      </trkpt>
      <trkpt lat="52.02936" lon="4.16702">
        <ele>57</ele>
        <time>2020-07-02T17:27:01Z</time>
      </trkpt>
      <trkpt lat="52.02932" lon="4.16705">
        <ele>50</ele>
        <time>2020-07-02T17:27:40Z</time>
      </trkpt>
      <trkpt lat="52.02927" lon="4.16702">
        <ele>47</ele>
        <time>2020-07-02T17:29:08Z</time>
      </trkpt>
      <trkpt lat="52.02933" lon="4.167">
        <ele>56</ele>
        <time>2020-07-02T17:31:03Z</time>
      </trkpt>
      <trkpt lat="52.02928" lon="4.167">
        <ele>47</ele>
        <time>2020-07-02T17:31:52Z</time>
      </trkpt>
      <trkpt lat="52.02923" lon="4.16699">
        <ele>43</ele>
        <time>2020-07-02T17:32:00Z</time>
      </trkpt>
      <trkpt lat="52.02928" lon="4.167">
        <ele>54</ele>
        <time>2020-07-02T17:32:15Z</time>
      </trkpt>
      <trkpt lat="52.02923" lon="4.16704">
        <ele>51</ele>
        <time>2020-07-02T17:33:14Z</time>
      </trkpt>
      <trkpt lat="52.02928" lon="4.16703">
        <ele>55</ele>
        <time>2020-07-02T17:33:38Z</time>
      </trkpt>
      <trkpt lat="52.02932" lon="4.167">
        <ele>62</ele>
        <time>2020-07-02T17:34:17Z</time>
      </trkpt>
      <trkpt lat="52.02927" lon="4.16701">
        <ele>51</ele>
        <time>2020-07-02T17:37:30Z</time>
      </trkpt>
      <trkpt lat="52.02932" lon="4.16703">
        <ele>63</ele>
        <time>2020-07-02T17:38:59Z</time>
      </trkpt>
      <trkpt lat="52.02928" lon="4.16699">
        <ele>56</ele>
        <time>2020-07-02T17:41:34Z</time>
      </trkpt>
      <trkpt lat="52.02932" lon="4.16701">
        <ele>56</ele>
        <time>2020-07-02T17:43:44Z</time>
      </trkpt>
      <trkpt lat="52.02928" lon="4.16706">
        <ele>59</ele>
        <time>2020-07-02T17:45:00Z</time>
      </trkpt>
      <trkpt lat="52.02927" lon="4.16699">
        <ele>48</ele>
        <time>2020-07-02T17:50:35Z</time>
      </trkpt>
      <trkpt lat="52.02932" lon="4.16698">
        <ele>52</ele>
        <time>2020-07-02T17:51:01Z</time>
      </trkpt>
      <trkpt lat="52.02927" lon="4.16699">
        <ele>48</ele>
        <time>2020-07-02T17:51:35Z</time>
      </trkpt>
      <trkpt lat="52.02932" lon="4.16701">
        <ele>59</ele>
        <time>2020-07-02T17:53:41Z</time>
      </trkpt>
    </trkseg>
  </trk>
</gpx>